<?xml version="1.0" encoding="UTF-8" standalone="no" ?><gpx xmlns="http://www.topografix.com/GPX/1/1" xmlns:gpxx="http://www.garmin.com/xmlschemas/GpxExtensions/v3" xmlns:wptx1="http://www.garmin.com/xmlschemas/WaypointExtension/v1" xmlns:gpxtpx="http://www.garmin.com/xmlschemas/TrackPointExtension/v1" creator="Dakota 20" version="1.1" xmlns:xsi="http://www.w3.org/2001/XMLSchema-instance" xsi:schemaLocation="http://www.topografix.com/GPX/1/1 http://www.topografix.com/GPX/1/1/gpx.xsd http://www.garmin.com/xmlschemas/GpxExtensions/v3 http://www8.garmin.com/xmlschemas/GpxExtensionsv3.xsd http://www.garmin.com/xmlschemas/WaypointExtension/v1 http://www8.garmin.com/xmlschemas/WaypointExtensionv1.xsd http://www.garmin.com/xmlschemas/TrackPointExtension/v1 http://www.garmin.com/xmlschemas/TrackPointExtensionv1.xsd"><metadata><link href="http://www.garmin.com"><text>Garmin International</text></link><time>2019-08-15T13:19:28Z</time></metadata><trk><name>15-AOU-19 15:19:26</name><extensions><gpxx:TrackExtension><gpxx:DisplayColor>Red</gpxx:DisplayColor></gpxx:TrackExtension></extensions><trkseg><trkpt lat="42.7694703732" lon="-0.3338851500"><ele>1225.34</ele><time>2019-08-15T08:25:58Z</time></trkpt><trkpt lat="42.7694728877" lon="-0.3338946216"><ele>1225.34</ele><time>2019-08-15T08:26:19Z</time></trkpt><trkpt lat="42.7694754861" lon="-0.3338960465"><ele>1230.62</ele><time>2019-08-15T08:26:21Z</time></trkpt><trkpt lat="42.7694744803" lon="-0.3338959627"><ele>1226.30</ele><time>2019-08-15T08:26:22Z</time></trkpt><trkpt lat="42.7694740612" lon="-0.3338709846"><ele>1226.30</ele><time>2019-08-15T08:26:38Z</time></trkpt><trkpt lat="42.7694616560" lon="-0.3338748403"><ele>1226.78</ele><time>2019-08-15T08:26:56Z</time></trkpt><trkpt lat="42.7694445569" lon="-0.3338645305"><ele>1228.22</ele><time>2019-08-15T08:27:08Z</time></trkpt><trkpt lat="42.7694647573" lon="-0.3338646982"><ele>1228.22</ele><time>2019-08-15T08:27:19Z</time></trkpt><trkpt lat="42.7694528550" lon="-0.3338569030"><ele>1228.22</ele><time>2019-08-15T08:27:23Z</time></trkpt><trkpt lat="42.7693904098" lon="-0.3339094575"><ele>1228.70</ele><time>2019-08-15T08:27:28Z</time></trkpt><trkpt lat="42.7692996338" lon="-0.3340977989"><ele>1231.11</ele><time>2019-08-15T08:27:34Z</time></trkpt><trkpt lat="42.7692395356" lon="-0.3342303168"><ele>1232.55</ele><time>2019-08-15T08:27:40Z</time></trkpt><trkpt lat="42.7691322472" lon="-0.3345225938"><ele>1235.43</ele><time>2019-08-15T08:27:52Z</time></trkpt><trkpt lat="42.7691661939" lon="-0.3346236795"><ele>1235.91</ele><time>2019-08-15T08:27:57Z</time></trkpt><trkpt lat="42.7693625819" lon="-0.3346301336"><ele>1236.39</ele><time>2019-08-15T08:28:06Z</time></trkpt><trkpt lat="42.7697543520" lon="-0.3344579693"><ele>1237.35</ele><time>2019-08-15T08:28:22Z</time></trkpt><trkpt lat="42.7701934800" lon="-0.3343559615"><ele>1239.76</ele><time>2019-08-15T08:28:39Z</time></trkpt><trkpt lat="42.7707206178" lon="-0.3346064966"><ele>1242.64</ele><time>2019-08-15T08:28:59Z</time></trkpt><trkpt lat="42.7711256314" lon="-0.3348898049"><ele>1245.04</ele><time>2019-08-15T08:29:16Z</time></trkpt><trkpt lat="42.7715238556" lon="-0.3351058904"><ele>1248.41</ele><time>2019-08-15T08:29:31Z</time></trkpt><trkpt lat="42.7718246821" lon="-0.3350609634"><ele>1249.85</ele><time>2019-08-15T08:29:43Z</time></trkpt><trkpt lat="42.7719829325" lon="-0.3349730372"><ele>1250.33</ele><time>2019-08-15T08:29:50Z</time></trkpt><trkpt lat="42.7720617224" lon="-0.3350369073"><ele>1251.29</ele><time>2019-08-15T08:29:54Z</time></trkpt><trkpt lat="42.7720038034" lon="-0.3354260791"><ele>1254.18</ele><time>2019-08-15T08:30:07Z</time></trkpt><trkpt lat="42.7717090957" lon="-0.3357170150"><ele>1257.06</ele><time>2019-08-15T08:30:22Z</time></trkpt><trkpt lat="42.7713112906" lon="-0.3359290771"><ele>1259.94</ele><time>2019-08-15T08:30:39Z</time></trkpt><trkpt lat="42.7709641121" lon="-0.3358789533"><ele>1262.83</ele><time>2019-08-15T08:30:53Z</time></trkpt><trkpt lat="42.7706736792" lon="-0.3356326930"><ele>1265.71</ele><time>2019-08-15T08:31:06Z</time></trkpt><trkpt lat="42.7704286762" lon="-0.3357751854"><ele>1268.12</ele><time>2019-08-15T08:31:17Z</time></trkpt><trkpt lat="42.7702272590" lon="-0.3359354474"><ele>1271.48</ele><time>2019-08-15T08:31:27Z</time></trkpt><trkpt lat="42.7698974311" lon="-0.3362533730"><ele>1273.88</ele><time>2019-08-15T08:31:44Z</time></trkpt><trkpt lat="42.7696528472" lon="-0.3366162255"><ele>1275.33</ele><time>2019-08-15T08:31:59Z</time></trkpt><trkpt lat="42.7697258536" lon="-0.3367468156"><ele>1276.29</ele><time>2019-08-15T08:32:04Z</time></trkpt><trkpt lat="42.7697714511" lon="-0.3367448039"><ele>1276.77</ele><time>2019-08-15T08:32:06Z</time></trkpt><trkpt lat="42.7700017858" lon="-0.3365952708"><ele>1278.69</ele><time>2019-08-15T08:32:19Z</time></trkpt><trkpt lat="42.7704055421" lon="-0.3367746435"><ele>1281.57</ele><time>2019-08-15T08:32:34Z</time></trkpt><trkpt lat="42.7707873378" lon="-0.3370864503"><ele>1284.94</ele><time>2019-08-15T08:32:51Z</time></trkpt><trkpt lat="42.7711510286" lon="-0.3371428605"><ele>1286.86</ele><time>2019-08-15T08:33:05Z</time></trkpt><trkpt lat="42.7715091873" lon="-0.3370442055"><ele>1289.75</ele><time>2019-08-15T08:33:20Z</time></trkpt><trkpt lat="42.7716755681" lon="-0.3367453907"><ele>1291.19</ele><time>2019-08-15T08:33:32Z</time></trkpt><trkpt lat="42.7719101775" lon="-0.3364491742"><ele>1294.07</ele><time>2019-08-15T08:33:45Z</time></trkpt><trkpt lat="42.7722305339" lon="-0.3362948634"><ele>1296.48</ele><time>2019-08-15T08:33:59Z</time></trkpt><trkpt lat="42.7725863457" lon="-0.3362391237"><ele>1298.88</ele><time>2019-08-15T08:34:13Z</time></trkpt><trkpt lat="42.7728191949" lon="-0.3360973857"><ele>1300.80</ele><time>2019-08-15T08:34:24Z</time></trkpt><trkpt lat="42.7730141580" lon="-0.3358398098"><ele>1302.72</ele><time>2019-08-15T08:34:36Z</time></trkpt><trkpt lat="42.7733318321" lon="-0.3357145004"><ele>1304.65</ele><time>2019-08-15T08:34:50Z</time></trkpt><trkpt lat="42.7735985443" lon="-0.3356343694"><ele>1307.53</ele><time>2019-08-15T08:35:00Z</time></trkpt><trkpt lat="42.7737261169" lon="-0.3354000952"><ele>1308.01</ele><time>2019-08-15T08:35:08Z</time></trkpt><trkpt lat="42.7737824433" lon="-0.3352740314"><ele>1308.97</ele><time>2019-08-15T08:35:13Z</time></trkpt><trkpt lat="42.7740282007" lon="-0.3347660881"><ele>1311.86</ele><time>2019-08-15T08:35:30Z</time></trkpt><trkpt lat="42.7742296178" lon="-0.3343569674"><ele>1314.74</ele><time>2019-08-15T08:35:45Z</time></trkpt><trkpt lat="42.7744757943" lon="-0.3341234475"><ele>1316.66</ele><time>2019-08-15T08:35:59Z</time></trkpt><trkpt lat="42.7747017704" lon="-0.3338987287"><ele>1319.55</ele><time>2019-08-15T08:36:12Z</time></trkpt><trkpt lat="42.7748885192" lon="-0.3336165100"><ele>1322.91</ele><time>2019-08-15T08:36:26Z</time></trkpt><trkpt lat="42.7750131581" lon="-0.3334246483"><ele>1324.83</ele><time>2019-08-15T08:36:37Z</time></trkpt><trkpt lat="42.7751542255" lon="-0.3331536613"><ele>1328.20</ele><time>2019-08-15T08:36:49Z</time></trkpt><trkpt lat="42.7753154933" lon="-0.3328929842"><ele>1330.60</ele><time>2019-08-15T08:37:04Z</time></trkpt><trkpt lat="42.7753966302" lon="-0.3328196425"><ele>1332.52</ele><time>2019-08-15T08:37:13Z</time></trkpt><trkpt lat="42.7756228577" lon="-0.3326610569"><ele>1335.89</ele><time>2019-08-15T08:37:30Z</time></trkpt><trkpt lat="42.7756636776" lon="-0.3326447960"><ele>1336.37</ele><time>2019-08-15T08:37:33Z</time></trkpt><trkpt lat="42.7757456526" lon="-0.3326139506"><ele>1337.33</ele><time>2019-08-15T08:37:38Z</time></trkpt><trkpt lat="42.7760286257" lon="-0.3325918224"><ele>1341.18</ele><time>2019-08-15T08:37:53Z</time></trkpt><trkpt lat="42.7762853634" lon="-0.3325792495"><ele>1344.06</ele><time>2019-08-15T08:38:09Z</time></trkpt><trkpt lat="42.7764763869" lon="-0.3324111924"><ele>1346.46</ele><time>2019-08-15T08:38:24Z</time></trkpt><trkpt lat="42.7766643092" lon="-0.3321094438"><ele>1350.31</ele><time>2019-08-15T08:38:41Z</time></trkpt><trkpt lat="42.7768719289" lon="-0.3317890037"><ele>1352.71</ele><time>2019-08-15T08:38:59Z</time></trkpt><trkpt lat="42.7771293372" lon="-0.3317079507"><ele>1354.15</ele><time>2019-08-15T08:39:12Z</time></trkpt><trkpt lat="42.7774838917" lon="-0.3318647761"><ele>1355.60</ele><time>2019-08-15T08:39:28Z</time></trkpt><trkpt lat="42.7778174914" lon="-0.3320856392"><ele>1357.52</ele><time>2019-08-15T08:39:45Z</time></trkpt><trkpt lat="42.7779162303" lon="-0.3321283031"><ele>1358.48</ele><time>2019-08-15T08:39:51Z</time></trkpt><trkpt lat="42.7779713832" lon="-0.3321597353"><ele>1359.92</ele><time>2019-08-15T08:39:55Z</time></trkpt><trkpt lat="42.7780746482" lon="-0.3321824502"><ele>1360.88</ele><time>2019-08-15T08:40:02Z</time></trkpt><trkpt lat="42.7782872971" lon="-0.3322464880"><ele>1364.25</ele><time>2019-08-15T08:40:15Z</time></trkpt><trkpt lat="42.7784906421" lon="-0.3323201649"><ele>1367.13</ele><time>2019-08-15T08:40:28Z</time></trkpt><trkpt lat="42.7786827553" lon="-0.3323864657"><ele>1370.50</ele><time>2019-08-15T08:40:41Z</time></trkpt><trkpt lat="42.7788338810" lon="-0.3324391879"><ele>1371.94</ele><time>2019-08-15T08:40:52Z</time></trkpt><trkpt lat="42.7789070550" lon="-0.3324687760"><ele>1372.90</ele><time>2019-08-15T08:40:57Z</time></trkpt><trkpt lat="42.7791553270" lon="-0.3325677663"><ele>1375.78</ele><time>2019-08-15T08:41:13Z</time></trkpt><trkpt lat="42.7793509606" lon="-0.3325652517"><ele>1377.71</ele><time>2019-08-15T08:41:26Z</time></trkpt><trkpt lat="42.7796056028" lon="-0.3325287905"><ele>1380.59</ele><time>2019-08-15T08:41:42Z</time></trkpt><trkpt lat="42.7797806170" lon="-0.3325243481"><ele>1382.03</ele><time>2019-08-15T08:41:54Z</time></trkpt><trkpt lat="42.7800417971" lon="-0.3325497452"><ele>1385.40</ele><time>2019-08-15T08:42:09Z</time></trkpt><trkpt lat="42.7802862134" lon="-0.3326104302"><ele>1386.84</ele><time>2019-08-15T08:42:23Z</time></trkpt><trkpt lat="42.7804990299" lon="-0.3325891402"><ele>1388.28</ele><time>2019-08-15T08:42:35Z</time></trkpt><trkpt lat="42.7808201406" lon="-0.3324005473"><ele>1389.24</ele><time>2019-08-15T08:42:49Z</time></trkpt><trkpt lat="42.7811061312" lon="-0.3322338313"><ele>1390.20</ele><time>2019-08-15T08:43:01Z</time></trkpt><trkpt lat="42.7813637070" lon="-0.3320843820"><ele>1391.17</ele><time>2019-08-15T08:43:13Z</time></trkpt><trkpt lat="42.7817208599" lon="-0.3318333440"><ele>1391.65</ele><time>2019-08-15T08:43:28Z</time></trkpt><trkpt lat="42.7821016498" lon="-0.3315201122"><ele>1392.13</ele><time>2019-08-15T08:43:42Z</time></trkpt><trkpt lat="42.7825044002" lon="-0.3311985824"><ele>1393.57</ele><time>2019-08-15T08:43:56Z</time></trkpt><trkpt lat="42.7826737147" lon="-0.3307778109"><ele>1394.05</ele><time>2019-08-15T08:44:07Z</time></trkpt><trkpt lat="42.7828911413" lon="-0.3301826958"><ele>1394.05</ele><time>2019-08-15T08:44:20Z</time></trkpt><trkpt lat="42.7831560094" lon="-0.3296524566"><ele>1394.05</ele><time>2019-08-15T08:44:32Z</time></trkpt><trkpt lat="42.7834224701" lon="-0.3292716667"><ele>1394.53</ele><time>2019-08-15T08:44:44Z</time></trkpt><trkpt lat="42.7837893460" lon="-0.3287612926"><ele>1395.49</ele><time>2019-08-15T08:44:59Z</time></trkpt><trkpt lat="42.7839281503" lon="-0.3281540237"><ele>1395.49</ele><time>2019-08-15T08:45:11Z</time></trkpt><trkpt lat="42.7839276474" lon="-0.3274829686"><ele>1395.97</ele><time>2019-08-15T08:45:24Z</time></trkpt><trkpt lat="42.7839762624" lon="-0.3270382248"><ele>1395.97</ele><time>2019-08-15T08:45:37Z</time></trkpt><trkpt lat="42.7839803696" lon="-0.3270238917"><ele>1395.97</ele><time>2019-08-15T08:45:40Z</time></trkpt><trkpt lat="42.7840030007" lon="-0.3269774560"><ele>1396.45</ele><time>2019-08-15T08:45:44Z</time></trkpt><trkpt lat="42.7843438927" lon="-0.3271238878"><ele>1396.45</ele><time>2019-08-15T08:45:56Z</time></trkpt><trkpt lat="42.7845019754" lon="-0.3272500355"><ele>1395.97</ele><time>2019-08-15T08:46:01Z</time></trkpt><trkpt lat="42.7848664206" lon="-0.3276240360"><ele>1397.41</ele><time>2019-08-15T08:46:13Z</time></trkpt><trkpt lat="42.7851922251" lon="-0.3278060909"><ele>1397.41</ele><time>2019-08-15T08:46:22Z</time></trkpt><trkpt lat="42.7854757011" lon="-0.3279158100"><ele>1397.89</ele><time>2019-08-15T08:46:29Z</time></trkpt><trkpt lat="42.7858559042" lon="-0.3278469108"><ele>1399.82</ele><time>2019-08-15T08:46:40Z</time></trkpt><trkpt lat="42.7861131448" lon="-0.3276120499"><ele>1400.78</ele><time>2019-08-15T08:46:52Z</time></trkpt><trkpt lat="42.7863414679" lon="-0.3274177574"><ele>1402.22</ele><time>2019-08-15T08:47:03Z</time></trkpt><trkpt lat="42.7865469921" lon="-0.3272499517"><ele>1404.14</ele><time>2019-08-15T08:47:13Z</time></trkpt><trkpt lat="42.7870033868" lon="-0.3270793799"><ele>1403.18</ele><time>2019-08-15T08:47:23Z</time></trkpt><trkpt lat="42.7874280140" lon="-0.3271078784"><ele>1402.70</ele><time>2019-08-15T08:47:30Z</time></trkpt><trkpt lat="42.7877026051" lon="-0.3271673899"><ele>1404.14</ele><time>2019-08-15T08:47:38Z</time></trkpt><trkpt lat="42.7879144996" lon="-0.3272255603"><ele>1406.55</ele><time>2019-08-15T08:47:48Z</time></trkpt><trkpt lat="42.7880315110" lon="-0.3272625245"><ele>1408.95</ele><time>2019-08-15T08:47:54Z</time></trkpt><trkpt lat="42.7880491130" lon="-0.3272721637"><ele>1408.47</ele><time>2019-08-15T08:47:55Z</time></trkpt><trkpt lat="42.7883892506" lon="-0.3272847366"><ele>1412.31</ele><time>2019-08-15T08:48:09Z</time></trkpt><trkpt lat="42.7884703875" lon="-0.3272840660"><ele>1412.79</ele><time>2019-08-15T08:48:13Z</time></trkpt><trkpt lat="42.7886329964" lon="-0.3272173461"><ele>1415.20</ele><time>2019-08-15T08:48:25Z</time></trkpt><trkpt lat="42.7887845412" lon="-0.3272767738"><ele>1416.64</ele><time>2019-08-15T08:48:34Z</time></trkpt><trkpt lat="42.7890677657" lon="-0.3273590840"><ele>1419.52</ele><time>2019-08-15T08:48:50Z</time></trkpt><trkpt lat="42.7891255170" lon="-0.3273816314"><ele>1420.00</ele><time>2019-08-15T08:48:53Z</time></trkpt><trkpt lat="42.7894193027" lon="-0.3275697213"><ele>1421.45</ele><time>2019-08-15T08:49:08Z</time></trkpt><trkpt lat="42.7896285988" lon="-0.3278075159"><ele>1422.89</ele><time>2019-08-15T08:49:21Z</time></trkpt><trkpt lat="42.7896795608" lon="-0.3278851323"><ele>1423.37</ele><time>2019-08-15T08:49:26Z</time></trkpt><trkpt lat="42.7897393238" lon="-0.3278485872"><ele>1423.37</ele><time>2019-08-15T08:49:29Z</time></trkpt><trkpt lat="42.7900675591" lon="-0.3278324101"><ele>1423.37</ele><time>2019-08-15T08:49:42Z</time></trkpt><trkpt lat="42.7903174236" lon="-0.3281003796"><ele>1423.85</ele><time>2019-08-15T08:49:52Z</time></trkpt><trkpt lat="42.7906252909" lon="-0.3284046426"><ele>1424.81</ele><time>2019-08-15T08:50:03Z</time></trkpt><trkpt lat="42.7907469962" lon="-0.3285110928"><ele>1424.81</ele><time>2019-08-15T08:50:07Z</time></trkpt><trkpt lat="42.7908136323" lon="-0.3285751306"><ele>1423.85</ele><time>2019-08-15T08:50:09Z</time></trkpt><trkpt lat="42.7911836933" lon="-0.3289054614"><ele>1424.81</ele><time>2019-08-15T08:50:21Z</time></trkpt><trkpt lat="42.7912298776" lon="-0.3289291821"><ele>1424.81</ele><time>2019-08-15T08:50:22Z</time></trkpt><trkpt lat="42.7915506531" lon="-0.3290404100"><ele>1425.29</ele><time>2019-08-15T08:50:30Z</time></trkpt><trkpt lat="42.7918871865" lon="-0.3291782085"><ele>1425.77</ele><time>2019-08-15T08:50:38Z</time></trkpt><trkpt lat="42.7919310238" lon="-0.3292015102"><ele>1426.25</ele><time>2019-08-15T08:50:39Z</time></trkpt><trkpt lat="42.7921143360" lon="-0.3293432482"><ele>1425.77</ele><time>2019-08-15T08:50:44Z</time></trkpt><trkpt lat="42.7924456727" lon="-0.3295329306"><ele>1427.70</ele><time>2019-08-15T08:50:54Z</time></trkpt><trkpt lat="42.7927277237" lon="-0.3297414724"><ele>1430.10</ele><time>2019-08-15T08:51:05Z</time></trkpt><trkpt lat="42.7929182444" lon="-0.3298875690"><ele>1432.50</ele><time>2019-08-15T08:51:16Z</time></trkpt><trkpt lat="42.7929974534" lon="-0.3299539536"><ele>1434.42</ele><time>2019-08-15T08:51:22Z</time></trkpt><trkpt lat="42.7930337470" lon="-0.3299777582"><ele>1434.42</ele><time>2019-08-15T08:51:25Z</time></trkpt><trkpt lat="42.7931565419" lon="-0.3300618287"><ele>1435.39</ele><time>2019-08-15T08:51:31Z</time></trkpt><trkpt lat="42.7932370082" lon="-0.3301067557"><ele>1435.87</ele><time>2019-08-15T08:51:35Z</time></trkpt><trkpt lat="42.7935275249" lon="-0.3302921634"><ele>1435.39</ele><time>2019-08-15T08:51:47Z</time></trkpt><trkpt lat="42.7937759645" lon="-0.3306516632"><ele>1435.87</ele><time>2019-08-15T08:51:58Z</time></trkpt><trkpt lat="42.7940304391" lon="-0.3309657332"><ele>1437.31</ele><time>2019-08-15T08:52:10Z</time></trkpt><trkpt lat="42.7943409048" lon="-0.3311075550"><ele>1434.91</ele><time>2019-08-15T08:52:17Z</time></trkpt><trkpt lat="42.7946980577" lon="-0.3313155938"><ele>1435.87</ele><time>2019-08-15T08:52:27Z</time></trkpt><trkpt lat="42.7947911806" lon="-0.3313696571"><ele>1436.35</ele><time>2019-08-15T08:52:31Z</time></trkpt><trkpt lat="42.7949174959" lon="-0.3314793762"><ele>1437.79</ele><time>2019-08-15T08:52:36Z</time></trkpt><trkpt lat="42.7950712200" lon="-0.3316102177"><ele>1437.79</ele><time>2019-08-15T08:52:43Z</time></trkpt><trkpt lat="42.7952553704" lon="-0.3317951225"><ele>1437.31</ele><time>2019-08-15T08:52:50Z</time></trkpt><trkpt lat="42.7955708653" lon="-0.3319825418"><ele>1433.94</ele><time>2019-08-15T08:52:55Z</time></trkpt><trkpt lat="42.7956413571" lon="-0.3320382815"><ele>1432.98</ele><time>2019-08-15T08:52:56Z</time></trkpt><trkpt lat="42.7960472926" lon="-0.3322999645"><ele>1428.18</ele><time>2019-08-15T08:53:03Z</time></trkpt><trkpt lat="42.7961241547" lon="-0.3323232662"><ele>1427.70</ele><time>2019-08-15T08:53:05Z</time></trkpt><trkpt lat="42.7961524855" lon="-0.3323126212"><ele>1427.21</ele><time>2019-08-15T08:53:06Z</time></trkpt><trkpt lat="42.7964010928" lon="-0.3321941011"><ele>1424.33</ele><time>2019-08-15T08:53:13Z</time></trkpt><trkpt lat="42.7964986581" lon="-0.3322065063"><ele>1423.37</ele><time>2019-08-15T08:53:16Z</time></trkpt><trkpt lat="42.7965362929" lon="-0.3322191630"><ele>1423.37</ele><time>2019-08-15T08:53:17Z</time></trkpt><trkpt lat="42.7966922801" lon="-0.3323144652"><ele>1421.93</ele><time>2019-08-15T08:53:20Z</time></trkpt><trkpt lat="42.7970281430" lon="-0.3327814210"><ele>1421.93</ele><time>2019-08-15T08:53:29Z</time></trkpt><trkpt lat="42.7971378621" lon="-0.3328375798"><ele>1422.41</ele><time>2019-08-15T08:53:33Z</time></trkpt><trkpt lat="42.7972236928" lon="-0.3327076603"><ele>1421.93</ele><time>2019-08-15T08:53:42Z</time></trkpt><trkpt lat="42.7972093597" lon="-0.3327612206"><ele>1421.93</ele><time>2019-08-15T08:53:49Z</time></trkpt><trkpt lat="42.7971915901" lon="-0.3328403458"><ele>1422.89</ele><time>2019-08-15T08:53:53Z</time></trkpt><trkpt lat="42.7971949428" lon="-0.3328856081"><ele>1423.85</ele><time>2019-08-15T08:53:55Z</time></trkpt><trkpt lat="42.7971896622" lon="-0.3329481371"><ele>1423.85</ele><time>2019-08-15T08:54:08Z</time></trkpt><trkpt lat="42.7971913386" lon="-0.3329713549"><ele>1423.85</ele><time>2019-08-15T08:54:32Z</time></trkpt><trkpt lat="42.7971887402" lon="-0.3329628892"><ele>1424.33</ele><time>2019-08-15T08:54:58Z</time></trkpt><trkpt lat="42.7971971221" lon="-0.3329583630"><ele>1424.33</ele><time>2019-08-15T08:55:18Z</time></trkpt><trkpt lat="42.7971966192" lon="-0.3329596203"><ele>1424.33</ele><time>2019-08-15T08:55:19Z</time></trkpt><trkpt lat="42.7971907519" lon="-0.3329164535"><ele>1423.85</ele><time>2019-08-15T08:55:30Z</time></trkpt><trkpt lat="42.7971820347" lon="-0.3329072334"><ele>1423.85</ele><time>2019-08-15T08:55:46Z</time></trkpt><trkpt lat="42.7971933503" lon="-0.3329075687"><ele>1424.81</ele><time>2019-08-15T08:56:13Z</time></trkpt><trkpt lat="42.7972107008" lon="-0.3328815009"><ele>1424.81</ele><time>2019-08-15T08:56:19Z</time></trkpt><trkpt lat="42.7972277999" lon="-0.3325406928"><ele>1424.33</ele><time>2019-08-15T08:56:30Z</time></trkpt><trkpt lat="42.7971971221" lon="-0.3324173950"><ele>1422.89</ele><time>2019-08-15T08:56:33Z</time></trkpt><trkpt lat="42.7970969584" lon="-0.3319505230"><ele>1421.45</ele><time>2019-08-15T08:56:45Z</time></trkpt><trkpt lat="42.7969241235" lon="-0.3315659612"><ele>1421.45</ele><time>2019-08-15T08:56:56Z</time></trkpt><trkpt lat="42.7965890151" lon="-0.3312158491"><ele>1421.93</ele><time>2019-08-15T08:57:09Z</time></trkpt><trkpt lat="42.7962424234" lon="-0.3310050443"><ele>1422.89</ele><time>2019-08-15T08:57:22Z</time></trkpt><trkpt lat="42.7960234880" lon="-0.3307089116"><ele>1422.89</ele><time>2019-08-15T08:57:33Z</time></trkpt><trkpt lat="42.7956844401" lon="-0.3301783372"><ele>1424.81</ele><time>2019-08-15T08:57:49Z</time></trkpt><trkpt lat="42.7954075020" lon="-0.3296739981"><ele>1423.85</ele><time>2019-08-15T08:58:03Z</time></trkpt><trkpt lat="42.7951255348" lon="-0.3293134924"><ele>1423.85</ele><time>2019-08-15T08:58:16Z</time></trkpt><trkpt lat="42.7946939506" lon="-0.3288287669"><ele>1423.85</ele><time>2019-08-15T08:58:33Z</time></trkpt><trkpt lat="42.7941953111" lon="-0.3287101630"><ele>1423.37</ele><time>2019-08-15T08:58:45Z</time></trkpt><trkpt lat="42.7940092329" lon="-0.3286941536"><ele>1423.85</ele><time>2019-08-15T08:58:49Z</time></trkpt><trkpt lat="42.7936913911" lon="-0.3284622263"><ele>1423.85</ele><time>2019-08-15T08:59:01Z</time></trkpt><trkpt lat="42.7933076676" lon="-0.3279935941"><ele>1423.37</ele><time>2019-08-15T08:59:14Z</time></trkpt><trkpt lat="42.7928332519" lon="-0.3276633471"><ele>1424.33</ele><time>2019-08-15T08:59:29Z</time></trkpt><trkpt lat="42.7927051764" lon="-0.3276577312"><ele>1424.33</ele><time>2019-08-15T08:59:33Z</time></trkpt><trkpt lat="42.7925731614" lon="-0.3274580743"><ele>1424.33</ele><time>2019-08-15T08:59:40Z</time></trkpt><trkpt lat="42.7923701517" lon="-0.3271685634"><ele>1423.85</ele><time>2019-08-15T08:59:52Z</time></trkpt><trkpt lat="42.7921438403" lon="-0.3267246578"><ele>1424.33</ele><time>2019-08-15T09:00:05Z</time></trkpt><trkpt lat="42.7918277588" lon="-0.3263844363"><ele>1422.89</ele><time>2019-08-15T09:00:16Z</time></trkpt><trkpt lat="42.7915100846" lon="-0.3261985257"><ele>1422.89</ele><time>2019-08-15T09:00:26Z</time></trkpt><trkpt lat="42.7909953520" lon="-0.3261780739"><ele>1424.81</ele><time>2019-08-15T09:00:40Z</time></trkpt><trkpt lat="42.7907547913" lon="-0.3262472246"><ele>1424.81</ele><time>2019-08-15T09:00:53Z</time></trkpt><trkpt lat="42.7907482535" lon="-0.3262529243"><ele>1424.81</ele><time>2019-08-15T09:00:54Z</time></trkpt><trkpt lat="42.7903854847" lon="-0.3264368232"><ele>1424.81</ele><time>2019-08-15T09:01:06Z</time></trkpt><trkpt lat="42.7897777967" lon="-0.3265592828"><ele>1425.29</ele><time>2019-08-15T09:01:21Z</time></trkpt><trkpt lat="42.7897384018" lon="-0.3265612107"><ele>1425.29</ele><time>2019-08-15T09:01:22Z</time></trkpt><trkpt lat="42.7892116830" lon="-0.3265143558"><ele>1425.29</ele><time>2019-08-15T09:01:38Z</time></trkpt><trkpt lat="42.7891908120" lon="-0.3265147749"><ele>1425.29</ele><time>2019-08-15T09:01:39Z</time></trkpt><trkpt lat="42.7890869603" lon="-0.3264421038"><ele>1426.73</ele><time>2019-08-15T09:01:44Z</time></trkpt><trkpt lat="42.7887553722" lon="-0.3261984419"><ele>1429.62</ele><time>2019-08-15T09:02:02Z</time></trkpt><trkpt lat="42.7885381132" lon="-0.3260827716"><ele>1432.50</ele><time>2019-08-15T09:02:17Z</time></trkpt><trkpt lat="42.7885150630" lon="-0.3260807600"><ele>1432.02</ele><time>2019-08-15T09:02:19Z</time></trkpt><trkpt lat="42.7883819584" lon="-0.3261010442"><ele>1433.94</ele><time>2019-08-15T09:02:26Z</time></trkpt><trkpt lat="42.7883239556" lon="-0.3261060733"><ele>1434.42</ele><time>2019-08-15T09:02:29Z</time></trkpt><trkpt lat="42.7882292401" lon="-0.3260850348"><ele>1435.39</ele><time>2019-08-15T09:02:38Z</time></trkpt><trkpt lat="42.7879899368" lon="-0.3259631619"><ele>1436.35</ele><time>2019-08-15T09:02:45Z</time></trkpt><trkpt lat="42.7878641244" lon="-0.3259040695"><ele>1436.83</ele><time>2019-08-15T09:02:49Z</time></trkpt><trkpt lat="42.7877080534" lon="-0.3256895766"><ele>1438.75</ele><time>2019-08-15T09:03:03Z</time></trkpt><trkpt lat="42.7876837458" lon="-0.3256801050"><ele>1439.23</ele><time>2019-08-15T09:03:05Z</time></trkpt><trkpt lat="42.7876449376" lon="-0.3256625868"><ele>1439.23</ele><time>2019-08-15T09:03:08Z</time></trkpt><trkpt lat="42.7874653134" lon="-0.3256290592"><ele>1441.63</ele><time>2019-08-15T09:03:19Z</time></trkpt><trkpt lat="42.7871662471" lon="-0.3255851381"><ele>1444.04</ele><time>2019-08-15T09:03:31Z</time></trkpt><trkpt lat="42.7869630698" lon="-0.3254856449"><ele>1445.00</ele><time>2019-08-15T09:03:41Z</time></trkpt><trkpt lat="42.7868993673" lon="-0.3254675400"><ele>1445.48</ele><time>2019-08-15T09:03:44Z</time></trkpt><trkpt lat="42.7867975272" lon="-0.3254314978"><ele>1447.40</ele><time>2019-08-15T09:03:52Z</time></trkpt><trkpt lat="42.7867497504" lon="-0.3253935277"><ele>1447.88</ele><time>2019-08-15T09:03:56Z</time></trkpt><trkpt lat="42.7867220063" lon="-0.3253884148"><ele>1447.40</ele><time>2019-08-15T09:03:58Z</time></trkpt><trkpt lat="42.7865478303" lon="-0.3252201062"><ele>1449.81</ele><time>2019-08-15T09:04:08Z</time></trkpt><trkpt lat="42.7864519414" lon="-0.3251527157"><ele>1450.29</ele><time>2019-08-15T09:04:12Z</time></trkpt><trkpt lat="42.7861744165" lon="-0.3250845708"><ele>1451.73</ele><time>2019-08-15T09:04:25Z</time></trkpt><trkpt lat="42.7858864143" lon="-0.3250790387"><ele>1453.65</ele><time>2019-08-15T09:04:36Z</time></trkpt><trkpt lat="42.7856360469" lon="-0.3250435833"><ele>1456.05</ele><time>2019-08-15T09:04:49Z</time></trkpt><trkpt lat="42.7855141740" lon="-0.3250042722"><ele>1457.50</ele><time>2019-08-15T09:05:00Z</time></trkpt><trkpt lat="42.7854696661" lon="-0.3249751031"><ele>1457.98</ele><time>2019-08-15T09:05:04Z</time></trkpt><trkpt lat="42.7854175307" lon="-0.3249222971"><ele>1458.46</ele><time>2019-08-15T09:05:07Z</time></trkpt><trkpt lat="42.7853295207" lon="-0.3248398192"><ele>1459.42</ele><time>2019-08-15T09:05:11Z</time></trkpt><trkpt lat="42.7852795646" lon="-0.3247826546"><ele>1459.42</ele><time>2019-08-15T09:05:14Z</time></trkpt><trkpt lat="42.7852089051" lon="-0.3246448562"><ele>1460.38</ele><time>2019-08-15T09:05:20Z</time></trkpt><trkpt lat="42.7850915585" lon="-0.3244326264"><ele>1461.34</ele><time>2019-08-15T09:05:33Z</time></trkpt><trkpt lat="42.7850581985" lon="-0.3244008590"><ele>1461.82</ele><time>2019-08-15T09:05:36Z</time></trkpt><trkpt lat="42.7849672548" lon="-0.3243438620"><ele>1462.30</ele><time>2019-08-15T09:05:41Z</time></trkpt><trkpt lat="42.7848955896" lon="-0.3242834285"><ele>1462.78</ele><time>2019-08-15T09:05:45Z</time></trkpt><trkpt lat="42.7848441247" lon="-0.3242620546"><ele>1463.26</ele><time>2019-08-15T09:05:47Z</time></trkpt><trkpt lat="42.7847487386" lon="-0.3241511621"><ele>1463.74</ele><time>2019-08-15T09:05:54Z</time></trkpt><trkpt lat="42.7847634908" lon="-0.3239106853"><ele>1465.67</ele><time>2019-08-15T09:06:07Z</time></trkpt><trkpt lat="42.7847465593" lon="-0.3238677699"><ele>1466.15</ele><time>2019-08-15T09:06:11Z</time></trkpt><trkpt lat="42.7847608086" lon="-0.3238007147"><ele>1466.15</ele><time>2019-08-15T09:06:14Z</time></trkpt><trkpt lat="42.7847940009" lon="-0.3235441446"><ele>1469.03</ele><time>2019-08-15T09:06:25Z</time></trkpt><trkpt lat="42.7847843617" lon="-0.3234375268"><ele>1469.51</ele><time>2019-08-15T09:06:29Z</time></trkpt><trkpt lat="42.7847837750" lon="-0.3233451582"><ele>1469.99</ele><time>2019-08-15T09:06:33Z</time></trkpt><trkpt lat="42.7848020475" lon="-0.3232942801"><ele>1470.47</ele><time>2019-08-15T09:06:36Z</time></trkpt><trkpt lat="42.7850376628" lon="-0.3232072759"><ele>1472.40</ele><time>2019-08-15T09:06:50Z</time></trkpt><trkpt lat="42.7852975857" lon="-0.3232922684"><ele>1474.80</ele><time>2019-08-15T09:07:04Z</time></trkpt><trkpt lat="42.7854710910" lon="-0.3233945277"><ele>1476.72</ele><time>2019-08-15T09:07:17Z</time></trkpt><trkpt lat="42.7856176067" lon="-0.3235324938"><ele>1478.16</ele><time>2019-08-15T09:07:28Z</time></trkpt><trkpt lat="42.7857274935" lon="-0.3237248585"><ele>1480.09</ele><time>2019-08-15T09:07:41Z</time></trkpt><trkpt lat="42.7857404854" lon="-0.3237393592"><ele>1480.09</ele><time>2019-08-15T09:07:42Z</time></trkpt><trkpt lat="42.7858415712" lon="-0.3238085937"><ele>1481.53</ele><time>2019-08-15T09:07:52Z</time></trkpt><trkpt lat="42.7858801279" lon="-0.3236960247"><ele>1482.97</ele><time>2019-08-15T09:07:58Z</time></trkpt><trkpt lat="42.7858474385" lon="-0.3235978726"><ele>1483.45</ele><time>2019-08-15T09:08:04Z</time></trkpt><trkpt lat="42.7857794613" lon="-0.3234607447"><ele>1484.41</ele><time>2019-08-15T09:08:14Z</time></trkpt><trkpt lat="42.7857706603" lon="-0.3234156501"><ele>1484.89</ele><time>2019-08-15T09:08:17Z</time></trkpt><trkpt lat="42.7857499570" lon="-0.3233375307"><ele>1485.85</ele><time>2019-08-15T09:08:22Z</time></trkpt><trkpt lat="42.7857634518" lon="-0.3232598305"><ele>1485.85</ele><time>2019-08-15T09:08:26Z</time></trkpt><trkpt lat="42.7857854962" lon="-0.3231706470"><ele>1486.82</ele><time>2019-08-15T09:08:31Z</time></trkpt><trkpt lat="42.7858124021" lon="-0.3230089601"><ele>1487.78</ele><time>2019-08-15T09:08:40Z</time></trkpt><trkpt lat="42.7858059481" lon="-0.3229701519"><ele>1488.26</ele><time>2019-08-15T09:08:43Z</time></trkpt><trkpt lat="42.7858030144" lon="-0.3227774519"><ele>1489.70</ele><time>2019-08-15T09:08:53Z</time></trkpt><trkpt lat="42.7858003322" lon="-0.3225431778"><ele>1490.66</ele><time>2019-08-15T09:09:03Z</time></trkpt><trkpt lat="42.7857657149" lon="-0.3223497234"><ele>1492.58</ele><time>2019-08-15T09:09:12Z</time></trkpt><trkpt lat="42.7857346181" lon="-0.3222436924"><ele>1493.06</ele><time>2019-08-15T09:09:18Z</time></trkpt><trkpt lat="42.7856074646" lon="-0.3220553510"><ele>1494.99</ele><time>2019-08-15T09:09:31Z</time></trkpt><trkpt lat="42.7854513936" lon="-0.3219311312"><ele>1496.43</ele><time>2019-08-15T09:09:43Z</time></trkpt><trkpt lat="42.7853919659" lon="-0.3218753077"><ele>1496.91</ele><time>2019-08-15T09:09:47Z</time></trkpt><trkpt lat="42.7852247469" lon="-0.3216528520"><ele>1498.35</ele><time>2019-08-15T09:10:01Z</time></trkpt><trkpt lat="42.7851398382" lon="-0.3215579689"><ele>1498.83</ele><time>2019-08-15T09:10:08Z</time></trkpt><trkpt lat="42.7850469667" lon="-0.3214992955"><ele>1499.79</ele><time>2019-08-15T09:10:14Z</time></trkpt><trkpt lat="42.7849969268" lon="-0.3214304801"><ele>1500.76</ele><time>2019-08-15T09:10:18Z</time></trkpt><trkpt lat="42.7849060670" lon="-0.3213557974"><ele>1500.76</ele><time>2019-08-15T09:10:24Z</time></trkpt><trkpt lat="42.7848023828" lon="-0.3210612573"><ele>1503.16</ele><time>2019-08-15T09:10:38Z</time></trkpt><trkpt lat="42.7849410195" lon="-0.3211661149"><ele>1504.60</ele><time>2019-08-15T09:10:51Z</time></trkpt><trkpt lat="42.7851139382" lon="-0.3213692922"><ele>1506.52</ele><time>2019-08-15T09:11:07Z</time></trkpt><trkpt lat="42.7852874435" lon="-0.3215699550"><ele>1508.93</ele><time>2019-08-15T09:11:22Z</time></trkpt><trkpt lat="42.7853871882" lon="-0.3216443025"><ele>1510.37</ele><time>2019-08-15T09:11:29Z</time></trkpt><trkpt lat="42.7855504677" lon="-0.3217277024"><ele>1512.29</ele><time>2019-08-15T09:11:42Z</time></trkpt><trkpt lat="42.7855584305" lon="-0.3217318933"><ele>1511.81</ele><time>2019-08-15T09:11:43Z</time></trkpt><trkpt lat="42.7855910361" lon="-0.3217326477"><ele>1512.77</ele><time>2019-08-15T09:11:46Z</time></trkpt><trkpt lat="42.7856806386" lon="-0.3217992000"><ele>1513.73</ele><time>2019-08-15T09:11:53Z</time></trkpt><trkpt lat="42.7858986519" lon="-0.3219267726"><ele>1515.18</ele><time>2019-08-15T09:12:07Z</time></trkpt><trkpt lat="42.7861031704" lon="-0.3220488969"><ele>1516.62</ele><time>2019-08-15T09:12:21Z</time></trkpt><trkpt lat="42.7862190921" lon="-0.3221014515"><ele>1517.58</ele><time>2019-08-15T09:12:28Z</time></trkpt><trkpt lat="42.7864038292" lon="-0.3223467059"><ele>1519.98</ele><time>2019-08-15T09:12:44Z</time></trkpt><trkpt lat="42.7864740696" lon="-0.3224270884"><ele>1520.46</ele><time>2019-08-15T09:12:50Z</time></trkpt><trkpt lat="42.7865372691" lon="-0.3225973248"><ele>1521.90</ele><time>2019-08-15T09:13:00Z</time></trkpt><trkpt lat="42.7865868062" lon="-0.3227807209"><ele>1523.35</ele><time>2019-08-15T09:13:10Z</time></trkpt><trkpt lat="42.7866267879" lon="-0.3228897694"><ele>1523.83</ele><time>2019-08-15T09:13:16Z</time></trkpt><trkpt lat="42.7866945975" lon="-0.3229559865"><ele>1523.83</ele><time>2019-08-15T09:13:21Z</time></trkpt><trkpt lat="42.7868468966" lon="-0.3232546337"><ele>1526.71</ele><time>2019-08-15T09:13:39Z</time></trkpt><trkpt lat="42.7868663426" lon="-0.3233708069"><ele>1527.19</ele><time>2019-08-15T09:13:45Z</time></trkpt><trkpt lat="42.7869765647" lon="-0.3236106131"><ele>1529.11</ele><time>2019-08-15T09:13:59Z</time></trkpt><trkpt lat="42.7870423626" lon="-0.3237585537"><ele>1530.08</ele><time>2019-08-15T09:14:07Z</time></trkpt><trkpt lat="42.7871283609" lon="-0.3238758165"><ele>1531.52</ele><time>2019-08-15T09:14:16Z</time></trkpt><trkpt lat="42.7873100806" lon="-0.3240277804"><ele>1533.44</ele><time>2019-08-15T09:14:31Z</time></trkpt><trkpt lat="42.7873518225" lon="-0.3240523394"><ele>1533.92</ele><time>2019-08-15T09:14:34Z</time></trkpt><trkpt lat="42.7874342166" lon="-0.3240965120"><ele>1534.88</ele><time>2019-08-15T09:14:42Z</time></trkpt><trkpt lat="42.7875732724" lon="-0.3240373358"><ele>1536.32</ele><time>2019-08-15T09:14:52Z</time></trkpt><trkpt lat="42.7877855022" lon="-0.3240976855"><ele>1537.29</ele><time>2019-08-15T09:15:05Z</time></trkpt><trkpt lat="42.7878133301" lon="-0.3241116833"><ele>1537.29</ele><time>2019-08-15T09:15:07Z</time></trkpt><trkpt lat="42.7880268171" lon="-0.3242514096"><ele>1538.73</ele><time>2019-08-15T09:15:22Z</time></trkpt><trkpt lat="42.7880708221" lon="-0.3242959175"><ele>1539.21</ele><time>2019-08-15T09:15:26Z</time></trkpt><trkpt lat="42.7881467622" lon="-0.3243310377"><ele>1539.69</ele><time>2019-08-15T09:15:32Z</time></trkpt><trkpt lat="42.7882310841" lon="-0.3243365698"><ele>1540.65</ele><time>2019-08-15T09:15:38Z</time></trkpt><trkpt lat="42.7882535476" lon="-0.3243386652"><ele>1540.65</ele><time>2019-08-15T09:15:40Z</time></trkpt><trkpt lat="42.7884605806" lon="-0.3243755456"><ele>1542.09</ele><time>2019-08-15T09:15:53Z</time></trkpt><trkpt lat="42.7885021549" lon="-0.3243689239"><ele>1542.57</ele><time>2019-08-15T09:15:56Z</time></trkpt><trkpt lat="42.7885643486" lon="-0.3243430238"><ele>1543.53</ele><time>2019-08-15T09:16:01Z</time></trkpt><trkpt lat="42.7885953616" lon="-0.3242544271"><ele>1544.01</ele><time>2019-08-15T09:16:06Z</time></trkpt><trkpt lat="42.7885694616" lon="-0.3242114279"><ele>1544.01</ele><time>2019-08-15T09:16:10Z</time></trkpt><trkpt lat="42.7884957846" lon="-0.3241834324"><ele>1544.98</ele><time>2019-08-15T09:16:16Z</time></trkpt><trkpt lat="42.7883957885" lon="-0.3241357394"><ele>1546.42</ele><time>2019-08-15T09:16:24Z</time></trkpt><trkpt lat="42.7882635221" lon="-0.3240562789"><ele>1547.86</ele><time>2019-08-15T09:16:34Z</time></trkpt><trkpt lat="42.7881649509" lon="-0.3239706997"><ele>1548.82</ele><time>2019-08-15T09:16:42Z</time></trkpt><trkpt lat="42.7879945468" lon="-0.3237500042"><ele>1550.26</ele><time>2019-08-15T09:16:58Z</time></trkpt><trkpt lat="42.7878482826" lon="-0.3235748224"><ele>1551.71</ele><time>2019-08-15T09:17:09Z</time></trkpt><trkpt lat="42.7877686545" lon="-0.3232697211"><ele>1553.15</ele><time>2019-08-15T09:17:24Z</time></trkpt><trkpt lat="42.7877348755" lon="-0.3231627680"><ele>1553.63</ele><time>2019-08-15T09:17:29Z</time></trkpt><trkpt lat="42.7876982465" lon="-0.3230976406"><ele>1554.11</ele><time>2019-08-15T09:17:33Z</time></trkpt><trkpt lat="42.7875795588" lon="-0.3229057789"><ele>1555.55</ele><time>2019-08-15T09:17:47Z</time></trkpt><trkpt lat="42.7875666507" lon="-0.3228802141"><ele>1556.03</ele><time>2019-08-15T09:17:49Z</time></trkpt><trkpt lat="42.7875143476" lon="-0.3227254003"><ele>1557.47</ele><time>2019-08-15T09:17:57Z</time></trkpt><trkpt lat="42.7874251641" lon="-0.3225674853"><ele>1557.95</ele><time>2019-08-15T09:18:05Z</time></trkpt><trkpt lat="42.7873905469" lon="-0.3224529047"><ele>1558.92</ele><time>2019-08-15T09:18:11Z</time></trkpt><trkpt lat="42.7873030398" lon="-0.3222058900"><ele>1560.84</ele><time>2019-08-15T09:18:25Z</time></trkpt><trkpt lat="42.7872930653" lon="-0.3221724462"><ele>1560.84</ele><time>2019-08-15T09:18:27Z</time></trkpt><trkpt lat="42.7872282732" lon="-0.3220987692"><ele>1561.80</ele><time>2019-08-15T09:18:33Z</time></trkpt><trkpt lat="42.7872167062" lon="-0.3219872061"><ele>1562.28</ele><time>2019-08-15T09:18:38Z</time></trkpt><trkpt lat="42.7872216515" lon="-0.3216673527"><ele>1564.20</ele><time>2019-08-15T09:18:52Z</time></trkpt><trkpt lat="42.7872181311" lon="-0.3216272034"><ele>1564.68</ele><time>2019-08-15T09:18:54Z</time></trkpt><trkpt lat="42.7871647384" lon="-0.3214601520"><ele>1565.64</ele><time>2019-08-15T09:19:02Z</time></trkpt><trkpt lat="42.7871621400" lon="-0.3213958628"><ele>1566.12</ele><time>2019-08-15T09:19:05Z</time></trkpt><trkpt lat="42.7869779896" lon="-0.3213026561"><ele>1568.05</ele><time>2019-08-15T09:19:16Z</time></trkpt><trkpt lat="42.7869420312" lon="-0.3212856408"><ele>1568.05</ele><time>2019-08-15T09:19:18Z</time></trkpt><trkpt lat="42.7868116088" lon="-0.3210900910"><ele>1569.01</ele><time>2019-08-15T09:19:29Z</time></trkpt><trkpt lat="42.7868157998" lon="-0.3209977224"><ele>1569.97</ele><time>2019-08-15T09:19:34Z</time></trkpt><trkpt lat="42.7867431287" lon="-0.3207937069"><ele>1571.41</ele><time>2019-08-15T09:19:46Z</time></trkpt><trkpt lat="42.7866195794" lon="-0.3207114805"><ele>1572.37</ele><time>2019-08-15T09:19:53Z</time></trkpt><trkpt lat="42.7863948606" lon="-0.3204577602"><ele>1574.30</ele><time>2019-08-15T09:20:09Z</time></trkpt><trkpt lat="42.7863438148" lon="-0.3204316925"><ele>1574.78</ele><time>2019-08-15T09:20:13Z</time></trkpt><trkpt lat="42.7862563077" lon="-0.3201269265"><ele>1576.22</ele><time>2019-08-15T09:20:27Z</time></trkpt><trkpt lat="42.7862538770" lon="-0.3197702765"><ele>1578.14</ele><time>2019-08-15T09:20:40Z</time></trkpt><trkpt lat="42.7862436511" lon="-0.3197559435"><ele>1578.14</ele><time>2019-08-15T09:20:41Z</time></trkpt><trkpt lat="42.7860569861" lon="-0.3196939174"><ele>1579.58</ele><time>2019-08-15T09:20:51Z</time></trkpt><trkpt lat="42.7860447485" lon="-0.3194610681"><ele>1581.51</ele><time>2019-08-15T09:21:02Z</time></trkpt><trkpt lat="42.7860284038" lon="-0.3194353357"><ele>1581.51</ele><time>2019-08-15T09:21:04Z</time></trkpt><trkpt lat="42.7860104665" lon="-0.3194137104"><ele>1581.99</ele><time>2019-08-15T09:21:06Z</time></trkpt><trkpt lat="42.7859899309" lon="-0.3193352558"><ele>1582.47</ele><time>2019-08-15T09:21:10Z</time></trkpt><trkpt lat="42.7860321756" lon="-0.3191354312"><ele>1583.43</ele><time>2019-08-15T09:21:18Z</time></trkpt><trkpt lat="42.7860896755" lon="-0.3188312519"><ele>1584.87</ele><time>2019-08-15T09:21:35Z</time></trkpt><trkpt lat="42.7860679664" lon="-0.3185911942"><ele>1587.75</ele><time>2019-08-15T09:21:49Z</time></trkpt><trkpt lat="42.7860456705" lon="-0.3184850793"><ele>1588.72</ele><time>2019-08-15T09:21:56Z</time></trkpt><trkpt lat="42.7860064432" lon="-0.3183585964"><ele>1589.68</ele><time>2019-08-15T09:22:03Z</time></trkpt><trkpt lat="42.7858947963" lon="-0.3182378970"><ele>1591.60</ele><time>2019-08-15T09:22:11Z</time></trkpt><trkpt lat="42.7858150844" lon="-0.3181330394"><ele>1592.08</ele><time>2019-08-15T09:22:25Z</time></trkpt><trkpt lat="42.7857933752" lon="-0.3181238193"><ele>1592.56</ele><time>2019-08-15T09:22:41Z</time></trkpt><trkpt lat="42.7858021762" lon="-0.3181011882"><ele>1592.56</ele><time>2019-08-15T09:23:02Z</time></trkpt><trkpt lat="42.7858035173" lon="-0.3181217238"><ele>1592.08</ele><time>2019-08-15T09:23:16Z</time></trkpt><trkpt lat="42.7857880108" lon="-0.3181440197"><ele>1592.08</ele><time>2019-08-15T09:23:47Z</time></trkpt><trkpt lat="42.7857738454" lon="-0.3181511443"><ele>1592.56</ele><time>2019-08-15T09:24:23Z</time></trkpt><trkpt lat="42.7857771982" lon="-0.3181503061"><ele>1592.56</ele><time>2019-08-15T09:24:52Z</time></trkpt><trkpt lat="42.7857766114" lon="-0.3181459475"><ele>1593.04</ele><time>2019-08-15T09:25:21Z</time></trkpt><trkpt lat="42.7857802995" lon="-0.3181405831"><ele>1594.48</ele><time>2019-08-15T09:25:36Z</time></trkpt><trkpt lat="42.7857794613" lon="-0.3181363922"><ele>1594.48</ele><time>2019-08-15T09:25:55Z</time></trkpt><trkpt lat="42.7857660502" lon="-0.3181389906"><ele>1594.96</ele><time>2019-08-15T09:26:20Z</time></trkpt><trkpt lat="42.7857616916" lon="-0.3181352187"><ele>1595.45</ele><time>2019-08-15T09:26:34Z</time></trkpt><trkpt lat="42.7857617754" lon="-0.3181364760"><ele>1594.96</ele><time>2019-08-15T09:26:45Z</time></trkpt><trkpt lat="42.7857659664" lon="-0.3181255795"><ele>1595.45</ele><time>2019-08-15T09:26:47Z</time></trkpt><trkpt lat="42.7857738454" lon="-0.3180533275"><ele>1595.93</ele><time>2019-08-15T09:26:52Z</time></trkpt><trkpt lat="42.7858696505" lon="-0.3178125992"><ele>1596.89</ele><time>2019-08-15T09:27:05Z</time></trkpt><trkpt lat="42.7860093769" lon="-0.3174879681"><ele>1598.33</ele><time>2019-08-15T09:27:20Z</time></trkpt><trkpt lat="42.7860437427" lon="-0.3172671050"><ele>1599.77</ele><time>2019-08-15T09:27:31Z</time></trkpt><trkpt lat="42.7859778609" lon="-0.3170318250"><ele>1601.21</ele><time>2019-08-15T09:27:43Z</time></trkpt><trkpt lat="42.7859521285" lon="-0.3169310745"><ele>1601.69</ele><time>2019-08-15T09:27:48Z</time></trkpt><trkpt lat="42.7859309223" lon="-0.3168956190"><ele>1602.17</ele><time>2019-08-15T09:27:50Z</time></trkpt><trkpt lat="42.7859212831" lon="-0.3168585710"><ele>1602.17</ele><time>2019-08-15T09:27:52Z</time></trkpt><trkpt lat="42.7858673874" lon="-0.3167403024"><ele>1603.14</ele><time>2019-08-15T09:27:59Z</time></trkpt><trkpt lat="42.7857431676" lon="-0.3164407331"><ele>1605.54</ele><time>2019-08-15T09:28:16Z</time></trkpt><trkpt lat="42.7857118193" lon="-0.3163207043"><ele>1606.02</ele><time>2019-08-15T09:28:22Z</time></trkpt><trkpt lat="42.7857165970" lon="-0.3162812255"><ele>1606.98</ele><time>2019-08-15T09:28:25Z</time></trkpt><trkpt lat="42.7857337799" lon="-0.3162789624"><ele>1607.46</ele><time>2019-08-15T09:28:28Z</time></trkpt><trkpt lat="42.7857664693" lon="-0.3163103946"><ele>1607.94</ele><time>2019-08-15T09:28:33Z</time></trkpt><trkpt lat="42.7857998293" lon="-0.3164085466"><ele>1608.42</ele><time>2019-08-15T09:28:39Z</time></trkpt><trkpt lat="42.7858956344" lon="-0.3166601714"><ele>1609.38</ele><time>2019-08-15T09:28:53Z</time></trkpt><trkpt lat="42.7860253025" lon="-0.3168312460"><ele>1610.83</ele><time>2019-08-15T09:29:04Z</time></trkpt><trkpt lat="42.7861220296" lon="-0.3170108702"><ele>1611.79</ele><time>2019-08-15T09:29:15Z</time></trkpt><trkpt lat="42.7861976344" lon="-0.3173054941"><ele>1614.19</ele><time>2019-08-15T09:29:31Z</time></trkpt><trkpt lat="42.7862349339" lon="-0.3174722102"><ele>1615.63</ele><time>2019-08-15T09:29:40Z</time></trkpt><trkpt lat="42.7862846386" lon="-0.3175816778"><ele>1615.63</ele><time>2019-08-15T09:29:46Z</time></trkpt><trkpt lat="42.7864345070" lon="-0.3178131860"><ele>1616.59</ele><time>2019-08-15T09:30:01Z</time></trkpt><trkpt lat="42.7864744049" lon="-0.3178650700"><ele>1617.56</ele><time>2019-08-15T09:30:04Z</time></trkpt><trkpt lat="42.7865807712" lon="-0.3180989251"><ele>1619.00</ele><time>2019-08-15T09:30:16Z</time></trkpt><trkpt lat="42.7865956072" lon="-0.3181346320"><ele>1619.48</ele><time>2019-08-15T09:30:18Z</time></trkpt><trkpt lat="42.7866296377" lon="-0.3182538226"><ele>1619.96</ele><time>2019-08-15T09:30:24Z</time></trkpt><trkpt lat="42.7866930887" lon="-0.3183305170"><ele>1621.40</ele><time>2019-08-15T09:30:29Z</time></trkpt><trkpt lat="42.7869097609" lon="-0.3184920363"><ele>1622.36</ele><time>2019-08-15T09:30:43Z</time></trkpt><trkpt lat="42.7869399358" lon="-0.3185124882"><ele>1622.84</ele><time>2019-08-15T09:30:45Z</time></trkpt><trkpt lat="42.7870014589" lon="-0.3186045215"><ele>1623.80</ele><time>2019-08-15T09:30:51Z</time></trkpt><trkpt lat="42.7870294545" lon="-0.3188046813"><ele>1625.25</ele><time>2019-08-15T09:31:00Z</time></trkpt><trkpt lat="42.7870440390" lon="-0.3189344332"><ele>1625.73</ele><time>2019-08-15T09:31:07Z</time></trkpt><trkpt lat="42.7870541811" lon="-0.3190381173"><ele>1626.69</ele><time>2019-08-15T09:31:12Z</time></trkpt><trkpt lat="42.7870620601" lon="-0.3190775961"><ele>1626.69</ele><time>2019-08-15T09:31:14Z</time></trkpt><trkpt lat="42.7871238347" lon="-0.3192740679"><ele>1628.13</ele><time>2019-08-15T09:31:24Z</time></trkpt><trkpt lat="42.7871333901" lon="-0.3193164803"><ele>1628.61</ele><time>2019-08-15T09:31:26Z</time></trkpt><trkpt lat="42.7871508244" lon="-0.3193652630"><ele>1629.09</ele><time>2019-08-15T09:31:29Z</time></trkpt><trkpt lat="42.7872396726" lon="-0.3195649199"><ele>1630.05</ele><time>2019-08-15T09:31:40Z</time></trkpt><trkpt lat="42.7872921433" lon="-0.3196385968"><ele>1630.53</ele><time>2019-08-15T09:31:45Z</time></trkpt><trkpt lat="42.7874450292" lon="-0.3198556043"><ele>1632.46</ele><time>2019-08-15T09:31:59Z</time></trkpt><trkpt lat="42.7874529082" lon="-0.3198691830"><ele>1632.46</ele><time>2019-08-15T09:32:00Z</time></trkpt><trkpt lat="42.7875773795" lon="-0.3200051375"><ele>1633.90</ele><time>2019-08-15T09:32:12Z</time></trkpt><trkpt lat="42.7875912935" lon="-0.3200195543"><ele>1633.90</ele><time>2019-08-15T09:32:13Z</time></trkpt><trkpt lat="42.7876740228" lon="-0.3201146889"><ele>1634.86</ele><time>2019-08-15T09:32:19Z</time></trkpt><trkpt lat="42.7877367195" lon="-0.3202177864"><ele>1635.34</ele><time>2019-08-15T09:32:25Z</time></trkpt><trkpt lat="42.7879308444" lon="-0.3204440977"><ele>1637.26</ele><time>2019-08-15T09:32:40Z</time></trkpt><trkpt lat="42.7880119812" lon="-0.3205298446"><ele>1637.74</ele><time>2019-08-15T09:32:46Z</time></trkpt><trkpt lat="42.7880729176" lon="-0.3205686528"><ele>1638.22</ele><time>2019-08-15T09:32:51Z</time></trkpt><trkpt lat="42.7882927749" lon="-0.3206419945"><ele>1640.15</ele><time>2019-08-15T09:33:03Z</time></trkpt><trkpt lat="42.7883586567" lon="-0.3207044397"><ele>1640.63</ele><time>2019-08-15T09:33:09Z</time></trkpt><trkpt lat="42.7884319145" lon="-0.3207859118"><ele>1641.11</ele><time>2019-08-15T09:33:15Z</time></trkpt><trkpt lat="42.7885039151" lon="-0.3208440822"><ele>1641.59</ele><time>2019-08-15T09:33:20Z</time></trkpt><trkpt lat="42.7886205073" lon="-0.3209954593"><ele>1643.51</ele><time>2019-08-15T09:33:31Z</time></trkpt><trkpt lat="42.7886875626" lon="-0.3210777696"><ele>1643.99</ele><time>2019-08-15T09:33:37Z</time></trkpt><trkpt lat="42.7887845412" lon="-0.3211460821"><ele>1644.95</ele><time>2019-08-15T09:33:45Z</time></trkpt><trkpt lat="42.7889088448" lon="-0.3211561404"><ele>1646.88</ele><time>2019-08-15T09:33:54Z</time></trkpt><trkpt lat="42.7889372595" lon="-0.3211716469"><ele>1646.88</ele><time>2019-08-15T09:33:56Z</time></trkpt><trkpt lat="42.7891872916" lon="-0.3211540449"><ele>1648.80</ele><time>2019-08-15T09:34:11Z</time></trkpt><trkpt lat="42.7893813327" lon="-0.3210708965"><ele>1650.24</ele><time>2019-08-15T09:34:25Z</time></trkpt><trkpt lat="42.7896028664" lon="-0.3209672123"><ele>1651.68</ele><time>2019-08-15T09:34:39Z</time></trkpt><trkpt lat="42.7896908764" lon="-0.3209181782"><ele>1653.60</ele><time>2019-08-15T09:34:45Z</time></trkpt><trkpt lat="42.7897296008" lon="-0.3208859079"><ele>1653.60</ele><time>2019-08-15T09:34:48Z</time></trkpt><trkpt lat="42.7897011861" lon="-0.3206988238"><ele>1655.05</ele><time>2019-08-15T09:34:58Z</time></trkpt><trkpt lat="42.7894695103" lon="-0.3207345307"><ele>1656.97</ele><time>2019-08-15T09:35:13Z</time></trkpt><trkpt lat="42.7893162891" lon="-0.3207343630"><ele>1657.93</ele><time>2019-08-15T09:35:23Z</time></trkpt><trkpt lat="42.7891898900" lon="-0.3207253106"><ele>1658.89</ele><time>2019-08-15T09:35:32Z</time></trkpt><trkpt lat="42.7889702842" lon="-0.3206629492"><ele>1660.33</ele><time>2019-08-15T09:35:46Z</time></trkpt><trkpt lat="42.7887883969" lon="-0.3205372207"><ele>1661.78</ele><time>2019-08-15T09:35:59Z</time></trkpt><trkpt lat="42.7886826172" lon="-0.3203749470"><ele>1663.22</ele><time>2019-08-15T09:36:11Z</time></trkpt><trkpt lat="42.7885096986" lon="-0.3201222327"><ele>1664.66</ele><time>2019-08-15T09:36:27Z</time></trkpt><trkpt lat="42.7884828765" lon="-0.3200525790"><ele>1665.14</ele><time>2019-08-15T09:36:31Z</time></trkpt><trkpt lat="42.7884101216" lon="-0.3196926601"><ele>1667.54</ele><time>2019-08-15T09:36:49Z</time></trkpt><trkpt lat="42.7883857302" lon="-0.3193473257"><ele>1669.47</ele><time>2019-08-15T09:37:04Z</time></trkpt><trkpt lat="42.7882606722" lon="-0.3191515245"><ele>1671.39</ele><time>2019-08-15T09:37:15Z</time></trkpt><trkpt lat="42.7880911063" lon="-0.3189050127"><ele>1673.31</ele><time>2019-08-15T09:37:29Z</time></trkpt><trkpt lat="42.7879709098" lon="-0.3186238836"><ele>1674.27</ele><time>2019-08-15T09:37:45Z</time></trkpt><trkpt lat="42.7879767772" lon="-0.3183326963"><ele>1675.72</ele><time>2019-08-15T09:37:58Z</time></trkpt><trkpt lat="42.7878895216" lon="-0.3181189578"><ele>1676.20</ele><time>2019-08-15T09:38:10Z</time></trkpt><trkpt lat="42.7878781222" lon="-0.3180135973"><ele>1676.68</ele><time>2019-08-15T09:38:15Z</time></trkpt><trkpt lat="42.7878542338" lon="-0.3179534990"><ele>1677.64</ele><time>2019-08-15T09:38:20Z</time></trkpt><trkpt lat="42.7877949737" lon="-0.3176516667"><ele>1680.52</ele><time>2019-08-15T09:38:39Z</time></trkpt><trkpt lat="42.7877131663" lon="-0.3173803445"><ele>1681.96</ele><time>2019-08-15T09:38:54Z</time></trkpt><trkpt lat="42.7876135893" lon="-0.3171858843"><ele>1683.41</ele><time>2019-08-15T09:39:08Z</time></trkpt><trkpt lat="42.7876039501" lon="-0.3171744850"><ele>1683.89</ele><time>2019-08-15T09:39:09Z</time></trkpt><trkpt lat="42.7874503098" lon="-0.3169631772"><ele>1685.33</ele><time>2019-08-15T09:39:22Z</time></trkpt><trkpt lat="42.7874271758" lon="-0.3168244567"><ele>1685.81</ele><time>2019-08-15T09:39:28Z</time></trkpt><trkpt lat="42.7873845119" lon="-0.3167242091"><ele>1686.77</ele><time>2019-08-15T09:39:33Z</time></trkpt><trkpt lat="42.7873409260" lon="-0.3164172638"><ele>1688.21</ele><time>2019-08-15T09:39:48Z</time></trkpt><trkpt lat="42.7873389982" lon="-0.3161022719"><ele>1689.65</ele><time>2019-08-15T09:40:03Z</time></trkpt><trkpt lat="42.7873532474" lon="-0.3158638906"><ele>1691.58</ele><time>2019-08-15T09:40:17Z</time></trkpt><trkpt lat="42.7873911336" lon="-0.3156747110"><ele>1693.50</ele><time>2019-08-15T09:40:29Z</time></trkpt><trkpt lat="42.7874058858" lon="-0.3156644013"><ele>1693.98</ele><time>2019-08-15T09:40:31Z</time></trkpt><trkpt lat="42.7874263376" lon="-0.3156846855"><ele>1694.46</ele><time>2019-08-15T09:40:35Z</time></trkpt><trkpt lat="42.7874604519" lon="-0.3157254215"><ele>1694.94</ele><time>2019-08-15T09:40:39Z</time></trkpt><trkpt lat="42.7874292713" lon="-0.3158519883"><ele>1695.90</ele><time>2019-08-15T09:40:51Z</time></trkpt><trkpt lat="42.7874213085" lon="-0.3158843424"><ele>1695.90</ele><time>2019-08-15T09:40:54Z</time></trkpt><trkpt lat="42.7874292713" lon="-0.3159797285"><ele>1696.38</ele><time>2019-08-15T09:40:58Z</time></trkpt><trkpt lat="42.7874692529" lon="-0.3161956463"><ele>1697.34</ele><time>2019-08-15T09:41:09Z</time></trkpt><trkpt lat="42.7875968255" lon="-0.3164490312"><ele>1698.79</ele><time>2019-08-15T09:41:25Z</time></trkpt><trkpt lat="42.7877122443" lon="-0.3166161664"><ele>1700.71</ele><time>2019-08-15T09:41:36Z</time></trkpt><trkpt lat="42.7878130786" lon="-0.3167092893"><ele>1700.71</ele><time>2019-08-15T09:41:44Z</time></trkpt><trkpt lat="42.7878461033" lon="-0.3166715708"><ele>1701.19</ele><time>2019-08-15T09:41:47Z</time></trkpt><trkpt lat="42.7878684830" lon="-0.3166270629"><ele>1702.15</ele><time>2019-08-15T09:41:50Z</time></trkpt><trkpt lat="42.7878829837" lon="-0.3165017534"><ele>1702.15</ele><time>2019-08-15T09:41:55Z</time></trkpt><trkpt lat="42.7878095582" lon="-0.3162051179"><ele>1704.07</ele><time>2019-08-15T09:42:10Z</time></trkpt><trkpt lat="42.7878010925" lon="-0.3161436785"><ele>1704.55</ele><time>2019-08-15T09:42:13Z</time></trkpt><trkpt lat="42.7878198680" lon="-0.3160936385"><ele>1705.04</ele><time>2019-08-15T09:42:17Z</time></trkpt><trkpt lat="42.7878705785" lon="-0.3162268270"><ele>1706.00</ele><time>2019-08-15T09:42:28Z</time></trkpt><trkpt lat="42.7879372984" lon="-0.3164683096"><ele>1706.48</ele><time>2019-08-15T09:42:41Z</time></trkpt><trkpt lat="42.7880309243" lon="-0.3167590778"><ele>1707.92</ele><time>2019-08-15T09:42:55Z</time></trkpt><trkpt lat="42.7881014161" lon="-0.3168739099"><ele>1708.88</ele><time>2019-08-15T09:43:02Z</time></trkpt><trkpt lat="42.7881455887" lon="-0.3169357684"><ele>1709.36</ele><time>2019-08-15T09:43:06Z</time></trkpt><trkpt lat="42.7881974727" lon="-0.3170389496"><ele>1709.84</ele><time>2019-08-15T09:43:12Z</time></trkpt><trkpt lat="42.7883927710" lon="-0.3172470722"><ele>1712.25</ele><time>2019-08-15T09:43:28Z</time></trkpt><trkpt lat="42.7885039989" lon="-0.3175352421"><ele>1713.69</ele><time>2019-08-15T09:43:41Z</time></trkpt><trkpt lat="42.7885714732" lon="-0.3177675046"><ele>1715.13</ele><time>2019-08-15T09:43:54Z</time></trkpt><trkpt lat="42.7886688709" lon="-0.3180109989"><ele>1717.05</ele><time>2019-08-15T09:44:07Z</time></trkpt><trkpt lat="42.7888253611" lon="-0.3182375617"><ele>1718.01</ele><time>2019-08-15T09:44:22Z</time></trkpt><trkpt lat="42.7889810968" lon="-0.3184703272"><ele>1719.94</ele><time>2019-08-15T09:44:36Z</time></trkpt><trkpt lat="42.7891746350" lon="-0.3186704870"><ele>1720.90</ele><time>2019-08-15T09:44:50Z</time></trkpt><trkpt lat="42.7892152872" lon="-0.3187310044"><ele>1721.38</ele><time>2019-08-15T09:44:53Z</time></trkpt><trkpt lat="42.7892618068" lon="-0.3188560624"><ele>1722.34</ele><time>2019-08-15T09:44:59Z</time></trkpt><trkpt lat="42.7894114237" lon="-0.3189741634"><ele>1723.78</ele><time>2019-08-15T09:45:10Z</time></trkpt><trkpt lat="42.7896542475" lon="-0.3189790249"><ele>1725.22</ele><time>2019-08-15T09:45:25Z</time></trkpt><trkpt lat="42.7898176108" lon="-0.3189719841"><ele>1726.67</ele><time>2019-08-15T09:45:37Z</time></trkpt><trkpt lat="42.7899978217" lon="-0.3190272208"><ele>1727.15</ele><time>2019-08-15T09:45:49Z</time></trkpt><trkpt lat="42.7900569141" lon="-0.3190473374"><ele>1728.11</ele><time>2019-08-15T09:45:54Z</time></trkpt><trkpt lat="42.7901425771" lon="-0.3190212697"><ele>1729.07</ele><time>2019-08-15T09:45:59Z</time></trkpt><trkpt lat="42.7903174236" lon="-0.3189856466"><ele>1730.51</ele><time>2019-08-15T09:46:13Z</time></trkpt><trkpt lat="42.7905058488" lon="-0.3189144842"><ele>1731.47</ele><time>2019-08-15T09:46:26Z</time></trkpt><trkpt lat="42.7906878199" lon="-0.3188438248"><ele>1733.39</ele><time>2019-08-15T09:46:40Z</time></trkpt><trkpt lat="42.7909381036" lon="-0.3186084609"><ele>1735.80</ele><time>2019-08-15T09:46:55Z</time></trkpt><trkpt lat="42.7909487486" lon="-0.3186004143"><ele>1735.80</ele><time>2019-08-15T09:46:56Z</time></trkpt><trkpt lat="42.7910366748" lon="-0.3184729256"><ele>1736.76</ele><time>2019-08-15T09:47:03Z</time></trkpt><trkpt lat="42.7911750600" lon="-0.3182011843"><ele>1738.68</ele><time>2019-08-15T09:47:19Z</time></trkpt><trkpt lat="42.7912383433" lon="-0.3180350550"><ele>1740.12</ele><time>2019-08-15T09:47:28Z</time></trkpt><trkpt lat="42.7913207375" lon="-0.3177460469"><ele>1741.08</ele><time>2019-08-15T09:47:43Z</time></trkpt><trkpt lat="42.7913418598" lon="-0.3177281097"><ele>1741.08</ele><time>2019-08-15T09:47:45Z</time></trkpt><trkpt lat="42.7914554346" lon="-0.3177237511"><ele>1742.05</ele><time>2019-08-15T09:47:55Z</time></trkpt><trkpt lat="42.7916078176" lon="-0.3178543411"><ele>1743.01</ele><time>2019-08-15T09:48:08Z</time></trkpt><trkpt lat="42.7916762140" lon="-0.3179826681"><ele>1743.97</ele><time>2019-08-15T09:48:16Z</time></trkpt><trkpt lat="42.7918311954" lon="-0.3183468617"><ele>1745.89</ele><time>2019-08-15T09:48:35Z</time></trkpt><trkpt lat="42.7919131704" lon="-0.3186372109"><ele>1747.81</ele><time>2019-08-15T09:48:49Z</time></trkpt><trkpt lat="42.7919228096" lon="-0.3186572436"><ele>1747.33</ele><time>2019-08-15T09:48:50Z</time></trkpt><trkpt lat="42.7920238115" lon="-0.3186252248"><ele>1748.78</ele><time>2019-08-15T09:49:00Z</time></trkpt><trkpt lat="42.7920264937" lon="-0.3186072875"><ele>1749.26</ele><time>2019-08-15T09:49:01Z</time></trkpt><trkpt lat="42.7920192014" lon="-0.3185538109"><ele>1749.26</ele><time>2019-08-15T09:49:04Z</time></trkpt><trkpt lat="42.7919834945" lon="-0.3184550721"><ele>1749.74</ele><time>2019-08-15T09:49:09Z</time></trkpt><trkpt lat="42.7919659764" lon="-0.3183244821"><ele>1749.74</ele><time>2019-08-15T09:49:15Z</time></trkpt><trkpt lat="42.7919713408" lon="-0.3181833308"><ele>1750.70</ele><time>2019-08-15T09:49:21Z</time></trkpt><trkpt lat="42.7919466142" lon="-0.3178291116"><ele>1752.14</ele><time>2019-08-15T09:49:37Z</time></trkpt><trkpt lat="42.7918894496" lon="-0.3175319731"><ele>1754.54</ele><time>2019-08-15T09:49:53Z</time></trkpt><trkpt lat="42.7918627113" lon="-0.3175079171"><ele>1754.54</ele><time>2019-08-15T09:50:06Z</time></trkpt><trkpt lat="42.7918398287" lon="-0.3175114375"><ele>1754.54</ele><time>2019-08-15T09:50:38Z</time></trkpt><trkpt lat="42.7918227296" lon="-0.3175178077"><ele>1754.06</ele><time>2019-08-15T09:51:10Z</time></trkpt><trkpt lat="42.7918195445" lon="-0.3175156284"><ele>1754.06</ele><time>2019-08-15T09:51:28Z</time></trkpt><trkpt lat="42.7918113302" lon="-0.3175120242"><ele>1754.54</ele><time>2019-08-15T09:51:55Z</time></trkpt><trkpt lat="42.7918106597" lon="-0.3175107669"><ele>1754.54</ele><time>2019-08-15T09:52:22Z</time></trkpt><trkpt lat="42.7918108273" lon="-0.3175100125"><ele>1751.66</ele><time>2019-08-15T09:52:23Z</time></trkpt><trkpt lat="42.7918114141" lon="-0.3175093420"><ele>1755.02</ele><time>2019-08-15T09:52:25Z</time></trkpt><trkpt lat="42.7918104082" lon="-0.3175027203"><ele>1755.50</ele><time>2019-08-15T09:52:37Z</time></trkpt><trkpt lat="42.7918082289" lon="-0.3174973559"><ele>1754.54</ele><time>2019-08-15T09:53:03Z</time></trkpt><trkpt lat="42.7918034513" lon="-0.3174971882"><ele>1754.54</ele><time>2019-08-15T09:53:29Z</time></trkpt><trkpt lat="42.7918032836" lon="-0.3174977750"><ele>1754.06</ele><time>2019-08-15T09:53:47Z</time></trkpt><trkpt lat="42.7918026131" lon="-0.3174958471"><ele>1753.58</ele><time>2019-08-15T09:54:05Z</time></trkpt><trkpt lat="42.7918021102" lon="-0.3174867108"><ele>1753.58</ele><time>2019-08-15T09:54:29Z</time></trkpt><trkpt lat="42.7916485537" lon="-0.3171993792"><ele>1756.47</ele><time>2019-08-15T09:54:45Z</time></trkpt><trkpt lat="42.7914749645" lon="-0.3170898277"><ele>1757.43</ele><time>2019-08-15T09:54:58Z</time></trkpt><trkpt lat="42.7914488129" lon="-0.3170963656"><ele>1757.91</ele><time>2019-08-15T09:55:00Z</time></trkpt><trkpt lat="42.7911535185" lon="-0.3171425499"><ele>1759.83</ele><time>2019-08-15T09:55:18Z</time></trkpt><trkpt lat="42.7909639198" lon="-0.3169440664"><ele>1761.75</ele><time>2019-08-15T09:55:33Z</time></trkpt><trkpt lat="42.7908735629" lon="-0.3166548070"><ele>1763.68</ele><time>2019-08-15T09:55:49Z</time></trkpt><trkpt lat="42.7908251993" lon="-0.3163606022"><ele>1764.64</ele><time>2019-08-15T09:56:04Z</time></trkpt><trkpt lat="42.7909231000" lon="-0.3161373921"><ele>1767.04</ele><time>2019-08-15T09:56:19Z</time></trkpt><trkpt lat="42.7910799254" lon="-0.3159840032"><ele>1768.48</ele><time>2019-08-15T09:56:35Z</time></trkpt><trkpt lat="42.7912150417" lon="-0.3159017768"><ele>1769.44</ele><time>2019-08-15T09:56:47Z</time></trkpt><trkpt lat="42.7914136089" lon="-0.3157919738"><ele>1771.85</ele><time>2019-08-15T09:57:03Z</time></trkpt><trkpt lat="42.7916824166" lon="-0.3156536724"><ele>1774.25</ele><time>2019-08-15T09:57:23Z</time></trkpt><trkpt lat="42.7918689977" lon="-0.3158032894"><ele>1775.21</ele><time>2019-08-15T09:57:38Z</time></trkpt><trkpt lat="42.7919648029" lon="-0.3160866816"><ele>1777.61</ele><time>2019-08-15T09:57:53Z</time></trkpt><trkpt lat="42.7920527291" lon="-0.3164436668"><ele>1779.06</ele><time>2019-08-15T09:58:11Z</time></trkpt><trkpt lat="42.7921462711" lon="-0.3168117162"><ele>1781.94</ele><time>2019-08-15T09:58:30Z</time></trkpt><trkpt lat="42.7922388073" lon="-0.3171596490"><ele>1784.34</ele><time>2019-08-15T09:58:48Z</time></trkpt><trkpt lat="42.7923336066" lon="-0.3174391855"><ele>1785.31</ele><time>2019-08-15T09:59:04Z</time></trkpt><trkpt lat="42.7924159169" lon="-0.3177043889"><ele>1787.23</ele><time>2019-08-15T09:59:19Z</time></trkpt><trkpt lat="42.7924358658" lon="-0.3177610505"><ele>1788.19</ele><time>2019-08-15T09:59:22Z</time></trkpt><trkpt lat="42.7925238758" lon="-0.3177597933"><ele>1789.63</ele><time>2019-08-15T09:59:29Z</time></trkpt><trkpt lat="42.7925307490" lon="-0.3177464660"><ele>1788.67</ele><time>2019-08-15T09:59:30Z</time></trkpt><trkpt lat="42.7925437409" lon="-0.3177142795"><ele>1789.15</ele><time>2019-08-15T09:59:32Z</time></trkpt><trkpt lat="42.7924598381" lon="-0.3175031394"><ele>1791.07</ele><time>2019-08-15T09:59:47Z</time></trkpt><trkpt lat="42.7924015000" lon="-0.3172040731"><ele>1793.48</ele><time>2019-08-15T10:00:03Z</time></trkpt><trkpt lat="42.7923562378" lon="-0.3169293981"><ele>1794.44</ele><time>2019-08-15T10:00:17Z</time></trkpt><trkpt lat="42.7923660446" lon="-0.3165347781"><ele>1797.32</ele><time>2019-08-15T10:00:33Z</time></trkpt><trkpt lat="42.7923548128" lon="-0.3161339555"><ele>1798.28</ele><time>2019-08-15T10:00:51Z</time></trkpt><trkpt lat="42.7922872547" lon="-0.3157605417"><ele>1799.73</ele><time>2019-08-15T10:01:08Z</time></trkpt><trkpt lat="42.7922543976" lon="-0.3154318035"><ele>1803.09</ele><time>2019-08-15T10:01:24Z</time></trkpt><trkpt lat="42.7921501268" lon="-0.3150676098"><ele>1804.05</ele><time>2019-08-15T10:01:42Z</time></trkpt><trkpt lat="42.7920313552" lon="-0.3146694694"><ele>1805.97</ele><time>2019-08-15T10:02:02Z</time></trkpt><trkpt lat="42.7919034474" lon="-0.3144274838"><ele>1809.34</ele><time>2019-08-15T10:02:16Z</time></trkpt><trkpt lat="42.7917067241" lon="-0.3142104764"><ele>1810.78</ele><time>2019-08-15T10:02:34Z</time></trkpt><trkpt lat="42.7916811593" lon="-0.3141987417"><ele>1810.78</ele><time>2019-08-15T10:02:36Z</time></trkpt><trkpt lat="42.7915421035" lon="-0.3140884358"><ele>1813.18</ele><time>2019-08-15T10:02:48Z</time></trkpt><trkpt lat="42.7913234197" lon="-0.3138821572"><ele>1815.11</ele><time>2019-08-15T10:03:06Z</time></trkpt><trkpt lat="42.7910882235" lon="-0.3136062250"><ele>1817.51</ele><time>2019-08-15T10:03:27Z</time></trkpt><trkpt lat="42.7909104433" lon="-0.3133263532"><ele>1819.43</ele><time>2019-08-15T10:03:46Z</time></trkpt><trkpt lat="42.7907956950" lon="-0.3130965214"><ele>1821.35</ele><time>2019-08-15T10:04:02Z</time></trkpt><trkpt lat="42.7906512748" lon="-0.3127825353"><ele>1823.76</ele><time>2019-08-15T10:04:22Z</time></trkpt><trkpt lat="42.7906525321" lon="-0.3127921745"><ele>1822.80</ele><time>2019-08-15T10:04:39Z</time></trkpt><trkpt lat="42.7906525321" lon="-0.3127937671"><ele>1823.28</ele><time>2019-08-15T10:05:09Z</time></trkpt><trkpt lat="42.7906518616" lon="-0.3127863072"><ele>1823.28</ele><time>2019-08-15T10:05:17Z</time></trkpt><trkpt lat="42.7906537894" lon="-0.3127911687"><ele>1822.80</ele><time>2019-08-15T10:05:40Z</time></trkpt><trkpt lat="42.7906558011" lon="-0.3127912525"><ele>1823.28</ele><time>2019-08-15T10:06:12Z</time></trkpt><trkpt lat="42.7906588186" lon="-0.3127901629"><ele>1823.76</ele><time>2019-08-15T10:06:38Z</time></trkpt><trkpt lat="42.7906587347" lon="-0.3127883188"><ele>1824.24</ele><time>2019-08-15T10:06:46Z</time></trkpt><trkpt lat="42.7906559687" lon="-0.3127830382"><ele>1823.76</ele><time>2019-08-15T10:06:57Z</time></trkpt><trkpt lat="42.7906480059" lon="-0.3127818648"><ele>1823.28</ele><time>2019-08-15T10:07:20Z</time></trkpt><trkpt lat="42.7906333376" lon="-0.3127575573"><ele>1823.76</ele><time>2019-08-15T10:07:23Z</time></trkpt><trkpt lat="42.7904271428" lon="-0.3125506919"><ele>1826.64</ele><time>2019-08-15T10:07:42Z</time></trkpt><trkpt lat="42.7901896834" lon="-0.3124083672"><ele>1828.56</ele><time>2019-08-15T10:08:01Z</time></trkpt><trkpt lat="42.7899992466" lon="-0.3121956345"><ele>1830.49</ele><time>2019-08-15T10:08:20Z</time></trkpt><trkpt lat="42.7897598594" lon="-0.3119763639"><ele>1833.37</ele><time>2019-08-15T10:08:41Z</time></trkpt><trkpt lat="42.7895691711" lon="-0.3117939737"><ele>1835.77</ele><time>2019-08-15T10:08:59Z</time></trkpt><trkpt lat="42.7893716935" lon="-0.3116273414"><ele>1837.70</ele><time>2019-08-15T10:09:16Z</time></trkpt><trkpt lat="42.7891741320" lon="-0.3115346376"><ele>1839.14</ele><time>2019-08-15T10:09:31Z</time></trkpt><trkpt lat="42.7891256008" lon="-0.3113757167"><ele>1839.62</ele><time>2019-08-15T10:09:41Z</time></trkpt><trkpt lat="42.7891697735" lon="-0.3113499843"><ele>1841.06</ele><time>2019-08-15T10:09:45Z</time></trkpt><trkpt lat="42.7893763036" lon="-0.3113799077"><ele>1842.02</ele><time>2019-08-15T10:10:02Z</time></trkpt><trkpt lat="42.7894285228" lon="-0.3114075679"><ele>1843.47</ele><time>2019-08-15T10:10:07Z</time></trkpt><trkpt lat="42.7895987593" lon="-0.3114943206"><ele>1846.35</ele><time>2019-08-15T10:10:22Z</time></trkpt><trkpt lat="42.7897161059" lon="-0.3115936462"><ele>1846.83</ele><time>2019-08-15T10:10:33Z</time></trkpt><trkpt lat="42.7898736857" lon="-0.3116880264"><ele>1848.75</ele><time>2019-08-15T10:10:47Z</time></trkpt><trkpt lat="42.7900802996" lon="-0.3117836639"><ele>1851.16</ele><time>2019-08-15T10:11:03Z</time></trkpt><trkpt lat="42.7901088819" lon="-0.3117902856"><ele>1851.16</ele><time>2019-08-15T10:11:05Z</time></trkpt><trkpt lat="42.7901576646" lon="-0.3118062112"><ele>1852.12</ele><time>2019-08-15T10:11:09Z</time></trkpt><trkpt lat="42.7904254664" lon="-0.3118699975"><ele>1854.04</ele><time>2019-08-15T10:11:28Z</time></trkpt><trkpt lat="42.7906177472" lon="-0.3119058721"><ele>1856.44</ele><time>2019-08-15T10:11:43Z</time></trkpt><trkpt lat="42.7908925060" lon="-0.3119515534"><ele>1858.85</ele><time>2019-08-15T10:12:02Z</time></trkpt><trkpt lat="42.7911681030" lon="-0.3120614402"><ele>1860.77</ele><time>2019-08-15T10:12:23Z</time></trkpt><trkpt lat="42.7914301213" lon="-0.3121486958"><ele>1863.17</ele><time>2019-08-15T10:12:41Z</time></trkpt><trkpt lat="42.7916471288" lon="-0.3122476023"><ele>1864.61</ele><time>2019-08-15T10:12:56Z</time></trkpt><trkpt lat="42.7918684948" lon="-0.3124647774"><ele>1866.54</ele><time>2019-08-15T10:13:13Z</time></trkpt><trkpt lat="42.7919110749" lon="-0.3126236144"><ele>1867.02</ele><time>2019-08-15T10:13:21Z</time></trkpt><trkpt lat="42.7919894457" lon="-0.3127490915"><ele>1867.02</ele><time>2019-08-15T10:13:35Z</time></trkpt><trkpt lat="42.7919890266" lon="-0.3127521090"><ele>1867.98</ele><time>2019-08-15T10:13:42Z</time></trkpt><trkpt lat="42.7920207102" lon="-0.3128000535"><ele>1868.46</ele><time>2019-08-15T10:13:46Z</time></trkpt><trkpt lat="42.7921509650" lon="-0.3130552825"><ele>1870.38</ele><time>2019-08-15T10:14:02Z</time></trkpt><trkpt lat="42.7922939602" lon="-0.3133290354"><ele>1872.79</ele><time>2019-08-15T10:14:19Z</time></trkpt><trkpt lat="42.7924627718" lon="-0.3135084081"><ele>1874.71</ele><time>2019-08-15T10:14:36Z</time></trkpt><trkpt lat="42.7926625125" lon="-0.3135913890"><ele>1876.63</ele><time>2019-08-15T10:14:53Z</time></trkpt><trkpt lat="42.7928243671" lon="-0.3137372341"><ele>1878.55</ele><time>2019-08-15T10:15:08Z</time></trkpt><trkpt lat="42.7929380257" lon="-0.3140330315"><ele>1881.44</ele><time>2019-08-15T10:15:26Z</time></trkpt><trkpt lat="42.7930204198" lon="-0.3142532241"><ele>1884.32</ele><time>2019-08-15T10:15:41Z</time></trkpt><trkpt lat="42.7930982038" lon="-0.3143761866"><ele>1885.76</ele><time>2019-08-15T10:15:52Z</time></trkpt><trkpt lat="42.7931955177" lon="-0.3145744186"><ele>1888.17</ele><time>2019-08-15T10:16:08Z</time></trkpt><trkpt lat="42.7932665963" lon="-0.3148207627"><ele>1890.57</ele><time>2019-08-15T10:16:25Z</time></trkpt><trkpt lat="42.7933463920" lon="-0.3149599861"><ele>1891.53</ele><time>2019-08-15T10:16:37Z</time></trkpt><trkpt lat="42.7934235055" lon="-0.3152155504"><ele>1893.93</ele><time>2019-08-15T10:16:54Z</time></trkpt><trkpt lat="42.7934489027" lon="-0.3154833522"><ele>1894.90</ele><time>2019-08-15T10:17:09Z</time></trkpt><trkpt lat="42.7934922371" lon="-0.3158255853"><ele>1897.78</ele><time>2019-08-15T10:17:26Z</time></trkpt><trkpt lat="42.7935702726" lon="-0.3161941376"><ele>1899.22</ele><time>2019-08-15T10:17:43Z</time></trkpt><trkpt lat="42.7936628088" lon="-0.3165358678"><ele>1901.14</ele><time>2019-08-15T10:18:00Z</time></trkpt><trkpt lat="42.7937315404" lon="-0.3168516140"><ele>1901.63</ele><time>2019-08-15T10:18:16Z</time></trkpt><trkpt lat="42.7938524075" lon="-0.3170826193"><ele>1903.55</ele><time>2019-08-15T10:18:32Z</time></trkpt><trkpt lat="42.7938621305" lon="-0.3170931805"><ele>1903.55</ele><time>2019-08-15T10:18:33Z</time></trkpt><trkpt lat="42.7939612046" lon="-0.3171571344"><ele>1904.03</ele><time>2019-08-15T10:18:48Z</time></trkpt><trkpt lat="42.7939589415" lon="-0.3171645105"><ele>1903.55</ele><time>2019-08-15T10:19:06Z</time></trkpt><trkpt lat="42.7939631324" lon="-0.3171667736"><ele>1903.55</ele><time>2019-08-15T10:19:38Z</time></trkpt><trkpt lat="42.7939715981" lon="-0.3171693720"><ele>1903.55</ele><time>2019-08-15T10:20:00Z</time></trkpt><trkpt lat="42.7939617913" lon="-0.3171721380"><ele>1904.03</ele><time>2019-08-15T10:20:34Z</time></trkpt><trkpt lat="42.7939611208" lon="-0.3171718866"><ele>1903.55</ele><time>2019-08-15T10:21:08Z</time></trkpt><trkpt lat="42.7939688321" lon="-0.3171738144"><ele>1904.03</ele><time>2019-08-15T10:21:29Z</time></trkpt><trkpt lat="42.7939732745" lon="-0.3171654325"><ele>1904.51</ele><time>2019-08-15T10:21:44Z</time></trkpt><trkpt lat="42.7939746995" lon="-0.3171681985"><ele>1904.99</ele><time>2019-08-15T10:22:08Z</time></trkpt><trkpt lat="42.7939819079" lon="-0.3171634208"><ele>1905.47</ele><time>2019-08-15T10:22:28Z</time></trkpt><trkpt lat="42.7940312773" lon="-0.3171502613"><ele>1905.47</ele><time>2019-08-15T10:22:33Z</time></trkpt><trkpt lat="42.7940989193" lon="-0.3171617445"><ele>1904.99</ele><time>2019-08-15T10:22:46Z</time></trkpt><trkpt lat="42.7941012662" lon="-0.3171689529"><ele>1905.95</ele><time>2019-08-15T10:22:55Z</time></trkpt><trkpt lat="42.7941400744" lon="-0.3171953559"><ele>1906.91</ele><time>2019-08-15T10:22:59Z</time></trkpt><trkpt lat="42.7942025196" lon="-0.3171969485"><ele>1907.39</ele><time>2019-08-15T10:23:04Z</time></trkpt><trkpt lat="42.7944700699" lon="-0.3171952721"><ele>1909.32</ele><time>2019-08-15T10:23:23Z</time></trkpt><trkpt lat="42.7947231196" lon="-0.3171695396"><ele>1911.72</ele><time>2019-08-15T10:23:42Z</time></trkpt><trkpt lat="42.7949308231" lon="-0.3171771672"><ele>1912.20</ele><time>2019-08-15T10:23:57Z</time></trkpt><trkpt lat="42.7950558811" lon="-0.3171513509"><ele>1914.12</ele><time>2019-08-15T10:24:06Z</time></trkpt><trkpt lat="42.7951375209" lon="-0.3170696273"><ele>1914.60</ele><time>2019-08-15T10:24:13Z</time></trkpt><trkpt lat="42.7951765805" lon="-0.3168957867"><ele>1917.01</ele><time>2019-08-15T10:24:25Z</time></trkpt><trkpt lat="42.7951875608" lon="-0.3168371134"><ele>1917.01</ele><time>2019-08-15T10:24:29Z</time></trkpt><trkpt lat="42.7952206694" lon="-0.3167693038"><ele>1917.97</ele><time>2019-08-15T10:24:34Z</time></trkpt><trkpt lat="42.7953510080" lon="-0.3165242169"><ele>1919.89</ele><time>2019-08-15T10:24:52Z</time></trkpt><trkpt lat="42.7955358289" lon="-0.3164458461"><ele>1921.81</ele><time>2019-08-15T10:25:07Z</time></trkpt><trkpt lat="42.7957023773" lon="-0.3166020010"><ele>1923.25</ele><time>2019-08-15T10:25:24Z</time></trkpt><trkpt lat="42.7958198916" lon="-0.3167947009"><ele>1925.18</ele><time>2019-08-15T10:25:39Z</time></trkpt><trkpt lat="42.7958263457" lon="-0.3168071900"><ele>1925.18</ele><time>2019-08-15T10:25:40Z</time></trkpt><trkpt lat="42.7958509885" lon="-0.3168786038"><ele>1925.66</ele><time>2019-08-15T10:25:44Z</time></trkpt><trkpt lat="42.7958942391" lon="-0.3169849701"><ele>1927.10</ele><time>2019-08-15T10:25:51Z</time></trkpt><trkpt lat="42.7959572710" lon="-0.3169761691"><ele>1927.58</ele><time>2019-08-15T10:25:57Z</time></trkpt><trkpt lat="42.7959510684" lon="-0.3169165738"><ele>1928.06</ele><time>2019-08-15T10:26:02Z</time></trkpt><trkpt lat="42.7958310395" lon="-0.3166433237"><ele>1929.98</ele><time>2019-08-15T10:26:20Z</time></trkpt><trkpt lat="42.7957834303" lon="-0.3163393959"><ele>1931.91</ele><time>2019-08-15T10:26:37Z</time></trkpt><trkpt lat="42.7957655769" lon="-0.3160701692"><ele>1932.87</ele><time>2019-08-15T10:26:52Z</time></trkpt><trkpt lat="42.7956339810" lon="-0.3159562591"><ele>1935.75</ele><time>2019-08-15T10:27:08Z</time></trkpt><trkpt lat="42.7955706976" lon="-0.3159652278"><ele>1936.71</ele><time>2019-08-15T10:27:14Z</time></trkpt><trkpt lat="42.7955312189" lon="-0.3160184529"><ele>1937.67</ele><time>2019-08-15T10:27:20Z</time></trkpt><trkpt lat="42.7953849547" lon="-0.3161199577"><ele>1940.08</ele><time>2019-08-15T10:27:36Z</time></trkpt><trkpt lat="42.7952266205" lon="-0.3162575886"><ele>1942.48</ele><time>2019-08-15T10:27:53Z</time></trkpt><trkpt lat="42.7950417157" lon="-0.3164031822"><ele>1943.92</ele><time>2019-08-15T10:28:10Z</time></trkpt><trkpt lat="42.7948951162" lon="-0.3166193515"><ele>1945.85</ele><time>2019-08-15T10:28:26Z</time></trkpt><trkpt lat="42.7947032545" lon="-0.3165823035"><ele>1947.77</ele><time>2019-08-15T10:28:42Z</time></trkpt><trkpt lat="42.7944984008" lon="-0.3164430801"><ele>1950.17</ele><time>2019-08-15T10:29:00Z</time></trkpt><trkpt lat="42.7943781205" lon="-0.3163625300"><ele>1953.54</ele><time>2019-08-15T10:29:12Z</time></trkpt><trkpt lat="42.7943110652" lon="-0.3163069580"><ele>1953.06</ele><time>2019-08-15T10:29:19Z</time></trkpt><trkpt lat="42.7942767832" lon="-0.3162956424"><ele>1953.06</ele><time>2019-08-15T10:29:35Z</time></trkpt><trkpt lat="42.7942753583" lon="-0.3162912838"><ele>1953.06</ele><time>2019-08-15T10:29:49Z</time></trkpt><trkpt lat="42.7942716703" lon="-0.3162899427"><ele>1953.54</ele><time>2019-08-15T10:30:13Z</time></trkpt><trkpt lat="42.7942712512" lon="-0.3162903618"><ele>1953.06</ele><time>2019-08-15T10:30:39Z</time></trkpt><trkpt lat="42.7942701615" lon="-0.3162849974"><ele>1952.57</ele><time>2019-08-15T10:30:56Z</time></trkpt><trkpt lat="42.7942614444" lon="-0.3162829019"><ele>1953.06</ele><time>2019-08-15T10:31:09Z</time></trkpt><trkpt lat="42.7942619473" lon="-0.3162813094"><ele>1952.57</ele><time>2019-08-15T10:31:36Z</time></trkpt><trkpt lat="42.7942669764" lon="-0.3162815608"><ele>1953.06</ele><time>2019-08-15T10:32:05Z</time></trkpt><trkpt lat="42.7942691557" lon="-0.3162781242"><ele>1952.57</ele><time>2019-08-15T10:32:31Z</time></trkpt><trkpt lat="42.7942665573" lon="-0.3162739333"><ele>1952.57</ele><time>2019-08-15T10:33:02Z</time></trkpt><trkpt lat="42.7942619473" lon="-0.3162487876"><ele>1953.06</ele><time>2019-08-15T10:33:06Z</time></trkpt><trkpt lat="42.7943518851" lon="-0.3161810618"><ele>1953.54</ele><time>2019-08-15T10:33:16Z</time></trkpt><trkpt lat="42.7946351096" lon="-0.3163480293"><ele>1955.94</ele><time>2019-08-15T10:33:36Z</time></trkpt><trkpt lat="42.7948025800" lon="-0.3162630368"><ele>1958.34</ele><time>2019-08-15T10:33:50Z</time></trkpt><trkpt lat="42.7949848026" lon="-0.3160058800"><ele>1961.23</ele><time>2019-08-15T10:34:10Z</time></trkpt><trkpt lat="42.7949913405" lon="-0.3159900382"><ele>1961.23</ele><time>2019-08-15T10:34:11Z</time></trkpt><trkpt lat="42.7951028198" lon="-0.3157156147"><ele>1963.63</ele><time>2019-08-15T10:34:29Z</time></trkpt><trkpt lat="42.7951795980" lon="-0.3154780716"><ele>1965.07</ele><time>2019-08-15T10:34:45Z</time></trkpt><trkpt lat="42.7951992117" lon="-0.3152152151"><ele>1967.96</ele><time>2019-08-15T10:35:01Z</time></trkpt><trkpt lat="42.7952616569" lon="-0.3150538635"><ele>1968.44</ele><time>2019-08-15T10:35:12Z</time></trkpt><trkpt lat="42.7954591345" lon="-0.3150042426"><ele>1970.84</ele><time>2019-08-15T10:35:29Z</time></trkpt><trkpt lat="42.7956704423" lon="-0.3149267938"><ele>1973.24</ele><time>2019-08-15T10:35:46Z</time></trkpt><trkpt lat="42.7959289402" lon="-0.3148205113"><ele>1975.17</ele><time>2019-08-15T10:36:05Z</time></trkpt><trkpt lat="42.7961617056" lon="-0.3147269692"><ele>1976.13</ele><time>2019-08-15T10:36:21Z</time></trkpt><trkpt lat="42.7963937167" lon="-0.3144761827"><ele>1978.53</ele><time>2019-08-15T10:36:40Z</time></trkpt><trkpt lat="42.7965916134" lon="-0.3144911863"><ele>1979.97</ele><time>2019-08-15T10:36:54Z</time></trkpt><trkpt lat="42.7967351116" lon="-0.3147362731"><ele>1982.38</ele><time>2019-08-15T10:37:09Z</time></trkpt><trkpt lat="42.7967620175" lon="-0.3150639217"><ele>1984.30</ele><time>2019-08-15T10:37:26Z</time></trkpt><trkpt lat="42.7967875823" lon="-0.3153211623"><ele>1986.22</ele><time>2019-08-15T10:37:41Z</time></trkpt><trkpt lat="42.7968158294" lon="-0.3155906405"><ele>1988.14</ele><time>2019-08-15T10:37:56Z</time></trkpt><trkpt lat="42.7968118899" lon="-0.3158133477"><ele>1990.07</ele><time>2019-08-15T10:38:11Z</time></trkpt><trkpt lat="42.7968492731" lon="-0.3160521481"><ele>1992.47</ele><time>2019-08-15T10:38:28Z</time></trkpt><trkpt lat="42.7968589962" lon="-0.3162616957"><ele>1994.87</ele><time>2019-08-15T10:38:42Z</time></trkpt><trkpt lat="42.7968310844" lon="-0.3164181020"><ele>1996.32</ele><time>2019-08-15T10:38:51Z</time></trkpt><trkpt lat="42.7968170028" lon="-0.3165576607"><ele>1997.28</ele><time>2019-08-15T10:38:58Z</time></trkpt><trkpt lat="42.7967831399" lon="-0.3167993948"><ele>1999.20</ele><time>2019-08-15T10:39:10Z</time></trkpt><trkpt lat="42.7967638616" lon="-0.3169631772"><ele>2000.64</ele><time>2019-08-15T10:39:19Z</time></trkpt><trkpt lat="42.7967579942" lon="-0.3169926815"><ele>2001.60</ele><time>2019-08-15T10:39:21Z</time></trkpt><trkpt lat="42.7967539709" lon="-0.3170553781"><ele>2002.08</ele><time>2019-08-15T10:39:25Z</time></trkpt><trkpt lat="42.7967563178" lon="-0.3170824517"><ele>2001.60</ele><time>2019-08-15T10:39:27Z</time></trkpt><trkpt lat="42.7967770211" lon="-0.3170965333"><ele>2002.08</ele><time>2019-08-15T10:39:29Z</time></trkpt><trkpt lat="42.7968231216" lon="-0.3170713037"><ele>2002.56</ele><time>2019-08-15T10:39:33Z</time></trkpt><trkpt lat="42.7968546376" lon="-0.3169250395"><ele>2003.52</ele><time>2019-08-15T10:39:47Z</time></trkpt><trkpt lat="42.7968661208" lon="-0.3169173282"><ele>2003.52</ele><time>2019-08-15T10:40:10Z</time></trkpt><trkpt lat="42.7968727425" lon="-0.3169194236"><ele>2004.01</ele><time>2019-08-15T10:40:44Z</time></trkpt><trkpt lat="42.7968772687" lon="-0.3169232793"><ele>2004.01</ele><time>2019-08-15T10:41:12Z</time></trkpt><trkpt lat="42.7968863212" lon="-0.3169212677"><ele>2004.49</ele><time>2019-08-15T10:41:44Z</time></trkpt><trkpt lat="42.7968853153" lon="-0.3169172443"><ele>2004.01</ele><time>2019-08-15T10:42:16Z</time></trkpt><trkpt lat="42.7968786936" lon="-0.3169157356"><ele>2004.01</ele><time>2019-08-15T10:42:51Z</time></trkpt><trkpt lat="42.7968837228" lon="-0.3169047553"><ele>2004.01</ele><time>2019-08-15T10:42:58Z</time></trkpt><trkpt lat="42.7969420608" lon="-0.3166580759"><ele>2006.41</ele><time>2019-08-15T10:43:10Z</time></trkpt><trkpt lat="42.7969548851" lon="-0.3166283201"><ele>2006.41</ele><time>2019-08-15T10:43:12Z</time></trkpt><trkpt lat="42.7970145643" lon="-0.3164763562"><ele>2007.85</ele><time>2019-08-15T10:43:24Z</time></trkpt><trkpt lat="42.7970386203" lon="-0.3164097201"><ele>2008.33</ele><time>2019-08-15T10:43:28Z</time></trkpt><trkpt lat="42.7971585654" lon="-0.3161175270"><ele>2009.77</ele><time>2019-08-15T10:43:47Z</time></trkpt><trkpt lat="42.7971721441" lon="-0.3161055408"><ele>2009.77</ele><time>2019-08-15T10:43:49Z</time></trkpt><trkpt lat="42.7972018160" lon="-0.3160959855"><ele>2010.25</ele><time>2019-08-15T10:43:53Z</time></trkpt><trkpt lat="42.7972443961" lon="-0.3161718417"><ele>2010.73</ele><time>2019-08-15T10:43:59Z</time></trkpt><trkpt lat="42.7972401213" lon="-0.3162876796"><ele>2012.18</ele><time>2019-08-15T10:44:06Z</time></trkpt><trkpt lat="42.7972057555" lon="-0.3165960498"><ele>2013.14</ele><time>2019-08-15T10:44:22Z</time></trkpt><trkpt lat="42.7972433902" lon="-0.3169017378"><ele>2016.02</ele><time>2019-08-15T10:44:39Z</time></trkpt><trkpt lat="42.7972704638" lon="-0.3171804361"><ele>2017.46</ele><time>2019-08-15T10:44:56Z</time></trkpt><trkpt lat="42.7972809412" lon="-0.3174696956"><ele>2019.87</ele><time>2019-08-15T10:45:13Z</time></trkpt><trkpt lat="42.7972914185" lon="-0.3177056462"><ele>2021.79</ele><time>2019-08-15T10:45:26Z</time></trkpt><trkpt lat="42.7972742356" lon="-0.3178635612"><ele>2022.75</ele><time>2019-08-15T10:45:35Z</time></trkpt><trkpt lat="42.7972267941" lon="-0.3181889467"><ele>2025.64</ele><time>2019-08-15T10:45:53Z</time></trkpt><trkpt lat="42.7972417977" lon="-0.3182434291"><ele>2025.64</ele><time>2019-08-15T10:45:57Z</time></trkpt><trkpt lat="42.7972837910" lon="-0.3182454407"><ele>2026.12</ele><time>2019-08-15T10:46:11Z</time></trkpt><trkpt lat="42.7972863056" lon="-0.3182467818"><ele>2025.64</ele><time>2019-08-15T10:46:28Z</time></trkpt><trkpt lat="42.7973026503" lon="-0.3182578459"><ele>2026.60</ele><time>2019-08-15T10:46:40Z</time></trkpt><trkpt lat="42.7973032370" lon="-0.3182532359"><ele>2026.60</ele><time>2019-08-15T10:47:00Z</time></trkpt><trkpt lat="42.7973080147" lon="-0.3182554990"><ele>2027.08</ele><time>2019-08-15T10:47:20Z</time></trkpt><trkpt lat="42.7973138820" lon="-0.3182643000"><ele>2027.08</ele><time>2019-08-15T10:47:42Z</time></trkpt><trkpt lat="42.7973160613" lon="-0.3182617854"><ele>2027.08</ele><time>2019-08-15T10:48:04Z</time></trkpt><trkpt lat="42.7973170672" lon="-0.3182584327"><ele>2027.08</ele><time>2019-08-15T10:48:11Z</time></trkpt><trkpt lat="42.7973231860" lon="-0.3182456084"><ele>2027.08</ele><time>2019-08-15T10:48:22Z</time></trkpt><trkpt lat="42.7973131277" lon="-0.3181258310"><ele>2029.00</ele><time>2019-08-15T10:48:33Z</time></trkpt><trkpt lat="42.7973324899" lon="-0.3181167785"><ele>2029.00</ele><time>2019-08-15T10:48:49Z</time></trkpt><trkpt lat="42.7973743156" lon="-0.3180623800"><ele>2029.48</ele><time>2019-08-15T10:49:09Z</time></trkpt><trkpt lat="42.7974014729" lon="-0.3180084005"><ele>2030.44</ele><time>2019-08-15T10:49:16Z</time></trkpt><trkpt lat="42.7974177338" lon="-0.3179907985"><ele>2030.44</ele><time>2019-08-15T10:49:18Z</time></trkpt><trkpt lat="42.7975259442" lon="-0.3178815823"><ele>2032.36</ele><time>2019-08-15T10:49:31Z</time></trkpt><trkpt lat="42.7975856233" lon="-0.3178283572"><ele>2032.84</ele><time>2019-08-15T10:49:39Z</time></trkpt><trkpt lat="42.7976454701" lon="-0.3177624755"><ele>2034.29</ele><time>2019-08-15T10:49:51Z</time></trkpt><trkpt lat="42.7976940013" lon="-0.3177101724"><ele>2036.21</ele><time>2019-08-15T10:49:59Z</time></trkpt><trkpt lat="42.7977718692" lon="-0.3176301252"><ele>2038.13</ele><time>2019-08-15T10:50:12Z</time></trkpt><trkpt lat="42.7978535090" lon="-0.3175893892"><ele>2039.57</ele><time>2019-08-15T10:50:25Z</time></trkpt><trkpt lat="42.7979265992" lon="-0.3175595496"><ele>2042.46</ele><time>2019-08-15T10:50:36Z</time></trkpt><trkpt lat="42.7980086580" lon="-0.3175464738"><ele>2042.94</ele><time>2019-08-15T10:50:49Z</time></trkpt><trkpt lat="42.7980941534" lon="-0.3175514191"><ele>2044.38</ele><time>2019-08-15T10:51:01Z</time></trkpt><trkpt lat="42.7981445286" lon="-0.3175742179"><ele>2045.34</ele><time>2019-08-15T10:51:08Z</time></trkpt><trkpt lat="42.7982482966" lon="-0.3176258504"><ele>2047.26</ele><time>2019-08-15T10:51:23Z</time></trkpt><trkpt lat="42.7982528228" lon="-0.3176291194"><ele>2047.75</ele><time>2019-08-15T10:51:24Z</time></trkpt><trkpt lat="42.7983489633" lon="-0.3176532593"><ele>2048.71</ele><time>2019-08-15T10:51:37Z</time></trkpt><trkpt lat="42.7984506357" lon="-0.3176673409"><ele>2051.11</ele><time>2019-08-15T10:51:52Z</time></trkpt><trkpt lat="42.7985368017" lon="-0.3176887985"><ele>2053.03</ele><time>2019-08-15T10:52:07Z</time></trkpt><trkpt lat="42.7985598519" lon="-0.3176691849"><ele>2054.96</ele><time>2019-08-15T10:52:18Z</time></trkpt><trkpt lat="42.7985704131" lon="-0.3176675923"><ele>2054.47</ele><time>2019-08-15T10:52:51Z</time></trkpt><trkpt lat="42.7986016776" lon="-0.3176755551"><ele>2054.96</ele><time>2019-08-15T10:53:08Z</time></trkpt><trkpt lat="42.7985971514" lon="-0.3176827636"><ele>2054.96</ele><time>2019-08-15T10:53:25Z</time></trkpt><trkpt lat="42.7985966485" lon="-0.3176842723"><ele>2054.96</ele><time>2019-08-15T10:53:49Z</time></trkpt><trkpt lat="42.7986053657" lon="-0.3176827636"><ele>2054.96</ele><time>2019-08-15T10:54:04Z</time></trkpt><trkpt lat="42.7986668050" lon="-0.3176596295"><ele>2056.88</ele><time>2019-08-15T10:54:09Z</time></trkpt><trkpt lat="42.7987412363" lon="-0.3176510800"><ele>2058.80</ele><time>2019-08-15T10:54:18Z</time></trkpt><trkpt lat="42.7988674678" lon="-0.3176347353"><ele>2061.68</ele><time>2019-08-15T10:54:32Z</time></trkpt><trkpt lat="42.7988777775" lon="-0.3176147863"><ele>2063.13</ele><time>2019-08-15T10:54:43Z</time></trkpt><trkpt lat="42.7988015860" lon="-0.3175551910"><ele>2064.09</ele><time>2019-08-15T10:54:55Z</time></trkpt><trkpt lat="42.7987693157" lon="-0.3175190650"><ele>2065.05</ele><time>2019-08-15T10:55:02Z</time></trkpt><trkpt lat="42.7987067867" lon="-0.3174251039"><ele>2066.97</ele><time>2019-08-15T10:55:17Z</time></trkpt><trkpt lat="42.7986512147" lon="-0.3173347469"><ele>2068.89</ele><time>2019-08-15T10:55:31Z</time></trkpt><trkpt lat="42.7986089699" lon="-0.3172560409"><ele>2069.38</ele><time>2019-08-15T10:55:45Z</time></trkpt><trkpt lat="42.7985811420" lon="-0.3171531111"><ele>2070.82</ele><time>2019-08-15T10:55:58Z</time></trkpt><trkpt lat="42.7985678148" lon="-0.3170500975"><ele>2073.70</ele><time>2019-08-15T10:56:10Z</time></trkpt><trkpt lat="42.7985946368" lon="-0.3170414641"><ele>2074.66</ele><time>2019-08-15T10:56:22Z</time></trkpt><trkpt lat="42.7986541484" lon="-0.3170830384"><ele>2076.59</ele><time>2019-08-15T10:56:33Z</time></trkpt><trkpt lat="42.7987354528" lon="-0.3171397839"><ele>2078.51</ele><time>2019-08-15T10:56:47Z</time></trkpt><trkpt lat="42.7987549827" lon="-0.3171454836"><ele>2078.99</ele><time>2019-08-15T10:56:59Z</time></trkpt><trkpt lat="42.7988559008" lon="-0.3171686176"><ele>2081.39</ele><time>2019-08-15T10:57:14Z</time></trkpt><trkpt lat="42.7989191841" lon="-0.3171541169"><ele>2083.31</ele><time>2019-08-15T10:57:28Z</time></trkpt><trkpt lat="42.7989220340" lon="-0.3171259537"><ele>2084.76</ele><time>2019-08-15T10:57:36Z</time></trkpt><trkpt lat="42.7988649532" lon="-0.3170495946"><ele>2085.72</ele><time>2019-08-15T10:57:49Z</time></trkpt><trkpt lat="42.7988149971" lon="-0.3169460781"><ele>2087.16</ele><time>2019-08-15T10:58:03Z</time></trkpt><trkpt lat="42.7988755144" lon="-0.3169412166"><ele>2089.08</ele><time>2019-08-15T10:58:15Z</time></trkpt><trkpt lat="42.7989580762" lon="-0.3169809468"><ele>2090.04</ele><time>2019-08-15T10:58:29Z</time></trkpt><trkpt lat="42.7990185097" lon="-0.3169597406"><ele>2092.93</ele><time>2019-08-15T10:58:43Z</time></trkpt><trkpt lat="42.7989572380" lon="-0.3168948647"><ele>2094.37</ele><time>2019-08-15T10:59:00Z</time></trkpt><trkpt lat="42.7989486884" lon="-0.3168450762"><ele>2095.81</ele><time>2019-08-15T10:59:12Z</time></trkpt><trkpt lat="42.7989905141" lon="-0.3168371972"><ele>2097.73</ele><time>2019-08-15T10:59:26Z</time></trkpt><trkpt lat="42.7989861555" lon="-0.3168226965"><ele>2098.21</ele><time>2019-08-15T10:59:39Z</time></trkpt><trkpt lat="42.7989878319" lon="-0.3168174159"><ele>2098.21</ele><time>2019-08-15T10:59:42Z</time></trkpt><trkpt lat="42.7989646979" lon="-0.3167449124"><ele>2100.14</ele><time>2019-08-15T10:59:53Z</time></trkpt><trkpt lat="42.7989589144" lon="-0.3167273104"><ele>2100.62</ele><time>2019-08-15T11:00:04Z</time></trkpt><trkpt lat="42.7989413124" lon="-0.3166335169"><ele>2102.54</ele><time>2019-08-15T11:00:16Z</time></trkpt><trkpt lat="42.7989742532" lon="-0.3166021686"><ele>2104.94</ele><time>2019-08-15T11:00:32Z</time></trkpt><trkpt lat="42.7989573218" lon="-0.3165520448"><ele>2106.87</ele><time>2019-08-15T11:00:44Z</time></trkpt><trkpt lat="42.7989496943" lon="-0.3164887615"><ele>2108.31</ele><time>2019-08-15T11:00:58Z</time></trkpt><trkpt lat="42.7989371214" lon="-0.3163841553"><ele>2109.75</ele><time>2019-08-15T11:01:13Z</time></trkpt><trkpt lat="42.7989725769" lon="-0.3163415752"><ele>2112.15</ele><time>2019-08-15T11:01:28Z</time></trkpt><trkpt lat="42.7990116365" lon="-0.3162591811"><ele>2112.15</ele><time>2019-08-15T11:01:43Z</time></trkpt><trkpt lat="42.7990845591" lon="-0.3161214665"><ele>2112.63</ele><time>2019-08-15T11:01:59Z</time></trkpt><trkpt lat="42.7991366945" lon="-0.3160421737"><ele>2115.52</ele><time>2019-08-15T11:02:14Z</time></trkpt><trkpt lat="42.7991695516" lon="-0.3159551695"><ele>2117.44</ele><time>2019-08-15T11:02:28Z</time></trkpt><trkpt lat="42.7991928533" lon="-0.3158556763"><ele>2118.88</ele><time>2019-08-15T11:02:41Z</time></trkpt><trkpt lat="42.7992195915" lon="-0.3157442808"><ele>2120.81</ele><time>2019-08-15T11:02:56Z</time></trkpt><trkpt lat="42.7992032468" lon="-0.3155991063"><ele>2122.25</ele><time>2019-08-15T11:03:10Z</time></trkpt><trkpt lat="42.7992202621" lon="-0.3154738806"><ele>2123.21</ele><time>2019-08-15T11:03:24Z</time></trkpt><trkpt lat="42.7992556337" lon="-0.3153614793"><ele>2125.61</ele><time>2019-08-15T11:03:39Z</time></trkpt><trkpt lat="42.7992957830" lon="-0.3152448870"><ele>2127.05</ele><time>2019-08-15T11:03:54Z</time></trkpt><trkpt lat="42.7993237786" lon="-0.3151088487"><ele>2128.98</ele><time>2019-08-15T11:04:09Z</time></trkpt><trkpt lat="42.7993425541" lon="-0.3150305618"><ele>2129.94</ele><time>2019-08-15T11:04:26Z</time></trkpt><trkpt lat="42.7993574739" lon="-0.3149143048"><ele>2131.38</ele><time>2019-08-15T11:04:39Z</time></trkpt><trkpt lat="42.7993729804" lon="-0.3148102015"><ele>2133.30</ele><time>2019-08-15T11:04:52Z</time></trkpt><trkpt lat="42.7994175721" lon="-0.3146990575"><ele>2135.23</ele><time>2019-08-15T11:05:07Z</time></trkpt><trkpt lat="42.7994549554" lon="-0.3146330081"><ele>2136.67</ele><time>2019-08-15T11:05:21Z</time></trkpt><trkpt lat="42.7994626667" lon="-0.3145376220"><ele>2139.07</ele><time>2019-08-15T11:05:36Z</time></trkpt><trkpt lat="42.7994593140" lon="-0.3144509532"><ele>2139.07</ele><time>2019-08-15T11:05:49Z</time></trkpt><trkpt lat="42.7994992957" lon="-0.3143393062"><ele>2140.99</ele><time>2019-08-15T11:06:03Z</time></trkpt><trkpt lat="42.7995142154" lon="-0.3142692335"><ele>2143.40</ele><time>2019-08-15T11:06:19Z</time></trkpt><trkpt lat="42.7995188255" lon="-0.3141569998"><ele>2144.36</ele><time>2019-08-15T11:06:33Z</time></trkpt><trkpt lat="42.7995189931" lon="-0.3140489571"><ele>2145.80</ele><time>2019-08-15T11:06:46Z</time></trkpt><trkpt lat="42.7995236032" lon="-0.3139724303"><ele>2146.76</ele><time>2019-08-15T11:06:58Z</time></trkpt><trkpt lat="42.7995210886" lon="-0.3139219712"><ele>2147.24</ele><time>2019-08-15T11:07:15Z</time></trkpt><trkpt lat="42.7995467372" lon="-0.3138224781"><ele>2148.68</ele><time>2019-08-15T11:07:33Z</time></trkpt><trkpt lat="42.7995953523" lon="-0.3137134295"><ele>2150.61</ele><time>2019-08-15T11:07:48Z</time></trkpt><trkpt lat="42.7996396925" lon="-0.3137443587"><ele>2152.05</ele><time>2019-08-15T11:08:03Z</time></trkpt><trkpt lat="42.7996676881" lon="-0.3138860129"><ele>2153.97</ele><time>2019-08-15T11:08:19Z</time></trkpt><trkpt lat="42.7997101843" lon="-0.3139925469"><ele>2154.93</ele><time>2019-08-15T11:08:35Z</time></trkpt><trkpt lat="42.7997364197" lon="-0.3140762821"><ele>2156.86</ele><time>2019-08-15T11:08:52Z</time></trkpt><trkpt lat="42.7997231763" lon="-0.3140793834"><ele>2156.86</ele><time>2019-08-15T11:09:05Z</time></trkpt><trkpt lat="42.7997247688" lon="-0.3140803054"><ele>2156.86</ele><time>2019-08-15T11:09:32Z</time></trkpt><trkpt lat="42.7997264452" lon="-0.3140766174"><ele>2156.86</ele><time>2019-08-15T11:10:01Z</time></trkpt><trkpt lat="42.7997537702" lon="-0.3140475322"><ele>2158.30</ele><time>2019-08-15T11:10:13Z</time></trkpt><trkpt lat="42.7997622360" lon="-0.3139954805"><ele>2158.78</ele><time>2019-08-15T11:10:19Z</time></trkpt><trkpt lat="42.7997631580" lon="-0.3139248211"><ele>2159.74</ele><time>2019-08-15T11:10:27Z</time></trkpt><trkpt lat="42.7997756470" lon="-0.3138981666"><ele>2160.22</ele><time>2019-08-15T11:10:30Z</time></trkpt><trkpt lat="42.7997901477" lon="-0.3138731886"><ele>2160.22</ele><time>2019-08-15T11:10:33Z</time></trkpt><trkpt lat="42.7998338174" lon="-0.3137962427"><ele>2162.14</ele><time>2019-08-15T11:10:42Z</time></trkpt><trkpt lat="42.7998750564" lon="-0.3136975877"><ele>2163.58</ele><time>2019-08-15T11:10:57Z</time></trkpt><trkpt lat="42.7999013755" lon="-0.3136505652"><ele>2164.06</ele><time>2019-08-15T11:11:08Z</time></trkpt><trkpt lat="42.7998825163" lon="-0.3137927223"><ele>2165.51</ele><time>2019-08-15T11:11:21Z</time></trkpt><trkpt lat="42.7998964302" lon="-0.3139574267"><ele>2166.95</ele><time>2019-08-15T11:11:38Z</time></trkpt><trkpt lat="42.7999064047" lon="-0.3139903676"><ele>2166.95</ele><time>2019-08-15T11:11:42Z</time></trkpt><trkpt lat="42.7999288682" lon="-0.3141208738"><ele>2167.43</ele><time>2019-08-15T11:11:57Z</time></trkpt><trkpt lat="42.7999442909" lon="-0.3142213728"><ele>2169.83</ele><time>2019-08-15T11:12:13Z</time></trkpt><trkpt lat="42.7999553550" lon="-0.3143146634"><ele>2171.76</ele><time>2019-08-15T11:12:29Z</time></trkpt><trkpt lat="42.7999816742" lon="-0.3143072873"><ele>2172.72</ele><time>2019-08-15T11:12:44Z</time></trkpt><trkpt lat="42.8000181355" lon="-0.3142199479"><ele>2174.16</ele><time>2019-08-15T11:12:56Z</time></trkpt><trkpt lat="42.8000421077" lon="-0.3141637053"><ele>2175.60</ele><time>2019-08-15T11:13:08Z</time></trkpt><trkpt lat="42.8000664990" lon="-0.3140736837"><ele>2177.04</ele><time>2019-08-15T11:13:19Z</time></trkpt><trkpt lat="42.8000804130" lon="-0.3140507173"><ele>2177.04</ele><time>2019-08-15T11:13:36Z</time></trkpt><trkpt lat="42.8001165390" lon="-0.3139617853"><ele>2178.97</ele><time>2019-08-15T11:13:55Z</time></trkpt><trkpt lat="42.8001322970" lon="-0.3138761222"><ele>2179.93</ele><time>2019-08-15T11:14:07Z</time></trkpt><trkpt lat="42.8001502343" lon="-0.3138232324"><ele>2181.37</ele><time>2019-08-15T11:14:20Z</time></trkpt><trkpt lat="42.8001576103" lon="-0.3138504736"><ele>2182.33</ele><time>2019-08-15T11:14:33Z</time></trkpt><trkpt lat="42.8001831751" lon="-0.3139091469"><ele>2183.29</ele><time>2019-08-15T11:14:50Z</time></trkpt><trkpt lat="42.8001983464" lon="-0.3139974084"><ele>2185.21</ele><time>2019-08-15T11:15:02Z</time></trkpt><trkpt lat="42.8001939040" lon="-0.3140613623"><ele>2184.25</ele><time>2019-08-15T11:15:08Z</time></trkpt><trkpt lat="42.8001958318" lon="-0.3142093029"><ele>2185.69</ele><time>2019-08-15T11:15:26Z</time></trkpt><trkpt lat="42.8001884557" lon="-0.3142831475"><ele>2186.66</ele><time>2019-08-15T11:15:46Z</time></trkpt><trkpt lat="42.8001902159" lon="-0.3142801300"><ele>2187.62</ele><time>2019-08-15T11:16:01Z</time></trkpt><trkpt lat="42.8002286050" lon="-0.3141826484"><ele>2189.06</ele><time>2019-08-15T11:16:15Z</time></trkpt><trkpt lat="42.8002598695" lon="-0.3141111508"><ele>2190.02</ele><time>2019-08-15T11:16:37Z</time></trkpt><trkpt lat="42.8002694249" lon="-0.3140497115"><ele>2191.46</ele><time>2019-08-15T11:16:51Z</time></trkpt><trkpt lat="42.8002920561" lon="-0.3140351269"><ele>2191.94</ele><time>2019-08-15T11:17:03Z</time></trkpt><trkpt lat="42.8002996836" lon="-0.3141197003"><ele>2193.39</ele><time>2019-08-15T11:17:17Z</time></trkpt><trkpt lat="42.8003104124" lon="-0.3142305091"><ele>2195.31</ele><time>2019-08-15T11:17:34Z</time></trkpt><trkpt lat="42.8003179561" lon="-0.3142340295"><ele>2195.79</ele><time>2019-08-15T11:17:49Z</time></trkpt><trkpt lat="42.8003208898" lon="-0.3142286651"><ele>2196.75</ele><time>2019-08-15T11:18:15Z</time></trkpt><trkpt lat="42.8003225662" lon="-0.3142245580"><ele>2196.27</ele><time>2019-08-15T11:18:37Z</time></trkpt><trkpt lat="42.8003328759" lon="-0.3141626157"><ele>2197.23</ele><time>2019-08-15T11:18:50Z</time></trkpt><trkpt lat="42.8003667388" lon="-0.3140574228"><ele>2198.67</ele><time>2019-08-15T11:19:03Z</time></trkpt><trkpt lat="42.8004109953" lon="-0.3139450215"><ele>2199.63</ele><time>2019-08-15T11:19:16Z</time></trkpt><trkpt lat="42.8004161920" lon="-0.3138386551"><ele>2202.04</ele><time>2019-08-15T11:19:29Z</time></trkpt><trkpt lat="42.8004382364" lon="-0.3137234040"><ele>2202.52</ele><time>2019-08-15T11:19:43Z</time></trkpt><trkpt lat="42.8004545812" lon="-0.3136050515"><ele>2203.00</ele><time>2019-08-15T11:19:56Z</time></trkpt><trkpt lat="42.8004511446" lon="-0.3134840168"><ele>2204.44</ele><time>2019-08-15T11:20:09Z</time></trkpt><trkpt lat="42.8004389070" lon="-0.3133682627"><ele>2206.36</ele><time>2019-08-15T11:20:22Z</time></trkpt><trkpt lat="42.8004458640" lon="-0.3132568672"><ele>2207.32</ele><time>2019-08-15T11:20:35Z</time></trkpt><trkpt lat="42.8004511446" lon="-0.3132295422"><ele>2207.32</ele><time>2019-08-15T11:20:38Z</time></trkpt><trkpt lat="42.8004569281" lon="-0.3131764010"><ele>2208.77</ele><time>2019-08-15T11:20:53Z</time></trkpt><trkpt lat="42.8004728537" lon="-0.3130875528"><ele>2210.21</ele><time>2019-08-15T11:21:08Z</time></trkpt><trkpt lat="42.8004852589" lon="-0.3130716272"><ele>2210.21</ele><time>2019-08-15T11:21:12Z</time></trkpt><trkpt lat="42.8005012684" lon="-0.3130425420"><ele>2211.17</ele><time>2019-08-15T11:21:23Z</time></trkpt><trkpt lat="42.8004891984" lon="-0.3129516821"><ele>2212.61</ele><time>2019-08-15T11:21:36Z</time></trkpt><trkpt lat="42.8004893661" lon="-0.3129516821"><ele>2214.53</ele><time>2019-08-15T11:21:55Z</time></trkpt><trkpt lat="42.8004911263" lon="-0.3129432164"><ele>2215.50</ele><time>2019-08-15T11:22:22Z</time></trkpt><trkpt lat="42.8004796430" lon="-0.3129388578"><ele>2214.53</ele><time>2019-08-15T11:22:44Z</time></trkpt><trkpt lat="42.8004760388" lon="-0.3129337449"><ele>2214.53</ele><time>2019-08-15T11:23:14Z</time></trkpt><trkpt lat="42.8004794754" lon="-0.3128535300"><ele>2215.98</ele><time>2019-08-15T11:23:27Z</time></trkpt><trkpt lat="42.8004931379" lon="-0.3127971198"><ele>2216.94</ele><time>2019-08-15T11:23:39Z</time></trkpt><trkpt lat="42.8005058784" lon="-0.3127216827"><ele>2218.86</ele><time>2019-08-15T11:23:51Z</time></trkpt><trkpt lat="42.8005149309" lon="-0.3126796056"><ele>2219.82</ele><time>2019-08-15T11:24:04Z</time></trkpt><trkpt lat="42.8005316108" lon="-0.3126535378"><ele>2221.26</ele><time>2019-08-15T11:24:16Z</time></trkpt><trkpt lat="42.8005571757" lon="-0.3125940263"><ele>2222.71</ele><time>2019-08-15T11:24:28Z</time></trkpt><trkpt lat="42.8005732689" lon="-0.3125738259"><ele>2223.19</ele><time>2019-08-15T11:24:39Z</time></trkpt><trkpt lat="42.8005839139" lon="-0.3125371970"><ele>2224.15</ele><time>2019-08-15T11:24:52Z</time></trkpt><trkpt lat="42.8005997557" lon="-0.3125086986"><ele>2225.59</ele><time>2019-08-15T11:25:06Z</time></trkpt><trkpt lat="42.8006196208" lon="-0.3125107940"><ele>2226.55</ele><time>2019-08-15T11:25:25Z</time></trkpt><trkpt lat="42.8006651346" lon="-0.3126063477"><ele>2227.99</ele><time>2019-08-15T11:25:41Z</time></trkpt><trkpt lat="42.8006894421" lon="-0.3126795217"><ele>2228.95</ele><time>2019-08-15T11:25:56Z</time></trkpt><trkpt lat="42.8006932139" lon="-0.3125986364"><ele>2228.95</ele><time>2019-08-15T11:26:09Z</time></trkpt><trkpt lat="42.8007745184" lon="-0.3125055972"><ele>2229.92</ele><time>2019-08-15T11:26:23Z</time></trkpt><trkpt lat="42.8008576669" lon="-0.3124031704"><ele>2227.99</ele><time>2019-08-15T11:26:38Z</time></trkpt><trkpt lat="42.8008761909" lon="-0.3123522084"><ele>2228.47</ele><time>2019-08-15T11:26:50Z</time></trkpt><trkpt lat="42.8008934576" lon="-0.3123201896"><ele>2227.51</ele><time>2019-08-15T11:27:03Z</time></trkpt><trkpt lat="42.8008942120" lon="-0.3122827224"><ele>2226.55</ele><time>2019-08-15T11:27:19Z</time></trkpt><trkpt lat="42.8008929547" lon="-0.3122183494"><ele>2224.63</ele><time>2019-08-15T11:27:30Z</time></trkpt><trkpt lat="42.8008484468" lon="-0.3121474385"><ele>2225.59</ele><time>2019-08-15T11:27:44Z</time></trkpt><trkpt lat="42.8008419927" lon="-0.3121368773"><ele>2225.59</ele><time>2019-08-15T11:27:58Z</time></trkpt><trkpt lat="42.8008404840" lon="-0.3121372964"><ele>2225.11</ele><time>2019-08-15T11:28:00Z</time></trkpt><trkpt lat="42.8008128237" lon="-0.3121126536"><ele>2225.11</ele><time>2019-08-15T11:28:14Z</time></trkpt><trkpt lat="42.8008187748" lon="-0.3121176828"><ele>2224.63</ele><time>2019-08-15T11:28:50Z</time></trkpt><trkpt lat="42.8008150030" lon="-0.3121183533"><ele>2225.11</ele><time>2019-08-15T11:29:26Z</time></trkpt><trkpt lat="42.8008167632" lon="-0.3121173475"><ele>2224.15</ele><time>2019-08-15T11:30:01Z</time></trkpt><trkpt lat="42.8008170146" lon="-0.3121205326"><ele>2223.67</ele><time>2019-08-15T11:30:34Z</time></trkpt><trkpt lat="42.8008208703" lon="-0.3121209517"><ele>2225.11</ele><time>2019-08-15T11:31:09Z</time></trkpt><trkpt lat="42.8008251451" lon="-0.3121212032"><ele>2224.15</ele><time>2019-08-15T11:31:47Z</time></trkpt><trkpt lat="42.8008273244" lon="-0.3121243883"><ele>2223.67</ele><time>2019-08-15T11:32:21Z</time></trkpt><trkpt lat="42.8008280788" lon="-0.3121181857"><ele>2224.15</ele><time>2019-08-15T11:32:59Z</time></trkpt><trkpt lat="42.8008286655" lon="-0.3121130727"><ele>2224.63</ele><time>2019-08-15T11:33:32Z</time></trkpt><trkpt lat="42.8008327726" lon="-0.3121142462"><ele>2224.15</ele><time>2019-08-15T11:34:12Z</time></trkpt><trkpt lat="42.8008270729" lon="-0.3121181019"><ele>2224.15</ele><time>2019-08-15T11:34:47Z</time></trkpt><trkpt lat="42.8008271568" lon="-0.3121135756"><ele>2224.15</ele><time>2019-08-15T11:35:25Z</time></trkpt><trkpt lat="42.8008242231" lon="-0.3121139109"><ele>2223.67</ele><time>2019-08-15T11:36:04Z</time></trkpt><trkpt lat="42.8008270729" lon="-0.3121134918"><ele>2224.15</ele><time>2019-08-15T11:36:39Z</time></trkpt><trkpt lat="42.8008271568" lon="-0.3121212870"><ele>2223.67</ele><time>2019-08-15T11:37:19Z</time></trkpt><trkpt lat="42.8008262347" lon="-0.3121191077"><ele>2224.15</ele><time>2019-08-15T11:37:54Z</time></trkpt><trkpt lat="42.8008231334" lon="-0.3121284954"><ele>2224.63</ele><time>2019-08-15T11:38:36Z</time></trkpt><trkpt lat="42.8008221276" lon="-0.3121272381"><ele>2224.15</ele><time>2019-08-15T11:39:13Z</time></trkpt><trkpt lat="42.8008126561" lon="-0.3121283278"><ele>2224.63</ele><time>2019-08-15T11:39:35Z</time></trkpt><trkpt lat="42.8008177690" lon="-0.3121190239"><ele>2224.15</ele><time>2019-08-15T11:40:09Z</time></trkpt><trkpt lat="42.8008196130" lon="-0.3121165093"><ele>2224.63</ele><time>2019-08-15T11:40:44Z</time></trkpt><trkpt lat="42.8008155897" lon="-0.3121126536"><ele>2224.15</ele><time>2019-08-15T11:41:18Z</time></trkpt><trkpt lat="42.8008098062" lon="-0.3121103905"><ele>2224.15</ele><time>2019-08-15T11:41:54Z</time></trkpt><trkpt lat="42.8008040227" lon="-0.3121083789"><ele>2224.63</ele><time>2019-08-15T11:42:29Z</time></trkpt><trkpt lat="42.8008040227" lon="-0.3121112287"><ele>2223.67</ele><time>2019-08-15T11:43:01Z</time></trkpt><trkpt lat="42.8008071240" lon="-0.3121025953"><ele>2223.67</ele><time>2019-08-15T11:43:37Z</time></trkpt><trkpt lat="42.8008015919" lon="-0.3121046908"><ele>2223.67</ele><time>2019-08-15T11:44:13Z</time></trkpt><trkpt lat="42.8007970657" lon="-0.3121023439"><ele>2224.15</ele><time>2019-08-15T11:44:42Z</time></trkpt><trkpt lat="42.8007977363" lon="-0.3121109772"><ele>2224.15</ele><time>2019-08-15T11:45:20Z</time></trkpt><trkpt lat="42.8007977363" lon="-0.3121155035"><ele>2224.15</ele><time>2019-08-15T11:45:56Z</time></trkpt><trkpt lat="42.8007974848" lon="-0.3121194430"><ele>2224.63</ele><time>2019-08-15T11:46:32Z</time></trkpt><trkpt lat="42.8007958923" lon="-0.3121274896"><ele>2224.15</ele><time>2019-08-15T11:47:01Z</time></trkpt><trkpt lat="42.8008005023" lon="-0.3121297527"><ele>2223.67</ele><time>2019-08-15T11:47:40Z</time></trkpt><trkpt lat="42.8008083813" lon="-0.3121201135"><ele>2223.67</ele><time>2019-08-15T11:48:16Z</time></trkpt><trkpt lat="42.8008135781" lon="-0.3121145815"><ele>2224.15</ele><time>2019-08-15T11:48:51Z</time></trkpt><trkpt lat="42.8008299228" lon="-0.3121092170"><ele>2224.63</ele><time>2019-08-15T11:49:14Z</time></trkpt><trkpt lat="42.8008486982" lon="-0.3121383861"><ele>2224.63</ele><time>2019-08-15T11:49:35Z</time></trkpt><trkpt lat="42.8008528892" lon="-0.3121495340"><ele>2224.63</ele><time>2019-08-15T11:50:05Z</time></trkpt><trkpt lat="42.8008392267" lon="-0.3121672198"><ele>2224.15</ele><time>2019-08-15T11:50:30Z</time></trkpt><trkpt lat="42.8008339461" lon="-0.3121649567"><ele>2222.71</ele><time>2019-08-15T11:50:43Z</time></trkpt><trkpt lat="42.8008375503" lon="-0.3121617716"><ele>2224.63</ele><time>2019-08-15T11:51:08Z</time></trkpt><trkpt lat="42.8008384723" lon="-0.3121614363"><ele>2223.19</ele><time>2019-08-15T11:51:10Z</time></trkpt><trkpt lat="42.8008381370" lon="-0.3121570777"><ele>2222.71</ele><time>2019-08-15T11:51:20Z</time></trkpt><trkpt lat="42.8008458484" lon="-0.3121453431"><ele>2222.71</ele><time>2019-08-15T11:51:41Z</time></trkpt><trkpt lat="42.8008509614" lon="-0.3121395595"><ele>2223.67</ele><time>2019-08-15T11:52:05Z</time></trkpt><trkpt lat="42.8008520510" lon="-0.3121388890"><ele>2222.22</ele><time>2019-08-15T11:52:08Z</time></trkpt><trkpt lat="42.8008521348" lon="-0.3121377155"><ele>2222.22</ele><time>2019-08-15T11:52:39Z</time></trkpt><trkpt lat="42.8008515481" lon="-0.3121376317"><ele>2222.22</ele><time>2019-08-15T11:52:40Z</time></trkpt><trkpt lat="42.8008521348" lon="-0.3121377155"><ele>2219.34</ele><time>2019-08-15T11:52:45Z</time></trkpt><trkpt lat="42.8008518834" lon="-0.3121380508"><ele>2222.71</ele><time>2019-08-15T11:52:46Z</time></trkpt><trkpt lat="42.8008512128" lon="-0.3121373802"><ele>2218.86</ele><time>2019-08-15T11:52:49Z</time></trkpt><trkpt lat="42.8008518834" lon="-0.3121375479"><ele>2223.67</ele><time>2019-08-15T11:52:52Z</time></trkpt><trkpt lat="42.8008527216" lon="-0.3121388890"><ele>2219.82</ele><time>2019-08-15T11:52:55Z</time></trkpt><trkpt lat="42.8008510452" lon="-0.3121346142"><ele>2224.63</ele><time>2019-08-15T11:53:04Z</time></trkpt><trkpt lat="42.8008486144" lon="-0.3121243883"><ele>2221.26</ele><time>2019-08-15T11:53:18Z</time></trkpt><trkpt lat="42.8008483630" lon="-0.3121250588"><ele>2225.11</ele><time>2019-08-15T11:53:22Z</time></trkpt><trkpt lat="42.8008482791" lon="-0.3121248912"><ele>2221.74</ele><time>2019-08-15T11:53:33Z</time></trkpt><trkpt lat="42.8008447587" lon="-0.3121263999"><ele>2221.74</ele><time>2019-08-15T11:53:57Z</time></trkpt><trkpt lat="42.8008119855" lon="-0.3121296689"><ele>2222.22</ele><time>2019-08-15T11:54:45Z</time></trkpt><trkpt lat="42.8008191939" lon="-0.3121298365"><ele>2222.22</ele><time>2019-08-15T11:55:33Z</time></trkpt><trkpt lat="42.8008352034" lon="-0.3121316805"><ele>2222.22</ele><time>2019-08-15T11:56:14Z</time></trkpt><trkpt lat="42.8008266538" lon="-0.3121337760"><ele>2222.22</ele><time>2019-08-15T11:56:52Z</time></trkpt><trkpt lat="42.8008201998" lon="-0.3121365421"><ele>2222.22</ele><time>2019-08-15T11:57:37Z</time></trkpt><trkpt lat="42.8008309286" lon="-0.3121376317"><ele>2222.22</ele><time>2019-08-15T11:58:24Z</time></trkpt><trkpt lat="42.8008395620" lon="-0.3121250588"><ele>2221.26</ele><time>2019-08-15T11:59:08Z</time></trkpt><trkpt lat="42.8008384723" lon="-0.3121262323"><ele>2221.26</ele><time>2019-08-15T11:59:48Z</time></trkpt><trkpt lat="42.8008446749" lon="-0.3121181019"><ele>2223.67</ele><time>2019-08-15T12:00:35Z</time></trkpt><trkpt lat="42.8008460999" lon="-0.3121238854"><ele>2222.71</ele><time>2019-08-15T12:01:15Z</time></trkpt><trkpt lat="42.8008403163" lon="-0.3121135756"><ele>2223.67</ele><time>2019-08-15T12:01:54Z</time></trkpt><trkpt lat="42.8008305933" lon="-0.3121251427"><ele>2224.15</ele><time>2019-08-15T12:02:35Z</time></trkpt><trkpt lat="42.8008478601" lon="-0.3121346142"><ele>2223.67</ele><time>2019-08-15T12:03:21Z</time></trkpt><trkpt lat="42.8008481115" lon="-0.3121251427"><ele>2222.71</ele><time>2019-08-15T12:03:57Z</time></trkpt><trkpt lat="42.8008516319" lon="-0.3121304233"><ele>2222.22</ele><time>2019-08-15T12:04:33Z</time></trkpt><trkpt lat="42.8008481953" lon="-0.3121256456"><ele>2222.71</ele><time>2019-08-15T12:05:12Z</time></trkpt><trkpt lat="42.8008460999" lon="-0.3121308424"><ele>2223.19</ele><time>2019-08-15T12:05:47Z</time></trkpt><trkpt lat="42.8008429985" lon="-0.3121443372"><ele>2223.67</ele><time>2019-08-15T12:06:22Z</time></trkpt><trkpt lat="42.8008455131" lon="-0.3121545631"><ele>2223.19</ele><time>2019-08-15T12:06:58Z</time></trkpt><trkpt lat="42.8008331079" lon="-0.3121514618"><ele>2223.67</ele><time>2019-08-15T12:07:32Z</time></trkpt><trkpt lat="42.8008305933" lon="-0.3121428285"><ele>2223.19</ele><time>2019-08-15T12:07:58Z</time></trkpt><trkpt lat="42.8008299228" lon="-0.3121507913"><ele>2223.67</ele><time>2019-08-15T12:08:25Z</time></trkpt><trkpt lat="42.8008241393" lon="-0.3121481091"><ele>2223.67</ele><time>2019-08-15T12:08:57Z</time></trkpt><trkpt lat="42.8008297551" lon="-0.3121362068"><ele>2226.07</ele><time>2019-08-15T12:09:26Z</time></trkpt><trkpt lat="42.8008340299" lon="-0.3121318482"><ele>2223.67</ele><time>2019-08-15T12:09:56Z</time></trkpt><trkpt lat="42.8008357063" lon="-0.3121330217"><ele>2222.71</ele><time>2019-08-15T12:10:25Z</time></trkpt><trkpt lat="42.8008393105" lon="-0.3121269867"><ele>2222.71</ele><time>2019-08-15T12:10:58Z</time></trkpt><trkpt lat="42.8008366283" lon="-0.3121313453"><ele>2222.22</ele><time>2019-08-15T12:11:27Z</time></trkpt><trkpt lat="42.8008321021" lon="-0.3121350333"><ele>2222.22</ele><time>2019-08-15T12:11:55Z</time></trkpt><trkpt lat="42.8008295037" lon="-0.3121437505"><ele>2222.71</ele><time>2019-08-15T12:12:21Z</time></trkpt><trkpt lat="42.8008349519" lon="-0.3121361230"><ele>2223.19</ele><time>2019-08-15T12:12:46Z</time></trkpt><trkpt lat="42.8008336946" lon="-0.3121377993"><ele>2223.67</ele><time>2019-08-15T12:13:17Z</time></trkpt><trkpt lat="42.8008346166" lon="-0.3121358715"><ele>2223.19</ele><time>2019-08-15T12:13:21Z</time></trkpt><trkpt lat="42.8008274082" lon="-0.3121340275"><ele>2224.15</ele><time>2019-08-15T12:13:32Z</time></trkpt><trkpt lat="42.8008432500" lon="-0.3121331893"><ele>2223.67</ele><time>2019-08-15T12:13:50Z</time></trkpt><trkpt lat="42.8008497041" lon="-0.3121383861"><ele>2223.67</ele><time>2019-08-15T12:14:00Z</time></trkpt><trkpt lat="42.8008485306" lon="-0.3121603467"><ele>2223.67</ele><time>2019-08-15T12:14:03Z</time></trkpt><trkpt lat="42.8008576669" lon="-0.3121836483"><ele>2224.15</ele><time>2019-08-15T12:14:05Z</time></trkpt><trkpt lat="42.8008695692" lon="-0.3122470994"><ele>2225.11</ele><time>2019-08-15T12:14:11Z</time></trkpt><trkpt lat="42.8008953016" lon="-0.3123160824"><ele>2226.55</ele><time>2019-08-15T12:14:19Z</time></trkpt><trkpt lat="42.8008860815" lon="-0.3123746719"><ele>2226.55</ele><time>2019-08-15T12:14:27Z</time></trkpt><trkpt lat="42.8008323535" lon="-0.3124791104"><ele>2228.47</ele><time>2019-08-15T12:14:40Z</time></trkpt><trkpt lat="42.8007270768" lon="-0.3125846386"><ele>2230.40</ele><time>2019-08-15T12:14:54Z</time></trkpt><trkpt lat="42.8007181082" lon="-0.3125990555"><ele>2228.95</ele><time>2019-08-15T12:15:09Z</time></trkpt><trkpt lat="42.8007259034" lon="-0.3126016539"><ele>2229.92</ele><time>2019-08-15T12:15:30Z</time></trkpt><trkpt lat="42.8007142525" lon="-0.3126325831"><ele>2230.40</ele><time>2019-08-15T12:15:40Z</time></trkpt><trkpt lat="42.8007124923" lon="-0.3126503527"><ele>2230.88</ele><time>2019-08-15T12:15:53Z</time></trkpt><trkpt lat="42.8007173538" lon="-0.3126830421"><ele>2230.88</ele><time>2019-08-15T12:16:05Z</time></trkpt><trkpt lat="42.8007026017" lon="-0.3126742411"><ele>2231.36</ele><time>2019-08-15T12:16:09Z</time></trkpt><trkpt lat="42.8006694932" lon="-0.3126186691"><ele>2229.43</ele><time>2019-08-15T12:16:12Z</time></trkpt><trkpt lat="42.8006390668" lon="-0.3125341795"><ele>2228.47</ele><time>2019-08-15T12:16:17Z</time></trkpt><trkpt lat="42.8006241471" lon="-0.3125242889"><ele>2227.51</ele><time>2019-08-15T12:16:19Z</time></trkpt><trkpt lat="42.8005731851" lon="-0.3126019053"><ele>2224.15</ele><time>2019-08-15T12:16:24Z</time></trkpt><trkpt lat="42.8005322814" lon="-0.3126796056"><ele>2221.26</ele><time>2019-08-15T12:16:28Z</time></trkpt><trkpt lat="42.8005233128" lon="-0.3127141390"><ele>2220.30</ele><time>2019-08-15T12:16:30Z</time></trkpt><trkpt lat="42.8005060460" lon="-0.3127368540"><ele>2219.82</ele><time>2019-08-15T12:16:32Z</time></trkpt><trkpt lat="42.8004738595" lon="-0.3129116166"><ele>2215.98</ele><time>2019-08-15T12:16:38Z</time></trkpt><trkpt lat="42.8004814871" lon="-0.3130314779"><ele>2213.09</ele><time>2019-08-15T12:16:42Z</time></trkpt><trkpt lat="42.8004698362" lon="-0.3131018020"><ele>2212.13</ele><time>2019-08-15T12:16:44Z</time></trkpt><trkpt lat="42.8004456963" lon="-0.3132497426"><ele>2209.73</ele><time>2019-08-15T12:16:48Z</time></trkpt><trkpt lat="42.8004402481" lon="-0.3134035505"><ele>2207.81</ele><time>2019-08-15T12:16:53Z</time></trkpt><trkpt lat="42.8004489653" lon="-0.3134752158"><ele>2206.84</ele><time>2019-08-15T12:16:56Z</time></trkpt><trkpt lat="42.8004608676" lon="-0.3134984337"><ele>2205.88</ele><time>2019-08-15T12:17:06Z</time></trkpt><trkpt lat="42.8004626278" lon="-0.3134986013"><ele>2206.84</ele><time>2019-08-15T12:17:18Z</time></trkpt><trkpt lat="42.8004483785" lon="-0.3137359768"><ele>2204.44</ele><time>2019-08-15T12:17:25Z</time></trkpt><trkpt lat="42.8004312795" lon="-0.3138428461"><ele>2203.48</ele><time>2019-08-15T12:17:28Z</time></trkpt><trkpt lat="42.8003462031" lon="-0.3141779546"><ele>2199.63</ele><time>2019-08-15T12:17:37Z</time></trkpt><trkpt lat="42.8003343008" lon="-0.3142294195"><ele>2199.15</ele><time>2019-08-15T12:17:39Z</time></trkpt><trkpt lat="42.8003187105" lon="-0.3142490331"><ele>2197.71</ele><time>2019-08-15T12:17:42Z</time></trkpt><trkpt lat="42.8002776392" lon="-0.3140461072"><ele>2195.79</ele><time>2019-08-15T12:17:54Z</time></trkpt><trkpt lat="42.8002624679" lon="-0.3140501305"><ele>2194.35</ele><time>2019-08-15T12:17:57Z</time></trkpt><trkpt lat="42.8002218157" lon="-0.3141898569"><ele>2192.42</ele><time>2019-08-15T12:18:03Z</time></trkpt><trkpt lat="42.8002141882" lon="-0.3142243065"><ele>2191.94</ele><time>2019-08-15T12:18:05Z</time></trkpt><trkpt lat="42.8001995198" lon="-0.3142921999"><ele>2190.02</ele><time>2019-08-15T12:18:16Z</time></trkpt><trkpt lat="42.8001949936" lon="-0.3143065330"><ele>2189.54</ele><time>2019-08-15T12:18:29Z</time></trkpt><trkpt lat="42.8001858573" lon="-0.3140239790"><ele>2187.62</ele><time>2019-08-15T12:18:41Z</time></trkpt><trkpt lat="42.8001895454" lon="-0.3140032757"><ele>2188.10</ele><time>2019-08-15T12:18:42Z</time></trkpt><trkpt lat="42.8001832590" lon="-0.3139515594"><ele>2187.14</ele><time>2019-08-15T12:18:44Z</time></trkpt><trkpt lat="42.8001420200" lon="-0.3138703387"><ele>2185.21</ele><time>2019-08-15T12:18:48Z</time></trkpt><trkpt lat="42.8001374938" lon="-0.3138420917"><ele>2184.73</ele><time>2019-08-15T12:18:50Z</time></trkpt><trkpt lat="42.8001214843" lon="-0.3138220590"><ele>2184.25</ele><time>2019-08-15T12:18:52Z</time></trkpt><trkpt lat="42.8001114260" lon="-0.3139520623"><ele>2181.85</ele><time>2019-08-15T12:18:59Z</time></trkpt><trkpt lat="42.8000623919" lon="-0.3140667267"><ele>2179.93</ele><time>2019-08-15T12:19:04Z</time></trkpt><trkpt lat="42.7999911457" lon="-0.3143055271"><ele>2176.56</ele><time>2019-08-15T12:19:14Z</time></trkpt><trkpt lat="42.7999790758" lon="-0.3143175971"><ele>2175.60</ele><time>2019-08-15T12:19:18Z</time></trkpt><trkpt lat="42.7999535948" lon="-0.3141626995"><ele>2172.72</ele><time>2019-08-15T12:19:25Z</time></trkpt><trkpt lat="42.7999362443" lon="-0.3140991647"><ele>2171.76</ele><time>2019-08-15T12:19:27Z</time></trkpt><trkpt lat="42.7999053150" lon="-0.3139430936"><ele>2170.31</ele><time>2019-08-15T12:19:32Z</time></trkpt><trkpt lat="42.7998925745" lon="-0.3136731125"><ele>2168.39</ele><time>2019-08-15T12:19:39Z</time></trkpt><trkpt lat="42.7998326439" lon="-0.3137724381"><ele>2165.99</ele><time>2019-08-15T12:19:46Z</time></trkpt><trkpt lat="42.7997602243" lon="-0.3139079735"><ele>2165.03</ele><time>2019-08-15T12:19:51Z</time></trkpt><trkpt lat="42.7997437119" lon="-0.3140332829"><ele>2162.62</ele><time>2019-08-15T12:19:55Z</time></trkpt><trkpt lat="42.7997412812" lon="-0.3140834067"><ele>2162.14</ele><time>2019-08-15T12:19:57Z</time></trkpt><trkpt lat="42.7997318096" lon="-0.3141028527"><ele>2160.22</ele><time>2019-08-15T12:19:59Z</time></trkpt><trkpt lat="42.7997270320" lon="-0.3140791319"><ele>2160.70</ele><time>2019-08-15T12:20:02Z</time></trkpt><trkpt lat="42.7997142915" lon="-0.3140349593"><ele>2159.26</ele><time>2019-08-15T12:20:04Z</time></trkpt><trkpt lat="42.7996646706" lon="-0.3138922155"><ele>2158.30</ele><time>2019-08-15T12:20:08Z</time></trkpt><trkpt lat="42.7996340767" lon="-0.3137129266"><ele>2155.89</ele><time>2019-08-15T12:20:13Z</time></trkpt><trkpt lat="42.7996109426" lon="-0.3137035388"><ele>2154.45</ele><time>2019-08-15T12:20:15Z</time></trkpt><trkpt lat="42.7995852102" lon="-0.3137451131"><ele>2153.49</ele><time>2019-08-15T12:20:17Z</time></trkpt><trkpt lat="42.7995010559" lon="-0.3140182793"><ele>2150.61</ele><time>2019-08-15T12:20:24Z</time></trkpt><trkpt lat="42.7994723897" lon="-0.3143474367"><ele>2147.24</ele><time>2019-08-15T12:20:32Z</time></trkpt><trkpt lat="42.7994525246" lon="-0.3144218680"><ele>2145.32</ele><time>2019-08-15T12:20:34Z</time></trkpt><trkpt lat="42.7994195838" lon="-0.3145281505"><ele>2142.92</ele><time>2019-08-15T12:20:37Z</time></trkpt><trkpt lat="42.7993894927" lon="-0.3147189226"><ele>2140.99</ele><time>2019-08-15T12:20:45Z</time></trkpt><trkpt lat="42.7993728966" lon="-0.3147510253"><ele>2140.03</ele><time>2019-08-15T12:20:46Z</time></trkpt><trkpt lat="42.7993327472" lon="-0.3148994688"><ele>2137.63</ele><time>2019-08-15T12:20:51Z</time></trkpt><trkpt lat="42.7993276343" lon="-0.3149355110"><ele>2136.67</ele><time>2019-08-15T12:21:02Z</time></trkpt><trkpt lat="42.7993252035" lon="-0.3149259556"><ele>2137.15</ele><time>2019-08-15T12:21:26Z</time></trkpt><trkpt lat="42.7993243653" lon="-0.3149262071"><ele>2138.59</ele><time>2019-08-15T12:21:30Z</time></trkpt><trkpt lat="42.7993322443" lon="-0.3149273805"><ele>2137.15</ele><time>2019-08-15T12:21:51Z</time></trkpt><trkpt lat="42.7993366029" lon="-0.3149309009"><ele>2137.15</ele><time>2019-08-15T12:22:04Z</time></trkpt><trkpt lat="42.7992988005" lon="-0.3151446395"><ele>2133.30</ele><time>2019-08-15T12:22:11Z</time></trkpt><trkpt lat="42.7992884070" lon="-0.3151784185"><ele>2133.30</ele><time>2019-08-15T12:22:12Z</time></trkpt><trkpt lat="42.7992792707" lon="-0.3152281232"><ele>2132.82</ele><time>2019-08-15T12:22:13Z</time></trkpt><trkpt lat="42.7992548794" lon="-0.3153426200"><ele>2131.38</ele><time>2019-08-15T12:22:15Z</time></trkpt><trkpt lat="42.7991836332" lon="-0.3155644890"><ele>2128.02</ele><time>2019-08-15T12:22:20Z</time></trkpt><trkpt lat="42.7991781011" lon="-0.3156636469"><ele>2127.05</ele><time>2019-08-15T12:22:22Z</time></trkpt><trkpt lat="42.7991659474" lon="-0.3159031179"><ele>2125.61</ele><time>2019-08-15T12:22:28Z</time></trkpt><trkpt lat="42.7991305757" lon="-0.3160382342"><ele>2122.73</ele><time>2019-08-15T12:22:33Z</time></trkpt><trkpt lat="42.7991206851" lon="-0.3160704207"><ele>2120.81</ele><time>2019-08-15T12:22:36Z</time></trkpt><trkpt lat="42.7991016582" lon="-0.3161021881"><ele>2119.84</ele><time>2019-08-15T12:22:40Z</time></trkpt><trkpt lat="42.7989569865" lon="-0.3163813055"><ele>2118.88</ele><time>2019-08-15T12:22:49Z</time></trkpt><trkpt lat="42.7989102155" lon="-0.3164666332"><ele>2118.88</ele><time>2019-08-15T12:22:54Z</time></trkpt><trkpt lat="42.7989145741" lon="-0.3165434115"><ele>2115.52</ele><time>2019-08-15T12:22:58Z</time></trkpt><trkpt lat="42.7989530470" lon="-0.3166662902"><ele>2111.67</ele><time>2019-08-15T12:23:04Z</time></trkpt><trkpt lat="42.7989151608" lon="-0.3166834731"><ele>2108.79</ele><time>2019-08-15T12:23:09Z</time></trkpt><trkpt lat="42.7989513706" lon="-0.3167619277"><ele>2107.35</ele><time>2019-08-15T12:23:14Z</time></trkpt><trkpt lat="42.7989631053" lon="-0.3168177512"><ele>2105.91</ele><time>2019-08-15T12:23:17Z</time></trkpt><trkpt lat="42.7989707328" lon="-0.3168344311"><ele>2105.91</ele><time>2019-08-15T12:23:18Z</time></trkpt><trkpt lat="42.7989844792" lon="-0.3168547153"><ele>2103.98</ele><time>2019-08-15T12:23:20Z</time></trkpt><trkpt lat="42.7989534661" lon="-0.3169193398"><ele>2101.10</ele><time>2019-08-15T12:23:27Z</time></trkpt><trkpt lat="42.7989722416" lon="-0.3169392049"><ele>2101.10</ele><time>2019-08-15T12:23:28Z</time></trkpt><trkpt lat="42.7989947051" lon="-0.3169968724"><ele>2097.73</ele><time>2019-08-15T12:23:35Z</time></trkpt><trkpt lat="42.7988063637" lon="-0.3169516101"><ele>2093.89</ele><time>2019-08-15T12:23:45Z</time></trkpt><trkpt lat="42.7989164181" lon="-0.3171207570"><ele>2092.45</ele><time>2019-08-15T12:23:52Z</time></trkpt><trkpt lat="42.7989453357" lon="-0.3171495069"><ele>2090.04</ele><time>2019-08-15T12:23:55Z</time></trkpt><trkpt lat="42.7988797054" lon="-0.3171718866"><ele>2087.64</ele><time>2019-08-15T12:23:59Z</time></trkpt><trkpt lat="42.7987419907" lon="-0.3171493392"><ele>2086.20</ele><time>2019-08-15T12:24:02Z</time></trkpt><trkpt lat="42.7985980734" lon="-0.3170692082"><ele>2081.87</ele><time>2019-08-15T12:24:06Z</time></trkpt><trkpt lat="42.7985715028" lon="-0.3170475829"><ele>2081.39</ele><time>2019-08-15T12:24:07Z</time></trkpt><trkpt lat="42.7985535655" lon="-0.3171232715"><ele>2080.43</ele><time>2019-08-15T12:24:10Z</time></trkpt><trkpt lat="42.7986070421" lon="-0.3172927536"><ele>2078.99</ele><time>2019-08-15T12:24:13Z</time></trkpt><trkpt lat="42.7986885142" lon="-0.3174143750"><ele>2074.66</ele><time>2019-08-15T12:24:16Z</time></trkpt><trkpt lat="42.7987085469" lon="-0.3174477350"><ele>2074.66</ele><time>2019-08-15T12:24:17Z</time></trkpt><trkpt lat="42.7987613529" lon="-0.3175007924"><ele>2073.22</ele><time>2019-08-15T12:24:19Z</time></trkpt><trkpt lat="42.7988983132" lon="-0.3176459670"><ele>2068.41</ele><time>2019-08-15T12:24:24Z</time></trkpt><trkpt lat="42.7987227961" lon="-0.3176744655"><ele>2064.09</ele><time>2019-08-15T12:24:31Z</time></trkpt><trkpt lat="42.7986172680" lon="-0.3176921513"><ele>2061.68</ele><time>2019-08-15T12:24:34Z</time></trkpt><trkpt lat="42.7984362189" lon="-0.3176776506"><ele>2058.32</ele><time>2019-08-15T12:24:38Z</time></trkpt><trkpt lat="42.7982211392" lon="-0.3176323883"><ele>2054.47</ele><time>2019-08-15T12:24:42Z</time></trkpt><trkpt lat="42.7978603821" lon="-0.3176122718"><ele>2049.19</ele><time>2019-08-15T12:24:47Z</time></trkpt><trkpt lat="42.7975736372" lon="-0.3178810794"><ele>2041.50</ele><time>2019-08-15T12:24:52Z</time></trkpt><trkpt lat="42.7974324021" lon="-0.3180366475"><ele>2038.13</ele><time>2019-08-15T12:24:56Z</time></trkpt><trkpt lat="42.7973232698" lon="-0.3181567602"><ele>2035.25</ele><time>2019-08-15T12:25:00Z</time></trkpt><trkpt lat="42.7973018959" lon="-0.3181905393"><ele>2035.25</ele><time>2019-08-15T12:25:02Z</time></trkpt><trkpt lat="42.7972448152" lon="-0.3182777949"><ele>2032.84</ele><time>2019-08-15T12:25:10Z</time></trkpt><trkpt lat="42.7972442284" lon="-0.3182763699"><ele>2033.33</ele><time>2019-08-15T12:25:32Z</time></trkpt><trkpt lat="42.7972438093" lon="-0.3182753641"><ele>2033.33</ele><time>2019-08-15T12:25:50Z</time></trkpt><trkpt lat="42.7972393669" lon="-0.3182800580"><ele>2032.84</ele><time>2019-08-15T12:26:04Z</time></trkpt><trkpt lat="42.7972436417" lon="-0.3182723466"><ele>2032.84</ele><time>2019-08-15T12:26:34Z</time></trkpt><trkpt lat="42.7972528618" lon="-0.3182690777"><ele>2032.36</ele><time>2019-08-15T12:26:47Z</time></trkpt><trkpt lat="42.7972438931" lon="-0.3182754479"><ele>2031.88</ele><time>2019-08-15T12:27:04Z</time></trkpt><trkpt lat="42.7972140536" lon="-0.3182563372"><ele>2032.36</ele><time>2019-08-15T12:27:07Z</time></trkpt><trkpt lat="42.7970910072" lon="-0.3180669062"><ele>2030.44</ele><time>2019-08-15T12:27:15Z</time></trkpt><trkpt lat="42.7969879098" lon="-0.3177939076"><ele>2026.60</ele><time>2019-08-15T12:27:19Z</time></trkpt><trkpt lat="42.7969547175" lon="-0.3175857011"><ele>2023.71</ele><time>2019-08-15T12:27:21Z</time></trkpt><trkpt lat="42.7968950383" lon="-0.3173478227"><ele>2017.94</ele><time>2019-08-15T12:27:24Z</time></trkpt><trkpt lat="42.7968257200" lon="-0.3172962740"><ele>2014.58</ele><time>2019-08-15T12:27:28Z</time></trkpt><trkpt lat="42.7968082856" lon="-0.3172590584"><ele>2012.66</ele><time>2019-08-15T12:27:30Z</time></trkpt><trkpt lat="42.7967916057" lon="-0.3171112854"><ele>2010.73</ele><time>2019-08-15T12:27:35Z</time></trkpt><trkpt lat="42.7967646159" lon="-0.3170312382"><ele>2009.29</ele><time>2019-08-15T12:27:39Z</time></trkpt><trkpt lat="42.7967803739" lon="-0.3167647775"><ele>2007.37</ele><time>2019-08-15T12:27:50Z</time></trkpt><trkpt lat="42.7967568208" lon="-0.3166991472"><ele>2005.93</ele><time>2019-08-15T12:27:54Z</time></trkpt><trkpt lat="42.7966968901" lon="-0.3166197706"><ele>2003.04</ele><time>2019-08-15T12:27:59Z</time></trkpt><trkpt lat="42.7966764383" lon="-0.3165423218"><ele>2001.60</ele><time>2019-08-15T12:28:02Z</time></trkpt><trkpt lat="42.7966798749" lon="-0.3163606022"><ele>1997.76</ele><time>2019-08-15T12:28:05Z</time></trkpt><trkpt lat="42.7966906037" lon="-0.3163202852"><ele>1997.76</ele><time>2019-08-15T12:28:06Z</time></trkpt><trkpt lat="42.7967083734" lon="-0.3161385655"><ele>1994.39</ele><time>2019-08-15T12:28:11Z</time></trkpt><trkpt lat="42.7966916934" lon="-0.3160352167"><ele>1992.95</ele><time>2019-08-15T12:28:14Z</time></trkpt><trkpt lat="42.7966233809" lon="-0.3158842586"><ele>1991.51</ele><time>2019-08-15T12:28:18Z</time></trkpt><trkpt lat="42.7965137456" lon="-0.3156974260"><ele>1989.10</ele><time>2019-08-15T12:28:24Z</time></trkpt><trkpt lat="42.7964469418" lon="-0.3153991979"><ele>1985.26</ele><time>2019-08-15T12:28:30Z</time></trkpt><trkpt lat="42.7964487020" lon="-0.3152256086"><ele>1982.86</ele><time>2019-08-15T12:28:33Z</time></trkpt><trkpt lat="42.7964343689" lon="-0.3151246067"><ele>1981.90</ele><time>2019-08-15T12:28:37Z</time></trkpt><trkpt lat="42.7964270767" lon="-0.3151296359"><ele>1980.93</ele><time>2019-08-15T12:28:38Z</time></trkpt><trkpt lat="42.7963619493" lon="-0.3151630796"><ele>1979.01</ele><time>2019-08-15T12:28:42Z</time></trkpt><trkpt lat="42.7963482868" lon="-0.3151380178"><ele>1978.53</ele><time>2019-08-15T12:28:50Z</time></trkpt><trkpt lat="42.7963295113" lon="-0.3151364252"><ele>1978.05</ele><time>2019-08-15T12:29:00Z</time></trkpt><trkpt lat="42.7962905355" lon="-0.3151458967"><ele>1979.01</ele><time>2019-08-15T12:29:12Z</time></trkpt><trkpt lat="42.7962560020" lon="-0.3151724674"><ele>1979.49</ele><time>2019-08-15T12:29:19Z</time></trkpt><trkpt lat="42.7962544933" lon="-0.3151607327"><ele>1979.97</ele><time>2019-08-15T12:29:23Z</time></trkpt><trkpt lat="42.7962571755" lon="-0.3151633311"><ele>1980.45</ele><time>2019-08-15T12:29:32Z</time></trkpt><trkpt lat="42.7962674014" lon="-0.3151585534"><ele>1980.45</ele><time>2019-08-15T12:29:46Z</time></trkpt><trkpt lat="42.7962576784" lon="-0.3151612356"><ele>1979.49</ele><time>2019-08-15T12:30:02Z</time></trkpt><trkpt lat="42.7962563373" lon="-0.3151676059"><ele>1979.49</ele><time>2019-08-15T12:30:23Z</time></trkpt><trkpt lat="42.7962482907" lon="-0.3151621576"><ele>1979.49</ele><time>2019-08-15T12:30:44Z</time></trkpt><trkpt lat="42.7962407470" lon="-0.3151554521"><ele>1980.45</ele><time>2019-08-15T12:30:55Z</time></trkpt><trkpt lat="42.7960916329" lon="-0.3153235093"><ele>1976.61</ele><time>2019-08-15T12:31:05Z</time></trkpt><trkpt lat="42.7960572671" lon="-0.3153901454"><ele>1973.24</ele><time>2019-08-15T12:31:07Z</time></trkpt><trkpt lat="42.7960058860" lon="-0.3154266905"><ele>1970.84</ele><time>2019-08-15T12:31:10Z</time></trkpt><trkpt lat="42.7959485538" lon="-0.3154003713"><ele>1967.48</ele><time>2019-08-15T12:31:14Z</time></trkpt><trkpt lat="42.7959131822" lon="-0.3154442925"><ele>1964.11</ele><time>2019-08-15T12:31:17Z</time></trkpt><trkpt lat="42.7959030401" lon="-0.3154455498"><ele>1963.15</ele><time>2019-08-15T12:31:18Z</time></trkpt><trkpt lat="42.7958963346" lon="-0.3155017924"><ele>1961.71</ele><time>2019-08-15T12:31:23Z</time></trkpt><trkpt lat="42.7958888747" lon="-0.3155221604"><ele>1960.27</ele><time>2019-08-15T12:31:26Z</time></trkpt><trkpt lat="42.7958702669" lon="-0.3155189753"><ele>1958.34</ele><time>2019-08-15T12:31:39Z</time></trkpt><trkpt lat="42.7958053071" lon="-0.3154974338"><ele>1956.90</ele><time>2019-08-15T12:31:52Z</time></trkpt><trkpt lat="42.7957956679" lon="-0.3155006189"><ele>1956.42</ele><time>2019-08-15T12:32:00Z</time></trkpt><trkpt lat="42.7957824245" lon="-0.3155065700"><ele>1956.42</ele><time>2019-08-15T12:32:02Z</time></trkpt><trkpt lat="42.7956896368" lon="-0.3155739605"><ele>1954.02</ele><time>2019-08-15T12:32:08Z</time></trkpt><trkpt lat="42.7956192289" lon="-0.3155861143"><ele>1951.13</ele><time>2019-08-15T12:32:11Z</time></trkpt><trkpt lat="42.7955764811" lon="-0.3156322986"><ele>1950.17</ele><time>2019-08-15T12:32:15Z</time></trkpt><trkpt lat="42.7956228331" lon="-0.3157733660"><ele>1946.33</ele><time>2019-08-15T12:32:22Z</time></trkpt><trkpt lat="42.7956251800" lon="-0.3158039600"><ele>1946.33</ele><time>2019-08-15T12:32:23Z</time></trkpt><trkpt lat="42.7956243418" lon="-0.3159409203"><ele>1944.40</ele><time>2019-08-15T12:32:34Z</time></trkpt><trkpt lat="42.7956223302" lon="-0.3159427643"><ele>1944.88</ele><time>2019-08-15T12:32:51Z</time></trkpt><trkpt lat="42.7956733759" lon="-0.3159316164"><ele>1943.92</ele><time>2019-08-15T12:32:57Z</time></trkpt><trkpt lat="42.7956494875" lon="-0.3160467837"><ele>1942.00</ele><time>2019-08-15T12:33:02Z</time></trkpt><trkpt lat="42.7956535947" lon="-0.3160924651"><ele>1940.56</ele><time>2019-08-15T12:33:14Z</time></trkpt><trkpt lat="42.7956457157" lon="-0.3161127493"><ele>1938.64</ele><time>2019-08-15T12:33:26Z</time></trkpt><trkpt lat="42.7956267726" lon="-0.3161627054"><ele>1937.67</ele><time>2019-08-15T12:33:33Z</time></trkpt><trkpt lat="42.7956073266" lon="-0.3162485361"><ele>1935.27</ele><time>2019-08-15T12:33:38Z</time></trkpt><trkpt lat="42.7955645788" lon="-0.3163456824"><ele>1932.87</ele><time>2019-08-15T12:33:43Z</time></trkpt><trkpt lat="42.7954806760" lon="-0.3164622746"><ele>1929.02</ele><time>2019-08-15T12:33:50Z</time></trkpt><trkpt lat="42.7954669297" lon="-0.3164809663"><ele>1929.02</ele><time>2019-08-15T12:33:55Z</time></trkpt><trkpt lat="42.7953903191" lon="-0.3165246360"><ele>1928.06</ele><time>2019-08-15T12:34:07Z</time></trkpt><trkpt lat="42.7953892294" lon="-0.3165158350"><ele>1928.54</ele><time>2019-08-15T12:34:23Z</time></trkpt><trkpt lat="42.7953686099" lon="-0.3165196907"><ele>1929.02</ele><time>2019-08-15T12:34:47Z</time></trkpt><trkpt lat="42.7953659277" lon="-0.3165170085"><ele>1928.06</ele><time>2019-08-15T12:35:07Z</time></trkpt><trkpt lat="42.7953692805" lon="-0.3165175952"><ele>1927.58</ele><time>2019-08-15T12:35:25Z</time></trkpt><trkpt lat="42.7953573782" lon="-0.3165243007"><ele>1927.10</ele><time>2019-08-15T12:35:34Z</time></trkpt><trkpt lat="42.7952433005" lon="-0.3167505283"><ele>1926.62</ele><time>2019-08-15T12:35:46Z</time></trkpt><trkpt lat="42.7950997185" lon="-0.3171433043"><ele>1924.70</ele><time>2019-08-15T12:36:01Z</time></trkpt><trkpt lat="42.7949356847" lon="-0.3172129579"><ele>1920.85</ele><time>2019-08-15T12:36:09Z</time></trkpt><trkpt lat="42.7949052583" lon="-0.3172053304"><ele>1920.85</ele><time>2019-08-15T12:36:10Z</time></trkpt><trkpt lat="42.7946268115" lon="-0.3171599004"><ele>1917.97</ele><time>2019-08-15T12:36:20Z</time></trkpt><trkpt lat="42.7942993306" lon="-0.3171707969"><ele>1915.56</ele><time>2019-08-15T12:36:32Z</time></trkpt><trkpt lat="42.7938810736" lon="-0.3170768358"><ele>1912.68</ele><time>2019-08-15T12:36:44Z</time></trkpt><trkpt lat="42.7937203087" lon="-0.3167368658"><ele>1910.28</ele><time>2019-08-15T12:36:55Z</time></trkpt><trkpt lat="42.7937149443" lon="-0.3167107143"><ele>1910.28</ele><time>2019-08-15T12:36:56Z</time></trkpt><trkpt lat="42.7936075721" lon="-0.3162450995"><ele>1908.35</ele><time>2019-08-15T12:37:11Z</time></trkpt><trkpt lat="42.7935178019" lon="-0.3158430196"><ele>1906.43</ele><time>2019-08-15T12:37:25Z</time></trkpt><trkpt lat="42.7934753895" lon="-0.3153571207"><ele>1904.51</ele><time>2019-08-15T12:37:37Z</time></trkpt><trkpt lat="42.7932826895" lon="-0.3148873989"><ele>1901.14</ele><time>2019-08-15T12:37:48Z</time></trkpt><trkpt lat="42.7932121977" lon="-0.3146349359"><ele>1898.74</ele><time>2019-08-15T12:37:54Z</time></trkpt><trkpt lat="42.7930594794" lon="-0.3142783698"><ele>1895.38</ele><time>2019-08-15T12:38:06Z</time></trkpt><trkpt lat="42.7930280473" lon="-0.3142101411"><ele>1894.42</ele><time>2019-08-15T12:38:08Z</time></trkpt><trkpt lat="42.7929288056" lon="-0.3139450215"><ele>1892.49</ele><time>2019-08-15T12:38:14Z</time></trkpt><trkpt lat="42.7928313240" lon="-0.3137045447"><ele>1890.57</ele><time>2019-08-15T12:38:18Z</time></trkpt><trkpt lat="42.7927436493" lon="-0.3136048838"><ele>1889.13</ele><time>2019-08-15T12:38:20Z</time></trkpt><trkpt lat="42.7924593352" lon="-0.3134374972"><ele>1886.72</ele><time>2019-08-15T12:38:25Z</time></trkpt><trkpt lat="42.7923402283" lon="-0.3133297898"><ele>1884.32</ele><time>2019-08-15T12:38:28Z</time></trkpt><trkpt lat="42.7922774479" lon="-0.3132259380"><ele>1883.84</ele><time>2019-08-15T12:38:30Z</time></trkpt><trkpt lat="42.7922073752" lon="-0.3130942583"><ele>1882.40</ele><time>2019-08-15T12:38:32Z</time></trkpt><trkpt lat="42.7921150066" lon="-0.3129029833"><ele>1880.48</ele><time>2019-08-15T12:38:35Z</time></trkpt><trkpt lat="42.7920547407" lon="-0.3127903305"><ele>1879.51</ele><time>2019-08-15T12:38:37Z</time></trkpt><trkpt lat="42.7919644676" lon="-0.3126518615"><ele>1878.07</ele><time>2019-08-15T12:38:40Z</time></trkpt><trkpt lat="42.7918264177" lon="-0.3125112131"><ele>1874.23</ele><time>2019-08-15T12:38:49Z</time></trkpt><trkpt lat="42.7917591110" lon="-0.3124617599"><ele>1871.34</ele><time>2019-08-15T12:38:52Z</time></trkpt><trkpt lat="42.7917108312" lon="-0.3124377038"><ele>1868.46</ele><time>2019-08-15T12:38:56Z</time></trkpt><trkpt lat="42.7916877810" lon="-0.3124405537"><ele>1867.02</ele><time>2019-08-15T12:39:06Z</time></trkpt><trkpt lat="42.7916862722" lon="-0.3124378715"><ele>1867.98</ele><time>2019-08-15T12:39:08Z</time></trkpt><trkpt lat="42.7916157804" lon="-0.3124575689"><ele>1865.58</ele><time>2019-08-15T12:39:13Z</time></trkpt><trkpt lat="42.7915569395" lon="-0.3124497738"><ele>1863.65</ele><time>2019-08-15T12:39:16Z</time></trkpt><trkpt lat="42.7914830949" lon="-0.3124702256"><ele>1860.77</ele><time>2019-08-15T12:39:21Z</time></trkpt><trkpt lat="42.7914143633" lon="-0.3125045076"><ele>1858.37</ele><time>2019-08-15T12:39:25Z</time></trkpt><trkpt lat="42.7913131937" lon="-0.3125552181"><ele>1855.96</ele><time>2019-08-15T12:39:29Z</time></trkpt><trkpt lat="42.7912276145" lon="-0.3126126342"><ele>1854.04</ele><time>2019-08-15T12:39:33Z</time></trkpt><trkpt lat="42.7912192326" lon="-0.3126295656"><ele>1852.60</ele><time>2019-08-15T12:39:34Z</time></trkpt><trkpt lat="42.7911060769" lon="-0.3126575612"><ele>1849.71</ele><time>2019-08-15T12:39:40Z</time></trkpt><trkpt lat="42.7910817694" lon="-0.3126746602"><ele>1848.27</ele><time>2019-08-15T12:39:42Z</time></trkpt><trkpt lat="42.7910552826" lon="-0.3126988001"><ele>1846.83</ele><time>2019-08-15T12:39:45Z</time></trkpt><trkpt lat="42.7910059970" lon="-0.3128067590"><ele>1842.98</ele><time>2019-08-15T12:39:52Z</time></trkpt><trkpt lat="42.7909595612" lon="-0.3129334096"><ele>1839.62</ele><time>2019-08-15T12:39:57Z</time></trkpt><trkpt lat="42.7909603156" lon="-0.3130230960"><ele>1837.22</ele><time>2019-08-15T12:40:00Z</time></trkpt><trkpt lat="42.7909080125" lon="-0.3131525964"><ele>1833.85</ele><time>2019-08-15T12:40:04Z</time></trkpt><trkpt lat="42.7908570506" lon="-0.3132268600"><ele>1831.45</ele><time>2019-08-15T12:40:08Z</time></trkpt><trkpt lat="42.7908824477" lon="-0.3132442106"><ele>1830.97</ele><time>2019-08-15T12:40:18Z</time></trkpt><trkpt lat="42.7908789273" lon="-0.3132195678"><ele>1830.49</ele><time>2019-08-15T12:40:38Z</time></trkpt><trkpt lat="42.7908733953" lon="-0.3132499941"><ele>1830.01</ele><time>2019-08-15T12:40:41Z</time></trkpt><trkpt lat="42.7908037417" lon="-0.3134011198"><ele>1828.08</ele><time>2019-08-15T12:40:47Z</time></trkpt><trkpt lat="42.7907713037" lon="-0.3135955799"><ele>1823.76</ele><time>2019-08-15T12:40:52Z</time></trkpt><trkpt lat="42.7907733154" lon="-0.3136471286"><ele>1821.84</ele><time>2019-08-15T12:40:53Z</time></trkpt><trkpt lat="42.7909009717" lon="-0.3137965780"><ele>1819.91</ele><time>2019-08-15T12:40:57Z</time></trkpt><trkpt lat="42.7910351660" lon="-0.3138993401"><ele>1818.95</ele><time>2019-08-15T12:41:01Z</time></trkpt><trkpt lat="42.7911155485" lon="-0.3140351269"><ele>1818.47</ele><time>2019-08-15T12:41:04Z</time></trkpt><trkpt lat="42.7911204938" lon="-0.3142051958"><ele>1817.99</ele><time>2019-08-15T12:41:08Z</time></trkpt><trkpt lat="42.7910996228" lon="-0.3142966423"><ele>1817.99</ele><time>2019-08-15T12:41:10Z</time></trkpt><trkpt lat="42.7910593897" lon="-0.3147107922"><ele>1818.95</ele><time>2019-08-15T12:41:19Z</time></trkpt><trkpt lat="42.7910442185" lon="-0.3149674460"><ele>1817.03</ele><time>2019-08-15T12:41:25Z</time></trkpt><trkpt lat="42.7910326514" lon="-0.3149682842"><ele>1816.07</ele><time>2019-08-15T12:41:34Z</time></trkpt><trkpt lat="42.7910346631" lon="-0.3149588965"><ele>1816.07</ele><time>2019-08-15T12:41:59Z</time></trkpt><trkpt lat="42.7910345793" lon="-0.3149591479"><ele>1816.55</ele><time>2019-08-15T12:42:17Z</time></trkpt><trkpt lat="42.7910352498" lon="-0.3149588127"><ele>1816.07</ele><time>2019-08-15T12:42:21Z</time></trkpt><trkpt lat="42.7910405304" lon="-0.3150080983"><ele>1816.07</ele><time>2019-08-15T12:42:24Z</time></trkpt><trkpt lat="42.7910357527" lon="-0.3150965273"><ele>1815.11</ele><time>2019-08-15T12:42:26Z</time></trkpt><trkpt lat="42.7909640037" lon="-0.3152708709"><ele>1812.70</ele><time>2019-08-15T12:42:30Z</time></trkpt><trkpt lat="42.7908230200" lon="-0.3154873755"><ele>1807.42</ele><time>2019-08-15T12:42:35Z</time></trkpt><trkpt lat="42.7907203417" lon="-0.3155760560"><ele>1805.49</ele><time>2019-08-15T12:42:40Z</time></trkpt><trkpt lat="42.7905846387" lon="-0.3155908082"><ele>1801.65</ele><time>2019-08-15T12:42:45Z</time></trkpt><trkpt lat="42.7904237062" lon="-0.3155818395"><ele>1797.32</ele><time>2019-08-15T12:42:49Z</time></trkpt><trkpt lat="42.7903004084" lon="-0.3156442847"><ele>1793.00</ele><time>2019-08-15T12:42:53Z</time></trkpt><trkpt lat="42.7902164217" lon="-0.3157965001"><ele>1792.03</ele><time>2019-08-15T12:42:55Z</time></trkpt><trkpt lat="42.7902356163" lon="-0.3161580116"><ele>1789.15</ele><time>2019-08-15T12:43:06Z</time></trkpt><trkpt lat="42.7903270628" lon="-0.3163751867"><ele>1786.27</ele><time>2019-08-15T12:43:13Z</time></trkpt><trkpt lat="42.7903722413" lon="-0.3163953032"><ele>1785.31</ele><time>2019-08-15T12:43:14Z</time></trkpt><trkpt lat="42.7905486804" lon="-0.3164685611"><ele>1782.90</ele><time>2019-08-15T12:43:17Z</time></trkpt><trkpt lat="42.7907898277" lon="-0.3167136479"><ele>1779.06</ele><time>2019-08-15T12:43:23Z</time></trkpt><trkpt lat="42.7908947691" lon="-0.3168055136"><ele>1776.17</ele><time>2019-08-15T12:43:33Z</time></trkpt><trkpt lat="42.7908951044" lon="-0.3168244567"><ele>1775.69</ele><time>2019-08-15T12:43:54Z</time></trkpt><trkpt lat="42.7909113653" lon="-0.3168320004"><ele>1775.69</ele><time>2019-08-15T12:44:20Z</time></trkpt><trkpt lat="42.7909148857" lon="-0.3168330900"><ele>1775.69</ele><time>2019-08-15T12:44:27Z</time></trkpt><trkpt lat="42.7909293864" lon="-0.3168951161"><ele>1775.69</ele><time>2019-08-15T12:44:30Z</time></trkpt><trkpt lat="42.7910820208" lon="-0.3170891572"><ele>1773.77</ele><time>2019-08-15T12:44:37Z</time></trkpt><trkpt lat="42.7911323961" lon="-0.3171116207"><ele>1773.29</ele><time>2019-08-15T12:44:39Z</time></trkpt><trkpt lat="42.7912046481" lon="-0.3172018938"><ele>1770.41</ele><time>2019-08-15T12:44:44Z</time></trkpt><trkpt lat="42.7913896367" lon="-0.3172957711"><ele>1766.08</ele><time>2019-08-15T12:44:49Z</time></trkpt><trkpt lat="42.7913972642" lon="-0.3174284566"><ele>1763.68</ele><time>2019-08-15T12:44:54Z</time></trkpt><trkpt lat="42.7913682628" lon="-0.3175358288"><ele>1759.83</ele><time>2019-08-15T12:44:57Z</time></trkpt><trkpt lat="42.7913425304" lon="-0.3175905626"><ele>1756.47</ele><time>2019-08-15T12:44:59Z</time></trkpt><trkpt lat="42.7913272753" lon="-0.3176159598"><ele>1757.43</ele><time>2019-08-15T12:45:00Z</time></trkpt><trkpt lat="42.7913193125" lon="-0.3177662473"><ele>1755.02</ele><time>2019-08-15T12:45:05Z</time></trkpt><trkpt lat="42.7913670894" lon="-0.3179646470"><ele>1752.14</ele><time>2019-08-15T12:45:10Z</time></trkpt><trkpt lat="42.7913796622" lon="-0.3181909584"><ele>1748.29</ele><time>2019-08-15T12:45:15Z</time></trkpt><trkpt lat="42.7913899720" lon="-0.3182410821"><ele>1748.29</ele><time>2019-08-15T12:45:16Z</time></trkpt><trkpt lat="42.7913934086" lon="-0.3182890266"><ele>1747.33</ele><time>2019-08-15T12:45:17Z</time></trkpt><trkpt lat="42.7914610505" lon="-0.3185056988"><ele>1743.97</ele><time>2019-08-15T12:45:23Z</time></trkpt><trkpt lat="42.7915086597" lon="-0.3186439164"><ele>1740.12</ele><time>2019-08-15T12:45:28Z</time></trkpt><trkpt lat="42.7915213164" lon="-0.3188216966"><ele>1737.24</ele><time>2019-08-15T12:45:32Z</time></trkpt><trkpt lat="42.7914684266" lon="-0.3189972136"><ele>1732.91</ele><time>2019-08-15T12:45:36Z</time></trkpt><trkpt lat="42.7914382517" lon="-0.3190966230"><ele>1729.55</ele><time>2019-08-15T12:45:39Z</time></trkpt><trkpt lat="42.7913642395" lon="-0.3192033246"><ele>1725.70</ele><time>2019-08-15T12:45:43Z</time></trkpt><trkpt lat="42.7913111821" lon="-0.3192242794"><ele>1722.82</ele><time>2019-08-15T12:45:45Z</time></trkpt><trkpt lat="42.7912907302" lon="-0.3192412946"><ele>1722.82</ele><time>2019-08-15T12:45:46Z</time></trkpt><trkpt lat="42.7913011238" lon="-0.3193334956"><ele>1719.46</ele><time>2019-08-15T12:45:50Z</time></trkpt><trkpt lat="42.7913059853" lon="-0.3193541151"><ele>1719.46</ele><time>2019-08-15T12:45:51Z</time></trkpt><trkpt lat="42.7912937477" lon="-0.3193619940"><ele>1718.01</ele><time>2019-08-15T12:45:53Z</time></trkpt><trkpt lat="42.7912778221" lon="-0.3193561267"><ele>1717.53</ele><time>2019-08-15T12:45:55Z</time></trkpt><trkpt lat="42.7912340686" lon="-0.3194247745"><ele>1715.61</ele><time>2019-08-15T12:46:00Z</time></trkpt><trkpt lat="42.7911984455" lon="-0.3195086773"><ele>1714.17</ele><time>2019-08-15T12:46:03Z</time></trkpt><trkpt lat="42.7911691088" lon="-0.3196198214"><ele>1712.25</ele><time>2019-08-15T12:46:06Z</time></trkpt><trkpt lat="42.7910817694" lon="-0.3197267745"><ele>1707.44</ele><time>2019-08-15T12:46:09Z</time></trkpt><trkpt lat="42.7909414563" lon="-0.3197463881"><ele>1704.55</ele><time>2019-08-15T12:46:13Z</time></trkpt><trkpt lat="42.7908938471" lon="-0.3198275249"><ele>1702.63</ele><time>2019-08-15T12:46:16Z</time></trkpt><trkpt lat="42.7908464056" lon="-0.3198732063"><ele>1701.19</ele><time>2019-08-15T12:46:18Z</time></trkpt><trkpt lat="42.7907749079" lon="-0.3199341428"><ele>1698.31</ele><time>2019-08-15T12:46:20Z</time></trkpt><trkpt lat="42.7906962857" lon="-0.3199979290"><ele>1696.86</ele><time>2019-08-15T12:46:22Z</time></trkpt><trkpt lat="42.7905495185" lon="-0.3200812452"><ele>1693.50</ele><time>2019-08-15T12:46:25Z</time></trkpt><trkpt lat="42.7904888336" lon="-0.3200996015"><ele>1692.06</ele><time>2019-08-15T12:46:26Z</time></trkpt><trkpt lat="42.7902253065" lon="-0.3201675788"><ele>1687.73</ele><time>2019-08-15T12:46:30Z</time></trkpt><trkpt lat="42.7901212871" lon="-0.3202071413"><ele>1684.85</ele><time>2019-08-15T12:46:33Z</time></trkpt><trkpt lat="42.7900378034" lon="-0.3203104064"><ele>1681.48</ele><time>2019-08-15T12:46:36Z</time></trkpt><trkpt lat="42.7899596840" lon="-0.3204254061"><ele>1679.08</ele><time>2019-08-15T12:46:39Z</time></trkpt><trkpt lat="42.7899192832" lon="-0.3206439223"><ele>1675.23</ele><time>2019-08-15T12:46:44Z</time></trkpt><trkpt lat="42.7898763679" lon="-0.3207604308"><ele>1673.31</ele><time>2019-08-15T12:46:50Z</time></trkpt><trkpt lat="42.7898817323" lon="-0.3207503725"><ele>1672.83</ele><time>2019-08-15T12:46:53Z</time></trkpt><trkpt lat="42.7897650562" lon="-0.3208339401"><ele>1672.35</ele><time>2019-08-15T12:47:02Z</time></trkpt><trkpt lat="42.7895811573" lon="-0.3208906855"><ele>1669.95</ele><time>2019-08-15T12:47:09Z</time></trkpt><trkpt lat="42.7893978450" lon="-0.3209759295"><ele>1668.51</ele><time>2019-08-15T12:47:18Z</time></trkpt><trkpt lat="42.7893463802" lon="-0.3211316653"><ele>1667.06</ele><time>2019-08-15T12:47:23Z</time></trkpt><trkpt lat="42.7894243319" lon="-0.3212813661"><ele>1664.66</ele><time>2019-08-15T12:47:27Z</time></trkpt><trkpt lat="42.7895089891" lon="-0.3213236947"><ele>1661.78</ele><time>2019-08-15T12:47:30Z</time></trkpt><trkpt lat="42.7896092366" lon="-0.3214096930"><ele>1658.41</ele><time>2019-08-15T12:47:35Z</time></trkpt><trkpt lat="42.7896828298" lon="-0.3214587271"><ele>1656.97</ele><time>2019-08-15T12:47:38Z</time></trkpt><trkpt lat="42.7897210512" lon="-0.3216226771"><ele>1654.57</ele><time>2019-08-15T12:47:43Z</time></trkpt><trkpt lat="42.7896860149" lon="-0.3217060771"><ele>1652.64</ele><time>2019-08-15T12:47:45Z</time></trkpt><trkpt lat="42.7895331290" lon="-0.3218149580"><ele>1649.28</ele><time>2019-08-15T12:47:49Z</time></trkpt><trkpt lat="42.7894616313" lon="-0.3220099211"><ele>1645.91</ele><time>2019-08-15T12:47:54Z</time></trkpt><trkpt lat="42.7894875314" lon="-0.3220771439"><ele>1644.47</ele><time>2019-08-15T12:47:56Z</time></trkpt><trkpt lat="42.7894591168" lon="-0.3222191334"><ele>1641.59</ele><time>2019-08-15T12:47:59Z</time></trkpt><trkpt lat="42.7894264273" lon="-0.3222664073"><ele>1641.59</ele><time>2019-08-15T12:48:00Z</time></trkpt><trkpt lat="42.7893548459" lon="-0.3223468736"><ele>1637.74</ele><time>2019-08-15T12:48:02Z</time></trkpt><trkpt lat="42.7892924007" lon="-0.3223864362"><ele>1636.78</ele><time>2019-08-15T12:48:04Z</time></trkpt><trkpt lat="42.7891815919" lon="-0.3225073870"><ele>1633.90</ele><time>2019-08-15T12:48:07Z</time></trkpt><trkpt lat="42.7890643291" lon="-0.3226666432"><ele>1628.61</ele><time>2019-08-15T12:48:11Z</time></trkpt><trkpt lat="42.7891117707" lon="-0.3227637056"><ele>1625.73</ele><time>2019-08-15T12:48:15Z</time></trkpt><trkpt lat="42.7891461365" lon="-0.3228010051"><ele>1624.28</ele><time>2019-08-15T12:48:17Z</time></trkpt><trkpt lat="42.7891048975" lon="-0.3228600137"><ele>1621.40</ele><time>2019-08-15T12:48:20Z</time></trkpt><trkpt lat="42.7889339905" lon="-0.3229885083"><ele>1617.07</ele><time>2019-08-15T12:48:24Z</time></trkpt><trkpt lat="42.7888413705" lon="-0.3230652865"><ele>1614.19</ele><time>2019-08-15T12:48:26Z</time></trkpt><trkpt lat="42.7887872234" lon="-0.3231091239"><ele>1612.27</ele><time>2019-08-15T12:48:27Z</time></trkpt><trkpt lat="42.7886123769" lon="-0.3231770173"><ele>1608.42</ele><time>2019-08-15T12:48:30Z</time></trkpt><trkpt lat="42.7883889992" lon="-0.3232346009"><ele>1604.10</ele><time>2019-08-15T12:48:34Z</time></trkpt><trkpt lat="42.7882253844" lon="-0.3233256284"><ele>1599.77</ele><time>2019-08-15T12:48:37Z</time></trkpt><trkpt lat="42.7880891785" lon="-0.3234207630"><ele>1593.52</ele><time>2019-08-15T12:48:41Z</time></trkpt><trkpt lat="42.7879614383" lon="-0.3234479204"><ele>1589.20</ele><time>2019-08-15T12:48:45Z</time></trkpt><trkpt lat="42.7879397292" lon="-0.3234473336"><ele>1588.24</ele><time>2019-08-15T12:48:46Z</time></trkpt><trkpt lat="42.7879062854" lon="-0.3234289773"><ele>1586.79</ele><time>2019-08-15T12:48:53Z</time></trkpt><trkpt lat="42.7878982387" lon="-0.3233651910"><ele>1588.24</ele><time>2019-08-15T12:49:00Z</time></trkpt><trkpt lat="42.7878364641" lon="-0.3234191705"><ele>1586.31</ele><time>2019-08-15T12:49:04Z</time></trkpt><trkpt lat="42.7877983265" lon="-0.3234206792"><ele>1584.87</ele><time>2019-08-15T12:49:06Z</time></trkpt><trkpt lat="42.7877539862" lon="-0.3234051727"><ele>1583.43</ele><time>2019-08-15T12:49:08Z</time></trkpt><trkpt lat="42.7877335344" lon="-0.3234681208"><ele>1582.47</ele><time>2019-08-15T12:49:18Z</time></trkpt><trkpt lat="42.7877286728" lon="-0.3234565537"><ele>1581.99</ele><time>2019-08-15T12:49:35Z</time></trkpt><trkpt lat="42.7877344564" lon="-0.3234469984"><ele>1581.99</ele><time>2019-08-15T12:49:49Z</time></trkpt><trkpt lat="42.7877570037" lon="-0.3234309889"><ele>1581.51</ele><time>2019-08-15T12:50:21Z</time></trkpt><trkpt lat="42.7877406590" lon="-0.3233949468"><ele>1581.51</ele><time>2019-08-15T12:50:32Z</time></trkpt><trkpt lat="42.7877562493" lon="-0.3234004788"><ele>1581.51</ele><time>2019-08-15T12:50:47Z</time></trkpt><trkpt lat="42.7877569199" lon="-0.3234170750"><ele>1581.51</ele><time>2019-08-15T12:50:56Z</time></trkpt><trkpt lat="42.7877544891" lon="-0.3233915102"><ele>1581.51</ele><time>2019-08-15T12:51:15Z</time></trkpt><trkpt lat="42.7877603564" lon="-0.3233940247"><ele>1581.99</ele><time>2019-08-15T12:51:28Z</time></trkpt><trkpt lat="42.7877587639" lon="-0.3234067652"><ele>1581.51</ele><time>2019-08-15T12:51:40Z</time></trkpt><trkpt lat="42.7877559140" lon="-0.3234188352"><ele>1581.03</ele><time>2019-08-15T12:51:55Z</time></trkpt><trkpt lat="42.7877597697" lon="-0.3234262113"><ele>1581.03</ele><time>2019-08-15T12:52:23Z</time></trkpt><trkpt lat="42.7877530642" lon="-0.3234288935"><ele>1581.03</ele><time>2019-08-15T12:52:33Z</time></trkpt><trkpt lat="42.7877489571" lon="-0.3234237805"><ele>1580.54</ele><time>2019-08-15T12:52:38Z</time></trkpt><trkpt lat="42.7875903714" lon="-0.3233839665"><ele>1577.66</ele><time>2019-08-15T12:52:45Z</time></trkpt><trkpt lat="42.7874458674" lon="-0.3233739082"><ele>1572.37</ele><time>2019-08-15T12:52:49Z</time></trkpt><trkpt lat="42.7873825841" lon="-0.3233760037"><ele>1570.93</ele><time>2019-08-15T12:52:51Z</time></trkpt><trkpt lat="42.7872227412" lon="-0.3232792765"><ele>1565.64</ele><time>2019-08-15T12:52:55Z</time></trkpt><trkpt lat="42.7871272713" lon="-0.3232409712"><ele>1562.76</ele><time>2019-08-15T12:52:57Z</time></trkpt><trkpt lat="42.7869839408" lon="-0.3231518716"><ele>1557.95</ele><time>2019-08-15T12:53:01Z</time></trkpt><trkpt lat="42.7869122755" lon="-0.3231497761"><ele>1555.55</ele><time>2019-08-15T12:53:04Z</time></trkpt><trkpt lat="42.7868365869" lon="-0.3232692182"><ele>1554.59</ele><time>2019-08-15T12:53:10Z</time></trkpt><trkpt lat="42.7867580485" lon="-0.3235152271"><ele>1550.26</ele><time>2019-08-15T12:53:16Z</time></trkpt><trkpt lat="42.7866645064" lon="-0.3234583139"><ele>1548.34</ele><time>2019-08-15T12:53:20Z</time></trkpt><trkpt lat="42.7865948528" lon="-0.3232623450"><ele>1545.46</ele><time>2019-08-15T12:53:24Z</time></trkpt><trkpt lat="42.7865237743" lon="-0.3233321663"><ele>1543.05</ele><time>2019-08-15T12:53:27Z</time></trkpt><trkpt lat="42.7864775062" lon="-0.3234685399"><ele>1540.17</ele><time>2019-08-15T12:53:29Z</time></trkpt><trkpt lat="42.7864377759" lon="-0.3236466553"><ele>1535.84</ele><time>2019-08-15T12:53:34Z</time></trkpt><trkpt lat="42.7864358481" lon="-0.3236506786"><ele>1535.36</ele><time>2019-08-15T12:53:35Z</time></trkpt><trkpt lat="42.7864142228" lon="-0.3236089367"><ele>1534.40</ele><time>2019-08-15T12:53:38Z</time></trkpt><trkpt lat="42.7862769272" lon="-0.3234705515"><ele>1530.08</ele><time>2019-08-15T12:53:43Z</time></trkpt><trkpt lat="42.7861075290" lon="-0.3231143206"><ele>1525.75</ele><time>2019-08-15T12:53:48Z</time></trkpt><trkpt lat="42.7859346103" lon="-0.3228128236"><ele>1522.39</ele><time>2019-08-15T12:53:52Z</time></trkpt><trkpt lat="42.7858265676" lon="-0.3227088042"><ele>1520.46</ele><time>2019-08-15T12:53:56Z</time></trkpt><trkpt lat="42.7858220413" lon="-0.3227334470"><ele>1519.50</ele><time>2019-08-15T12:53:58Z</time></trkpt><trkpt lat="42.7858434990" lon="-0.3227827325"><ele>1519.50</ele><time>2019-08-15T12:54:08Z</time></trkpt><trkpt lat="42.7858442534" lon="-0.3227860015"><ele>1519.50</ele><time>2019-08-15T12:54:10Z</time></trkpt><trkpt lat="42.7858391404" lon="-0.3229284100"><ele>1518.54</ele><time>2019-08-15T12:54:16Z</time></trkpt><trkpt lat="42.7857741807" lon="-0.3233387042"><ele>1516.62</ele><time>2019-08-15T12:54:29Z</time></trkpt><trkpt lat="42.7858985681" lon="-0.3237067536"><ele>1513.25</ele><time>2019-08-15T12:54:40Z</time></trkpt><trkpt lat="42.7857844904" lon="-0.3237605654"><ele>1512.29</ele><time>2019-08-15T12:54:51Z</time></trkpt><trkpt lat="42.7857861668" lon="-0.3237572126"><ele>1511.81</ele><time>2019-08-15T12:54:52Z</time></trkpt><trkpt lat="42.7857658826" lon="-0.3237084299"><ele>1511.81</ele><time>2019-08-15T12:54:56Z</time></trkpt><trkpt lat="42.7856818959" lon="-0.3237700369"><ele>1509.41</ele><time>2019-08-15T12:55:02Z</time></trkpt><trkpt lat="42.7855716739" lon="-0.3237650078"><ele>1507.00</ele><time>2019-08-15T12:55:07Z</time></trkpt><trkpt lat="42.7853070572" lon="-0.3237492498"><ele>1505.08</ele><time>2019-08-15T12:55:17Z</time></trkpt><trkpt lat="42.7852923889" lon="-0.3237694502"><ele>1504.60</ele><time>2019-08-15T12:55:18Z</time></trkpt><trkpt lat="42.7851560153" lon="-0.3238018043"><ele>1503.64</ele><time>2019-08-15T12:55:23Z</time></trkpt><trkpt lat="42.7849094197" lon="-0.3237414546"><ele>1500.76</ele><time>2019-08-15T12:55:29Z</time></trkpt><trkpt lat="42.7848694380" lon="-0.3237309773"><ele>1498.83</ele><time>2019-08-15T12:55:31Z</time></trkpt><trkpt lat="42.7848022990" lon="-0.3237940930"><ele>1497.87</ele><time>2019-08-15T12:55:37Z</time></trkpt><trkpt lat="42.7847991139" lon="-0.3239207435"><ele>1495.95</ele><time>2019-08-15T12:55:42Z</time></trkpt><trkpt lat="42.7847976051" lon="-0.3239459731"><ele>1495.47</ele><time>2019-08-15T12:55:43Z</time></trkpt><trkpt lat="42.7847292088" lon="-0.3240422811"><ele>1495.95</ele><time>2019-08-15T12:55:49Z</time></trkpt><trkpt lat="42.7847400215" lon="-0.3240779880"><ele>1495.95</ele><time>2019-08-15T12:55:52Z</time></trkpt><trkpt lat="42.7847325616" lon="-0.3238764033"><ele>1494.99</ele><time>2019-08-15T12:56:03Z</time></trkpt><trkpt lat="42.7846551128" lon="-0.3235990461"><ele>1493.06</ele><time>2019-08-15T12:56:12Z</time></trkpt><trkpt lat="42.7846460603" lon="-0.3235381935"><ele>1492.58</ele><time>2019-08-15T12:56:15Z</time></trkpt><trkpt lat="42.7845890634" lon="-0.3235380258"><ele>1491.62</ele><time>2019-08-15T12:56:19Z</time></trkpt><trkpt lat="42.7845082618" lon="-0.3235707153"><ele>1488.26</ele><time>2019-08-15T12:56:24Z</time></trkpt><trkpt lat="42.7844418772" lon="-0.3236675262"><ele>1486.34</ele><time>2019-08-15T12:56:28Z</time></trkpt><trkpt lat="42.7840689663" lon="-0.3236646764"><ele>1482.01</ele><time>2019-08-15T12:56:39Z</time></trkpt><trkpt lat="42.7839837223" lon="-0.3236992937"><ele>1479.61</ele><time>2019-08-15T12:56:41Z</time></trkpt><trkpt lat="42.7838455886" lon="-0.3236987069"><ele>1476.72</ele><time>2019-08-15T12:56:44Z</time></trkpt><trkpt lat="42.7838763501" lon="-0.3235403728"><ele>1473.36</ele><time>2019-08-15T12:56:50Z</time></trkpt><trkpt lat="42.7838920243" lon="-0.3233688790"><ele>1469.99</ele><time>2019-08-15T12:56:54Z</time></trkpt><trkpt lat="42.7838766016" lon="-0.3233151510"><ele>1470.47</ele><time>2019-08-15T12:56:55Z</time></trkpt><trkpt lat="42.7838382963" lon="-0.3232382890"><ele>1469.03</ele><time>2019-08-15T12:56:58Z</time></trkpt><trkpt lat="42.7838320937" lon="-0.3232020792"><ele>1468.07</ele><time>2019-08-15T12:57:11Z</time></trkpt><trkpt lat="42.7838282380" lon="-0.3231631871"><ele>1468.07</ele><time>2019-08-15T12:57:13Z</time></trkpt><trkpt lat="42.7837941237" lon="-0.3230295796"><ele>1465.19</ele><time>2019-08-15T12:57:18Z</time></trkpt><trkpt lat="42.7837510407" lon="-0.3228931222"><ele>1463.26</ele><time>2019-08-15T12:57:23Z</time></trkpt><trkpt lat="42.7837395575" lon="-0.3228512127"><ele>1462.78</ele><time>2019-08-15T12:57:25Z</time></trkpt><trkpt lat="42.7837215364" lon="-0.3228001669"><ele>1461.34</ele><time>2019-08-15T12:57:30Z</time></trkpt><trkpt lat="42.7837024257" lon="-0.3227560781"><ele>1460.38</ele><time>2019-08-15T12:57:35Z</time></trkpt><trkpt lat="42.7836000826" lon="-0.3226684872"><ele>1457.02</ele><time>2019-08-15T12:57:40Z</time></trkpt><trkpt lat="42.7835773677" lon="-0.3226416651"><ele>1457.02</ele><time>2019-08-15T12:57:41Z</time></trkpt><trkpt lat="42.7834305167" lon="-0.3224395774"><ele>1453.65</ele><time>2019-08-15T12:57:46Z</time></trkpt><trkpt lat="42.7833991684" lon="-0.3223653138"><ele>1453.17</ele><time>2019-08-15T12:57:48Z</time></trkpt><trkpt lat="42.7832907066" lon="-0.3222688381"><ele>1450.29</ele><time>2019-08-15T12:57:54Z</time></trkpt><trkpt lat="42.7832661476" lon="-0.3222555108"><ele>1450.29</ele><time>2019-08-15T12:57:55Z</time></trkpt><trkpt lat="42.7831374854" lon="-0.3221167065"><ele>1447.88</ele><time>2019-08-15T12:58:02Z</time></trkpt><trkpt lat="42.7830198035" lon="-0.3219796624"><ele>1445.00</ele><time>2019-08-15T12:58:06Z</time></trkpt><trkpt lat="42.7829688415" lon="-0.3219540138"><ele>1443.56</ele><time>2019-08-15T12:58:08Z</time></trkpt><trkpt lat="42.7829242498" lon="-0.3219359927"><ele>1443.08</ele><time>2019-08-15T12:58:10Z</time></trkpt><trkpt lat="42.7828477230" lon="-0.3219156247"><ele>1441.63</ele><time>2019-08-15T12:58:13Z</time></trkpt><trkpt lat="42.7827480622" lon="-0.3218700271"><ele>1438.75</ele><time>2019-08-15T12:58:21Z</time></trkpt><trkpt lat="42.7827135287" lon="-0.3218147904"><ele>1437.79</ele><time>2019-08-15T12:58:24Z</time></trkpt><trkpt lat="42.7826483175" lon="-0.3216339927"><ele>1433.94</ele><time>2019-08-15T12:58:30Z</time></trkpt><trkpt lat="42.7826349903" lon="-0.3216047399"><ele>1434.42</ele><time>2019-08-15T12:58:31Z</time></trkpt><trkpt lat="42.7825586312" lon="-0.3214855492"><ele>1432.02</ele><time>2019-08-15T12:58:36Z</time></trkpt><trkpt lat="42.7824687771" lon="-0.3212558851"><ele>1429.14</ele><time>2019-08-15T12:58:42Z</time></trkpt><trkpt lat="42.7823266201" lon="-0.3209100477"><ele>1426.25</ele><time>2019-08-15T12:58:53Z</time></trkpt><trkpt lat="42.7822925057" lon="-0.3208959661"><ele>1426.73</ele><time>2019-08-15T12:58:55Z</time></trkpt><trkpt lat="42.7822032385" lon="-0.3209262248"><ele>1425.29</ele><time>2019-08-15T12:58:59Z</time></trkpt><trkpt lat="42.7820647694" lon="-0.3209214471"><ele>1425.29</ele><time>2019-08-15T12:59:02Z</time></trkpt><trkpt lat="42.7819057647" lon="-0.3209384624"><ele>1422.41</ele><time>2019-08-15T12:59:05Z</time></trkpt><trkpt lat="42.7817927767" lon="-0.3209532145"><ele>1421.45</ele><time>2019-08-15T12:59:07Z</time></trkpt><trkpt lat="42.7816743404" lon="-0.3209502809"><ele>1420.00</ele><time>2019-08-15T12:59:09Z</time></trkpt><trkpt lat="42.7813168522" lon="-0.3210972156"><ele>1416.16</ele><time>2019-08-15T12:59:16Z</time></trkpt><trkpt lat="42.7811013535" lon="-0.3211640194"><ele>1413.76</ele><time>2019-08-15T12:59:20Z</time></trkpt><trkpt lat="42.7809856832" lon="-0.3211723175"><ele>1411.83</ele><time>2019-08-15T12:59:22Z</time></trkpt><trkpt lat="42.7806753013" lon="-0.3211749159"><ele>1407.99</ele><time>2019-08-15T12:59:27Z</time></trkpt><trkpt lat="42.7804672625" lon="-0.3210743330"><ele>1404.14</ele><time>2019-08-15T12:59:30Z</time></trkpt><trkpt lat="42.7801629156" lon="-0.3211702220"><ele>1401.74</ele><time>2019-08-15T12:59:35Z</time></trkpt><trkpt lat="42.7798172459" lon="-0.3213315737"><ele>1396.45</ele><time>2019-08-15T12:59:41Z</time></trkpt><trkpt lat="42.7795340214" lon="-0.3213966172"><ele>1394.53</ele><time>2019-08-15T12:59:45Z</time></trkpt><trkpt lat="42.7793524694" lon="-0.3214439750"><ele>1392.61</ele><time>2019-08-15T12:59:48Z</time></trkpt><trkpt lat="42.7791670617" lon="-0.3214533627"><ele>1389.24</ele><time>2019-08-15T12:59:53Z</time></trkpt><trkpt lat="42.7789857611" lon="-0.3214498423"><ele>1387.80</ele><time>2019-08-15T12:59:59Z</time></trkpt><trkpt lat="42.7788985055" lon="-0.3214501776"><ele>1387.32</ele><time>2019-08-15T13:00:01Z</time></trkpt><trkpt lat="42.7786926460" lon="-0.3215723019"><ele>1385.88</ele><time>2019-08-15T13:00:10Z</time></trkpt><trkpt lat="42.7787747886" lon="-0.3216363396"><ele>1384.92</ele><time>2019-08-15T13:00:15Z</time></trkpt><trkpt lat="42.7790806442" lon="-0.3216131218"><ele>1381.55</ele><time>2019-08-15T13:00:26Z</time></trkpt><trkpt lat="42.7791267447" lon="-0.3216292989"><ele>1381.55</ele><time>2019-08-15T13:00:27Z</time></trkpt><trkpt lat="42.7794037666" lon="-0.3217285406"><ele>1379.63</ele><time>2019-08-15T13:00:32Z</time></trkpt><trkpt lat="42.7797252964" lon="-0.3217237629"><ele>1378.19</ele><time>2019-08-15T13:00:37Z</time></trkpt><trkpt lat="42.7799873985" lon="-0.3218888864"><ele>1376.75</ele><time>2019-08-15T13:00:42Z</time></trkpt><trkpt lat="42.7801640891" lon="-0.3221324645"><ele>1375.30</ele><time>2019-08-15T13:00:46Z</time></trkpt><trkpt lat="42.7803360857" lon="-0.3225004300"><ele>1371.94</ele><time>2019-08-15T13:00:52Z</time></trkpt><trkpt lat="42.7802966069" lon="-0.3226144239"><ele>1370.50</ele><time>2019-08-15T13:00:54Z</time></trkpt><trkpt lat="42.7801815234" lon="-0.3227418289"><ele>1368.09</ele><time>2019-08-15T13:00:58Z</time></trkpt><trkpt lat="42.7801128756" lon="-0.3227221314"><ele>1367.13</ele><time>2019-08-15T13:01:07Z</time></trkpt><trkpt lat="42.7801292203" lon="-0.3227381408"><ele>1367.61</ele><time>2019-08-15T13:01:10Z</time></trkpt><trkpt lat="42.7801349200" lon="-0.3227671422"><ele>1367.13</ele><time>2019-08-15T13:01:16Z</time></trkpt><trkpt lat="42.7801241074" lon="-0.3227462713"><ele>1367.61</ele><time>2019-08-15T13:01:18Z</time></trkpt><trkpt lat="42.7800873108" lon="-0.3227313515"><ele>1367.13</ele><time>2019-08-15T13:01:24Z</time></trkpt><trkpt lat="42.7800375223" lon="-0.3226728458"><ele>1367.13</ele><time>2019-08-15T13:01:28Z</time></trkpt><trkpt lat="42.7796771005" lon="-0.3225515597"><ele>1364.73</ele><time>2019-08-15T13:01:40Z</time></trkpt><trkpt lat="42.7796117216" lon="-0.3226007614"><ele>1363.77</ele><time>2019-08-15T13:01:42Z</time></trkpt><trkpt lat="42.7795320936" lon="-0.3226790484"><ele>1363.29</ele><time>2019-08-15T13:01:44Z</time></trkpt><trkpt lat="42.7793733403" lon="-0.3229195252"><ele>1359.92</ele><time>2019-08-15T13:01:48Z</time></trkpt><trkpt lat="42.7792668901" lon="-0.3230559826"><ele>1358.48</ele><time>2019-08-15T13:01:51Z</time></trkpt><trkpt lat="42.7791874297" lon="-0.3232079465"><ele>1356.56</ele><time>2019-08-15T13:01:54Z</time></trkpt><trkpt lat="42.7791548241" lon="-0.3233203478"><ele>1355.12</ele><time>2019-08-15T13:01:56Z</time></trkpt><trkpt lat="42.7791388147" lon="-0.3234531172"><ele>1354.15</ele><time>2019-08-15T13:01:58Z</time></trkpt><trkpt lat="42.7790942229" lon="-0.3237236850"><ele>1352.71</ele><time>2019-08-15T13:02:01Z</time></trkpt><trkpt lat="42.7790852543" lon="-0.3239829373"><ele>1348.87</ele><time>2019-08-15T13:02:04Z</time></trkpt><trkpt lat="42.7790736035" lon="-0.3241425287"><ele>1347.43</ele><time>2019-08-15T13:02:06Z</time></trkpt><trkpt lat="42.7790311072" lon="-0.3242559358"><ele>1345.98</ele><time>2019-08-15T13:02:08Z</time></trkpt><trkpt lat="42.7789839171" lon="-0.3243922256"><ele>1343.58</ele><time>2019-08-15T13:02:17Z</time></trkpt><trkpt lat="42.7789832465" lon="-0.3243923932"><ele>1343.58</ele><time>2019-08-15T13:02:44Z</time></trkpt><trkpt lat="42.7789834142" lon="-0.3243990149"><ele>1343.10</ele><time>2019-08-15T13:03:03Z</time></trkpt><trkpt lat="42.7789954841" lon="-0.3244136833"><ele>1343.10</ele><time>2019-08-15T13:03:14Z</time></trkpt><trkpt lat="42.7790078055" lon="-0.3244408406"><ele>1343.58</ele><time>2019-08-15T13:03:30Z</time></trkpt><trkpt lat="42.7790083922" lon="-0.3244414274"><ele>1342.62</ele><time>2019-08-15T13:03:38Z</time></trkpt><trkpt lat="42.7790513076" lon="-0.3244367335"><ele>1342.62</ele><time>2019-08-15T13:03:56Z</time></trkpt><trkpt lat="42.7790027764" lon="-0.3244141024"><ele>1341.66</ele><time>2019-08-15T13:04:11Z</time></trkpt><trkpt lat="42.7790099010" lon="-0.3243976738"><ele>1341.66</ele><time>2019-08-15T13:04:26Z</time></trkpt><trkpt lat="42.7790145949" lon="-0.3244060557"><ele>1341.66</ele><time>2019-08-15T13:04:44Z</time></trkpt><trkpt lat="42.7790207975" lon="-0.3244042117"><ele>1341.66</ele><time>2019-08-15T13:05:02Z</time></trkpt><trkpt lat="42.7790109068" lon="-0.3244040441"><ele>1340.70</ele><time>2019-08-15T13:05:12Z</time></trkpt><trkpt lat="42.7789703384" lon="-0.3244093247"><ele>1341.66</ele><time>2019-08-15T13:05:15Z</time></trkpt><trkpt lat="42.7786576096" lon="-0.3244027868"><ele>1340.22</ele><time>2019-08-15T13:05:26Z</time></trkpt><trkpt lat="42.7784317173" lon="-0.3244313691"><ele>1338.77</ele><time>2019-08-15T13:05:33Z</time></trkpt><trkpt lat="42.7780588064" lon="-0.3244519047"><ele>1335.89</ele><time>2019-08-15T13:05:45Z</time></trkpt><trkpt lat="42.7780330740" lon="-0.3244490549"><ele>1335.89</ele><time>2019-08-15T13:05:46Z</time></trkpt><trkpt lat="42.7778562997" lon="-0.3242999408"><ele>1335.41</ele><time>2019-08-15T13:05:58Z</time></trkpt><trkpt lat="42.7775929403" lon="-0.3243120108"><ele>1334.93</ele><time>2019-08-15T13:06:11Z</time></trkpt><trkpt lat="42.7775251307" lon="-0.3243193869"><ele>1333.97</ele><time>2019-08-15T13:06:16Z</time></trkpt><trkpt lat="42.7774970513" lon="-0.3244736139"><ele>1331.56</ele><time>2019-08-15T13:06:23Z</time></trkpt><trkpt lat="42.7774513699" lon="-0.3245584387"><ele>1331.08</ele><time>2019-08-15T13:06:25Z</time></trkpt><trkpt lat="42.7773914393" lon="-0.3247258253"><ele>1329.64</ele><time>2019-08-15T13:06:28Z</time></trkpt><trkpt lat="42.7772804629" lon="-0.3250448406"><ele>1326.76</ele><time>2019-08-15T13:06:34Z</time></trkpt><trkpt lat="42.7772141621" lon="-0.3254407179"><ele>1324.35</ele><time>2019-08-15T13:06:41Z</time></trkpt><trkpt lat="42.7772163413" lon="-0.3255278897"><ele>1322.91</ele><time>2019-08-15T13:06:43Z</time></trkpt><trkpt lat="42.7772233821" lon="-0.3255735710"><ele>1321.95</ele><time>2019-08-15T13:06:45Z</time></trkpt><trkpt lat="42.7772383019" lon="-0.3256718069"><ele>1320.99</ele><time>2019-08-15T13:06:49Z</time></trkpt><trkpt lat="42.7772671357" lon="-0.3257599007"><ele>1319.55</ele><time>2019-08-15T13:06:51Z</time></trkpt><trkpt lat="42.7771849092" lon="-0.3261582088"><ele>1318.10</ele><time>2019-08-15T13:07:01Z</time></trkpt><trkpt lat="42.7770407405" lon="-0.3265614621"><ele>1315.70</ele><time>2019-08-15T13:07:13Z</time></trkpt><trkpt lat="42.7767702565" lon="-0.3269830719"><ele>1312.82</ele><time>2019-08-15T13:07:26Z</time></trkpt><trkpt lat="42.7766119223" lon="-0.3271351196"><ele>1313.30</ele><time>2019-08-15T13:07:31Z</time></trkpt><trkpt lat="42.7762182243" lon="-0.3273255564"><ele>1312.34</ele><time>2019-08-15T13:07:45Z</time></trkpt><trkpt lat="42.7758510131" lon="-0.3274935298"><ele>1310.41</ele><time>2019-08-15T13:07:59Z</time></trkpt><trkpt lat="42.7755947784" lon="-0.3276103735"><ele>1309.45</ele><time>2019-08-15T13:08:12Z</time></trkpt><trkpt lat="42.7755771764" lon="-0.3275770973"><ele>1308.97</ele><time>2019-08-15T13:08:20Z</time></trkpt><trkpt lat="42.7755910903" lon="-0.3275553044"><ele>1309.45</ele><time>2019-08-15T13:08:30Z</time></trkpt><trkpt lat="42.7755890787" lon="-0.3275580704"><ele>1308.97</ele><time>2019-08-15T13:08:51Z</time></trkpt><trkpt lat="42.7755868994" lon="-0.3275555559"><ele>1309.45</ele><time>2019-08-15T13:09:02Z</time></trkpt><trkpt lat="42.7755440678" lon="-0.3275374509"><ele>1308.97</ele><time>2019-08-15T13:09:05Z</time></trkpt><trkpt lat="42.7754865680" lon="-0.3273657896"><ele>1308.01</ele><time>2019-08-15T13:09:12Z</time></trkpt><trkpt lat="42.7754632663" lon="-0.3273354471"><ele>1308.01</ele><time>2019-08-15T13:09:17Z</time></trkpt><trkpt lat="42.7752479352" lon="-0.3276304062"><ele>1308.01</ele><time>2019-08-15T13:09:32Z</time></trkpt><trkpt lat="42.7750946302" lon="-0.3277781792"><ele>1306.57</ele><time>2019-08-15T13:09:45Z</time></trkpt><trkpt lat="42.7751093823" lon="-0.3278006427"><ele>1307.05</ele><time>2019-08-15T13:09:56Z</time></trkpt><trkpt lat="42.7751149144" lon="-0.3277957812"><ele>1306.09</ele><time>2019-08-15T13:10:14Z</time></trkpt><trkpt lat="42.7751135733" lon="-0.3277989663"><ele>1306.57</ele><time>2019-08-15T13:10:35Z</time></trkpt><trkpt lat="42.7751152497" lon="-0.3277943563"><ele>1305.61</ele><time>2019-08-15T13:11:01Z</time></trkpt><trkpt lat="42.7751176804" lon="-0.3277861420"><ele>1305.13</ele><time>2019-08-15T13:11:33Z</time></trkpt><trkpt lat="42.7751152497" lon="-0.3277956974"><ele>1304.65</ele><time>2019-08-15T13:11:51Z</time></trkpt><trkpt lat="42.7751118131" lon="-0.3277941048"><ele>1304.65</ele><time>2019-08-15T13:12:13Z</time></trkpt><trkpt lat="42.7751130704" lon="-0.3277842142"><ele>1304.65</ele><time>2019-08-15T13:12:28Z</time></trkpt><trkpt lat="42.7750846557" lon="-0.3278063424"><ele>1304.17</ele><time>2019-08-15T13:12:45Z</time></trkpt><trkpt lat="42.7750315983" lon="-0.3278064262"><ele>1304.17</ele><time>2019-08-15T13:13:01Z</time></trkpt><trkpt lat="42.7748113219" lon="-0.3278995492"><ele>1304.17</ele><time>2019-08-15T13:13:15Z</time></trkpt><trkpt lat="42.7744065598" lon="-0.3281107731"><ele>1303.20</ele><time>2019-08-15T13:13:32Z</time></trkpt><trkpt lat="42.7740322240" lon="-0.3285213187"><ele>1301.76</ele><time>2019-08-15T13:13:51Z</time></trkpt><trkpt lat="42.7736196667" lon="-0.3289900348"><ele>1301.28</ele><time>2019-08-15T13:14:09Z</time></trkpt><trkpt lat="42.7732050978" lon="-0.3295085393"><ele>1299.84</ele><time>2019-08-15T13:14:25Z</time></trkpt><trkpt lat="42.7727678139" lon="-0.3299284726"><ele>1297.92</ele><time>2019-08-15T13:14:40Z</time></trkpt><trkpt lat="42.7721837629" lon="-0.3300851304"><ele>1297.44</ele><time>2019-08-15T13:14:56Z</time></trkpt><trkpt lat="42.7717536036" lon="-0.3302604798"><ele>1295.03</ele><time>2019-08-15T13:15:10Z</time></trkpt><trkpt lat="42.7715580538" lon="-0.3308488894"><ele>1295.51</ele><time>2019-08-15T13:15:26Z</time></trkpt><trkpt lat="42.7715023141" lon="-0.3312852513"><ele>1295.99</ele><time>2019-08-15T13:15:39Z</time></trkpt><trkpt lat="42.7715058345" lon="-0.3313289210"><ele>1295.99</ele><time>2019-08-15T13:15:43Z</time></trkpt><trkpt lat="42.7715193294" lon="-0.3313772846"><ele>1296.48</ele><time>2019-08-15T13:15:46Z</time></trkpt><trkpt lat="42.7718673460" lon="-0.3314295039"><ele>1296.48</ele><time>2019-08-15T13:16:00Z</time></trkpt><trkpt lat="42.7718125284" lon="-0.3316672985"><ele>1297.92</ele><time>2019-08-15T13:16:10Z</time></trkpt><trkpt lat="42.7717747260" lon="-0.3317067772"><ele>1297.92</ele><time>2019-08-15T13:16:12Z</time></trkpt><trkpt lat="42.7716045734" lon="-0.3319668677"><ele>1299.36</ele><time>2019-08-15T13:16:25Z</time></trkpt><trkpt lat="42.7715931740" lon="-0.3320807777"><ele>1299.36</ele><time>2019-08-15T13:16:31Z</time></trkpt><trkpt lat="42.7714854665" lon="-0.3321880661"><ele>1299.84</ele><time>2019-08-15T13:16:37Z</time></trkpt><trkpt lat="42.7714070119" lon="-0.3323121183"><ele>1297.92</ele><time>2019-08-15T13:16:40Z</time></trkpt><trkpt lat="42.7712629270" lon="-0.3325160500"><ele>1294.07</ele><time>2019-08-15T13:16:45Z</time></trkpt><trkpt lat="42.7710980549" lon="-0.3327494860"><ele>1290.71</ele><time>2019-08-15T13:16:49Z</time></trkpt><trkpt lat="42.7710379567" lon="-0.3328013700"><ele>1291.19</ele><time>2019-08-15T13:16:50Z</time></trkpt><trkpt lat="42.7707460988" lon="-0.3330190480"><ele>1290.71</ele><time>2019-08-15T13:16:55Z</time></trkpt><trkpt lat="42.7700197231" lon="-0.3335692361"><ele>1289.27</ele><time>2019-08-15T13:17:11Z</time></trkpt><trkpt lat="42.7696042322" lon="-0.3337221220"><ele>1288.78</ele><time>2019-08-15T13:17:23Z</time></trkpt><trkpt lat="42.7694540285" lon="-0.3338687215"><ele>1288.30</ele><time>2019-08-15T13:17:35Z</time></trkpt><trkpt lat="42.7694536932" lon="-0.3338540532"><ele>1289.27</ele><time>2019-08-15T13:17:47Z</time></trkpt><trkpt lat="42.7694515977" lon="-0.3338693921"><ele>1287.34</ele><time>2019-08-15T13:18:08Z</time></trkpt><trkpt lat="42.7694411203" lon="-0.3338981420"><ele>1287.34</ele><time>2019-08-15T13:18:40Z</time></trkpt><trkpt lat="42.7694386058" lon="-0.3338844795"><ele>1287.82</ele><time>2019-08-15T13:18:55Z</time></trkpt><trkpt lat="42.7694466524" lon="-0.3338760138"><ele>1288.30</ele><time>2019-08-15T13:19:12Z</time></trkpt><trkpt lat="42.7694481611" lon="-0.3338770196"><ele>1286.86</ele><time>2019-08-15T13:19:14Z</time></trkpt><trkpt lat="42.7694559563" lon="-0.3338723257"><ele>1286.86</ele><time>2019-08-15T13:19:28Z</time></trkpt></trkseg></trk></gpx>